Darstellungsparameter: Aktuell verwendete Einstellungen:
Skalierung der Graphiken ... ?
xyx+y,   Skalierungsfaktor:      Skalierung: Modus: x, Faktor: 1
Darstellungszeitraum ... ?
Vom - - bis: - -   Zeitraum: 08.12.2009 - 07.06.2010
Min/Max/Avg-Anzeige ... ?
Zeige MMA aktuell
Zeige MMA Monat
Zeige MMA alles
Zeige --A aktuell
Zeige --A Monat
Zeige --A alles
Keine MMA-Anzeige
MMA:
Keine MMA-Graphiken
MMA-Basis: 08.12.2009 - 07.06.2010
Quicknavigation für Darstellung... ?
Tage:      1T, 2T, 3T, 5T -1T -2T -3T -5T +1T +2T +3T +5T
Wochen: 1W, 2W, 3W -1W -2W -3W +1W +2W +3W
Monate: 1M, 3M, 6M -1M -3M -6M +1M +3M +6M
Jahre:    1J, 3J, 5J, 10J -1J -3J -5J -10J +1J +3J +5J +10J
Nutze für die Darstellung ... ?
Originaldaten oder Mittelwerte auf ...
Stundenbasis Tagesbasis Wochenbasis
Monatsbasis Jahresbasis      Datenbasis: Original-Daten
Darstellen als:
Statistik (Auto) Statistik J:M      Darstellung:
Zur Graphik,    zurück zur Übersicht aller Sensoren.
 
Tabellarische Datenbersicht: ?
 
Sensor: Nr:Datum:Temp:Abs-Feuchte:Windchill:Wind:
Aussen-T/F 1 08-12-2009 00:07:03 6.5 C 7.12 g/m*3 6.5 C 0 km/h
2 08-12-2009 00:19:04 6.4 C 7.08 g/m*3 6.4 C 0 km/h
3 08-12-2009 00:31:04 6.5 C 7.12 g/m*3 6.5 C 0 km/h
4 08-12-2009 00:43:04 6.4 C 7.08 g/m*3 6.4 C 0 km/h
5 08-12-2009 00:55:04 6.4 C 7.08 g/m*3 6.4 C 0 km/h
6 08-12-2009 01:07:04 6.5 C 7.12 g/m*3 6.5 C 0 km/h
7 08-12-2009 01:19:04 6.9 C 7.31 g/m*3 6.9 C 0 km/h
8 08-12-2009 01:31:04 7 C 7.36 g/m*3 7 C 0 km/h
9 08-12-2009 01:43:04 7.2 C 7.46 g/m*3 7.2 C 0 km/h
10 08-12-2009 01:55:04 7.3 C 7.51 g/m*3 7.3 C 0 km/h
11 08-12-2009 02:07:04 7.3 C 7.51 g/m*3 7.3 C 0 km/h
12 08-12-2009 02:19:04 7.1 C 7.41 g/m*3 7.1 C 0 km/h
13 08-12-2009 02:31:04 7.2 C 7.46 g/m*3 7.2 C 0 km/h
14 08-12-2009 02:43:04 7.1 C 7.41 g/m*3 7.1 C 0 km/h
15 08-12-2009 02:55:04 7.3 C 7.51 g/m*3 7.3 C 0 km/h
16 08-12-2009 03:07:04 7.5 C 7.6 g/m*3 7.5 C 0 km/h
17 08-12-2009 03:19:04 7.7 C 7.7 g/m*3 7.7 C 0 km/h
18 08-12-2009 03:31:04 7.6 C 7.65 g/m*3 7.6 C 0 km/h
19 08-12-2009 03:43:04 7.7 C 7.7 g/m*3 7.7 C 0 km/h
20 08-12-2009 03:55:04 8 C 7.85 g/m*3 8 C 0 km/h
21 08-12-2009 04:07:04 8.1 C 7.9 g/m*3 8.1 C 0 km/h
22 08-12-2009 04:19:04 7.9 C 7.8 g/m*3 7.9 C 0 km/h
23 08-12-2009 04:31:05 7.9 C 7.8 g/m*3 7.9 C 0 km/h
24 08-12-2009 04:43:05 7.9 C 7.8 g/m*3 7.9 C 0 km/h
25 08-12-2009 04:55:05 7.8 C 7.75 g/m*3 7.8 C 0 km/h
Sensor: Nr:Datum:Temp:Abs-Feuchte:Windchill:Wind:
Aussen-T/F 26 08-12-2009 05:07:05 7.9 C 7.8 g/m*3 7.9 C 0 km/h
27 08-12-2009 05:19:05 8.2 C 7.87 g/m*3 8.2 C 0 km/h
28 08-12-2009 05:31:05 8.5 C 7.85 g/m*3 8.5 C 0 km/h
29 08-12-2009 05:43:05 8.5 C 7.51 g/m*3 8.5 C 0 km/h
30 08-12-2009 05:55:05 8.3 C 7 g/m*3 8.3 C 0 km/h
31 08-12-2009 06:07:05 8 C 6.28 g/m*3 8 C 0 km/h
32 08-12-2009 06:19:05 7.8 C 6.12 g/m*3 7.8 C 0 km/h
33 08-12-2009 06:31:05 7.6 C 6.04 g/m*3 7.6 C 0 km/h
34 08-12-2009 06:43:05 7.4 C 5.88 g/m*3 7.4 C 0 km/h
35 08-12-2009 06:55:02 7.3 C 6 g/m*3 7.3 C 0 km/h
36 08-12-2009 07:07:02 7.2 C 5.97 g/m*3 7.2 C 0 km/h
37 08-12-2009 07:19:03 7.1 C 5.85 g/m*3 7.1 C 0 km/h
38 08-12-2009 07:31:02 6.8 C 5.97 g/m*3 6.8 C 0 km/h
39 08-12-2009 07:43:02 6.4 C 5.96 g/m*3 6.4 C 0 km/h
40 08-12-2009 07:55:03 6.2 C 6.03 g/m*3 6.2 C 0 km/h
41 08-12-2009 08:07:02 6 C 5.88 g/m*3 6 C 0 km/h
42 08-12-2009 08:19:02 5.9 C 6.06 g/m*3 5.9 C 0 km/h
43 08-12-2009 08:31:02 6 C 6.02 g/m*3 6 C 0 km/h
44 08-12-2009 08:43:02 6 C 6.1 g/m*3 6 C 0 km/h
45 08-12-2009 08:55:02 6.2 C 6.18 g/m*3 6.2 C 0 km/h
46 08-12-2009 09:07:02 6.3 C 6.14 g/m*3 6.3 C 0 km/h
47 08-12-2009 09:19:02 6.2 C 6.1 g/m*3 6.2 C 0 km/h
48 08-12-2009 09:31:02 6.2 C 5.96 g/m*3 6.2 C 0 km/h
49 08-12-2009 09:43:02 6.4 C 5.81 g/m*3 6.4 C 0 km/h
50 08-12-2009 09:55:02 6.6 C 5.89 g/m*3 6.6 C 0 km/h
Sensor: Nr:Datum:Temp:Abs-Feuchte:Windchill:Wind:
Aussen-T/F 51 08-12-2009 10:07:02 6.8 C 5.89 g/m*3 6.8 C 0 km/h
52 08-12-2009 10:19:01 6.8 C 5.74 g/m*3 6.8 C 0 km/h
53 08-12-2009 10:31:02 6.9 C 5.77 g/m*3 6.9 C 0 km/h
54 08-12-2009 10:43:02 7.1 C 5.85 g/m*3 7.1 C 0 km/h
55 08-12-2009 10:55:02 7.3 C 5.85 g/m*3 7.3 C 0 km/h
56 08-12-2009 11:07:02 7.4 C 5.88 g/m*3 7.4 C 0 km/h
57 08-12-2009 11:19:02 7.4 C 5.81 g/m*3 7.4 C 0 km/h
58 08-12-2009 11:31:02 7.4 C 5.81 g/m*3 7.4 C 0 km/h
59 08-12-2009 11:43:02 7.5 C 5.92 g/m*3 7.5 C 0 km/h
60 08-12-2009 11:55:02 7.4 C 5.73 g/m*3 7.4 C 0 km/h
61 08-12-2009 12:07:02 7.4 C 5.73 g/m*3 7.4 C 0 km/h
62 08-12-2009 12:19:02 7.4 C 5.81 g/m*3 7.4 C 0 km/h
63 08-12-2009 12:31:02 7.6 C 5.72 g/m*3 7.6 C 0 km/h
64 08-12-2009 12:43:02 7.9 C 5.67 g/m*3 7.9 C 0 km/h
65 08-12-2009 12:55:02 8 C 5.46 g/m*3 8 C 0 km/h
66 08-12-2009 13:07:02 8 C 5.37 g/m*3 8 C 0 km/h
67 08-12-2009 13:19:03 7.9 C 5.5 g/m*3 7.9 C 0 km/h
68 08-12-2009 13:31:02 7.8 C 5.55 g/m*3 7.8 C 0 km/h
69 08-12-2009 13:43:02 7.6 C 5.48 g/m*3 7.6 C 0 km/h
70 08-12-2009 13:55:03 7.5 C 5.52 g/m*3 7.5 C 0 km/h
71 08-12-2009 14:07:02 7.5 C 5.6 g/m*3 7.5 C 0 km/h
72 08-12-2009 14:19:02 7.5 C 5.52 g/m*3 7.5 C 0 km/h
73 08-12-2009 14:31:02 7.8 C 5.63 g/m*3 7.8 C 0 km/h
74 08-12-2009 14:43:02 7.8 C 5.55 g/m*3 7.8 C 0 km/h
75 08-12-2009 14:55:02 7.8 C 5.55 g/m*3 7.8 C 0 km/h
Sensor: Nr:Datum:Temp:Abs-Feuchte:Windchill:Wind:
Aussen-T/F 76 08-12-2009 15:07:02 7.8 C 5.63 g/m*3 7.8 C 0 km/h
77 08-12-2009 15:19:02 7.7 C 5.59 g/m*3 7.7 C 0 km/h
78 08-12-2009 15:31:02 7.5 C 5.68 g/m*3 7.5 C 0 km/h
79 08-12-2009 15:43:02 7.3 C 5.61 g/m*3 7.3 C 0 km/h
80 08-12-2009 15:55:02 7.4 C 5.57 g/m*3 7.4 C 0 km/h
81 08-12-2009 16:07:01 7.3 C 5.61 g/m*3 7.3 C 0 km/h
82 08-12-2009 16:19:01 6.9 C 5.7 g/m*3 6.9 C 0 km/h
83 08-12-2009 16:31:02 6.9 C 5.62 g/m*3 6.9 C 0 km/h
84 08-12-2009 16:43:02 6.9 C 5.62 g/m*3 6.9 C 0 km/h
85 08-12-2009 16:55:02 6.8 C 5.66 g/m*3 6.8 C 0 km/h
86 08-12-2009 17:07:02 6.5 C 5.7 g/m*3 6.5 C 0 km/h
87 08-12-2009 17:19:02 6.5 C 5.7 g/m*3 6.5 C 0 km/h
88 08-12-2009 17:31:02 6.5 C 5.7 g/m*3 6.5 C 0 km/h
89 08-12-2009 17:43:02 6.4 C 5.66 g/m*3 6.4 C 0 km/h
90 08-12-2009 17:55:01 6.3 C 5.7 g/m*3 6.3 C 0 km/h
91 08-12-2009 18:07:02 6 C 5.66 g/m*3 6 C 0 km/h
92 08-12-2009 18:19:01 5.9 C 5.77 g/m*3 5.9 C 0 km/h
93 08-12-2009 18:31:02 5.8 C 5.8 g/m*3 5.8 C 0 km/h
94 08-12-2009 18:43:03 5.7 C 5.76 g/m*3 5.7 C 0 km/h
95 08-12-2009 18:55:02 5.8 C 5.87 g/m*3 5.8 C 0 km/h
96 08-12-2009 19:07:02 5.7 C 5.84 g/m*3 5.7 C 0 km/h
97 08-12-2009 19:19:01 6 C 5.88 g/m*3 6 C 0 km/h
98 08-12-2009 19:31:02 6 C 5.81 g/m*3 6 C 0 km/h
99 08-12-2009 19:43:02 6.1 C 5.84 g/m*3 6.1 C 0 km/h
100 08-12-2009 19:55:02 6.2 C 5.88 g/m*3 6.2 C 0 km/h
Sensor: Nr:Datum:Temp:Abs-Feuchte:Windchill:Wind:
Aussen-T/F 101 08-12-2009 20:07:02 6.2 C 5.88 g/m*3 6.2 C 0 km/h
102 08-12-2009 20:19:02 6.3 C 5.92 g/m*3 6.3 C 0 km/h
103 08-12-2009 20:31:02 6.3 C 6 g/m*3 6.3 C 0 km/h
104 08-12-2009 20:43:02 6.3 C 6 g/m*3 6.3 C 0 km/h
105 08-12-2009 20:55:02 6.3 C 6.07 g/m*3 6.3 C 0 km/h
106 08-12-2009 21:07:01 6.3 C 6.07 g/m*3 6.3 C 0 km/h
107 08-12-2009 21:19:02 6.4 C 6.11 g/m*3 6.4 C 0 km/h
108 08-12-2009 21:31:01 6.4 C 6.11 g/m*3 6.4 C 0 km/h
109 08-12-2009 21:43:01 6.5 C 6.15 g/m*3 6.5 C 0 km/h
110 08-12-2009 21:55:02 6.5 C 6.15 g/m*3 6.5 C 0 km/h
111 08-12-2009 22:07:02 6.4 C 6.11 g/m*3 6.4 C 0 km/h
112 08-12-2009 22:19:02 6.4 C 6.11 g/m*3 6.4 C 0 km/h
113 08-12-2009 22:31:02 6.4 C 6.11 g/m*3 6.4 C 0 km/h
114 08-12-2009 22:43:02 6.3 C 6.14 g/m*3 6.3 C 0 km/h
115 08-12-2009 22:55:02 6.3 C 6.22 g/m*3 6.3 C 0 km/h
116 08-12-2009 23:07:02 6.4 C 6.26 g/m*3 6.4 C 0 km/h
117 08-12-2009 23:19:02 6.5 C 6.22 g/m*3 6.5 C 0 km/h
118 08-12-2009 23:31:02 6.5 C 6.22 g/m*3 6.5 C 0 km/h
119 08-12-2009 23:43:02 6.4 C 6.26 g/m*3 6.4 C 0 km/h
120 08-12-2009 23:55:02 6.3 C 6.37 g/m*3 6.3 C 0 km/h
121 09-12-2009 00:07:01 6.2 C 6.4 g/m*3 6.2 C 0 km/h
122 09-12-2009 00:19:02 6.2 C 6.47 g/m*3 6.2 C 0 km/h
123 09-12-2009 00:31:01 6 C 6.39 g/m*3 6 C 0 km/h
124 09-12-2009 00:43:01 6 C 6.46 g/m*3 6 C 0 km/h
125 09-12-2009 00:55:02 6 C 6.46 g/m*3 6 C 0 km/h
Sensor: Nr:Datum:Temp:Abs-Feuchte:Windchill:Wind:
Aussen-T/F 126 09-12-2009 01:07:01 5.9 C 6.49 g/m*3 5.9 C 0 km/h
127 09-12-2009 01:19:01 6 C 6.46 g/m*3 6 C 0 km/h
128 09-12-2009 01:31:02 6 C 6.46 g/m*3 6 C 0 km/h
129 09-12-2009 01:43:02 6.1 C 6.5 g/m*3 6.1 C 0 km/h
130 09-12-2009 01:55:02 6.1 C 6.5 g/m*3 6.1 C 0 km/h
131 09-12-2009 02:07:02 6.1 C 6.43 g/m*3 6.1 C 0 km/h
132 09-12-2009 02:19:02 5.9 C 6.42 g/m*3 5.9 C 0 km/h
133 09-12-2009 02:31:02 5.9 C 6.35 g/m*3 5.9 C 0 km/h
134 09-12-2009 02:43:02 5.7 C 6.26 g/m*3 5.7 C 0 km/h
135 09-12-2009 02:55:01 5.5 C 6.18 g/m*3 5.5 C 0 km/h
136 09-12-2009 03:07:01 5.5 C 6.18 g/m*3 5.5 C 0 km/h
137 09-12-2009 03:19:02 5.6 C 6.29 g/m*3 5.6 C 0 km/h
138 09-12-2009 03:31:01 5.8 C 6.3 g/m*3 5.8 C 0 km/h
139 09-12-2009 03:43:01 5.9 C 6.2 g/m*3 5.9 C 0 km/h
140 09-12-2009 03:55:01 5.9 C 6.13 g/m*3 5.9 C 0 km/h
141 09-12-2009 04:07:01 5.9 C 6.06 g/m*3 5.9 C 0 km/h
142 09-12-2009 04:19:01 5.9 C 5.98 g/m*3 5.9 C 0 km/h
143 09-12-2009 04:31:02 5.9 C 5.91 g/m*3 5.9 C 0 km/h
144 09-12-2009 04:43:02 5.9 C 5.91 g/m*3 5.9 C 0 km/h
145 09-12-2009 04:55:01 5.9 C 5.84 g/m*3 5.9 C 0 km/h
146 09-12-2009 05:07:02 5.9 C 5.84 g/m*3 5.9 C 0 km/h
147 09-12-2009 05:19:01 6 C 5.81 g/m*3 6 C 0 km/h
148 09-12-2009 05:31:01 6 C 5.73 g/m*3 6 C 0 km/h
149 09-12-2009 05:43:01 6 C 5.73 g/m*3 6 C 0 km/h
150 09-12-2009 05:55:01 5.9 C 5.77 g/m*3 5.9 C 0 km/h
Sensor: Nr:Datum:Temp:Abs-Feuchte:Windchill:Wind:
Aussen-T/F 151 09-12-2009 06:07:01 6 C 5.66 g/m*3 6 C 0 km/h
152 09-12-2009 06:19:01 6 C 5.59 g/m*3 6 C 0 km/h
153 09-12-2009 06:31:01 6 C 5.59 g/m*3 6 C 0 km/h
154 09-12-2009 06:43:01 6 C 5.66 g/m*3 6 C 0 km/h
155 09-12-2009 06:55:01 6.2 C 5.59 g/m*3 6.2 C 0 km/h
156 09-12-2009 07:07:01 6.2 C 5.52 g/m*3 6.2 C 0 km/h
157 09-12-2009 07:19:02 6.3 C 5.55 g/m*3 6.3 C 0 km/h
158 09-12-2009 07:31:01 6.4 C 5.59 g/m*3 6.4 C 0 km/h
159 09-12-2009 07:43:01 6.4 C 5.59 g/m*3 6.4 C 0 km/h
160 09-12-2009 07:55:02 6.4 C 5.59 g/m*3 6.4 C 0 km/h
161 09-12-2009 08:07:01 6.4 C 5.66 g/m*3 6.4 C 0 km/h
162 09-12-2009 08:19:01 6.3 C 5.63 g/m*3 6.3 C 0 km/h
163 09-12-2009 08:31:01 5.8 C 5.52 g/m*3 5.8 C 0 km/h
164 09-12-2009 08:43:01 5.7 C 5.55 g/m*3 5.7 C 0 km/h
165 09-12-2009 08:55:02 5.3 C 5.48 g/m*3 5.3 C 0 km/h
166 09-12-2009 09:07:01 5.2 C 5.58 g/m*3 5.2 C 0 km/h
167 09-12-2009 09:19:01 5.5 C 5.69 g/m*3 5.5 C 0 km/h
168 09-12-2009 09:31:02 5.7 C 5.76 g/m*3 5.7 C 0 km/h
169 09-12-2009 09:43:02 5.9 C 5.84 g/m*3 5.9 C 0 km/h
170 09-12-2009 09:55:01 6 C 5.73 g/m*3 6 C 0 km/h
171 09-12-2009 10:07:02 6.5 C 5.85 g/m*3 6.5 C 0 km/h
172 09-12-2009 10:19:01 7.1 C 5.77 g/m*3 7.1 C 0 km/h
173 09-12-2009 10:31:01 7.5 C 5.6 g/m*3 7.5 C 0 km/h
174 09-12-2009 10:43:02 7.6 C 5.64 g/m*3 7.6 C 0 km/h
175 09-12-2009 10:55:01 7.6 C 5.56 g/m*3 7.6 C 0 km/h
Sensor: Nr:Datum:Temp:Abs-Feuchte:Windchill:Wind:
Aussen-T/F 176 09-12-2009 11:07:02 7.8 C 5.63 g/m*3 7.8 C 0 km/h
177 09-12-2009 11:19:01 7.9 C 5.59 g/m*3 7.9 C 0 km/h
178 09-12-2009 11:31:01 8 C 5.62 g/m*3 8 C 0 km/h
179 09-12-2009 11:43:01 8 C 5.54 g/m*3 8 C 0 km/h
180 09-12-2009 11:55:01 8.1 C 5.57 g/m*3 8.1 C 0 km/h
181 09-12-2009 12:07:01 8.2 C 5.61 g/m*3 8.2 C 0 km/h
182 09-12-2009 12:19:02 8.4 C 5.6 g/m*3 8.4 C 0 km/h
183 09-12-2009 12:31:01 8.5 C 5.64 g/m*3 8.5 C 0 km/h
184 09-12-2009 12:43:01 8.4 C 5.6 g/m*3 8.4 C 0 km/h
185 09-12-2009 12:55:02 8.7 C 5.71 g/m*3 8.7 C 0 km/h
186 09-12-2009 13:07:01 9 C 5.64 g/m*3 9 C 0 km/h
187 09-12-2009 13:19:02 9.1 C 5.68 g/m*3 9.1 C 0 km/h
188 09-12-2009 13:31:01 8.7 C 5.71 g/m*3 8.7 C 0 km/h
189 09-12-2009 13:43:01 8.8 C 5.83 g/m*3 8.8 C 0 km/h
190 09-12-2009 13:55:02 9.1 C 5.86 g/m*3 9.1 C 0 km/h
191 09-12-2009 14:07:01 8.9 C 5.87 g/m*3 8.9 C 0 km/h
192 09-12-2009 14:19:01 8.8 C 5.92 g/m*3 8.8 C 0 km/h
193 09-12-2009 14:31:02 9 C 5.91 g/m*3 9 C 0 km/h
194 09-12-2009 14:43:02 9.3 C 6.02 g/m*3 9.3 C 0 km/h
195 09-12-2009 14:55:01 9.3 C 6.02 g/m*3 9.3 C 0 km/h
196 09-12-2009 15:07:02 9.4 C 5.97 g/m*3 9.4 C 0 km/h
197 09-12-2009 15:19:01 9.2 C 5.89 g/m*3 9.2 C 0 km/h
198 09-12-2009 15:31:02 9.1 C 5.86 g/m*3 9.1 C 0 km/h
199 09-12-2009 15:43:02 9.1 C 5.94 g/m*3 9.1 C 0 km/h
200 09-12-2009 15:55:01 9 C 5.91 g/m*3 9 C 0 km/h
Sensor: Nr:Datum:Temp:Abs-Feuchte:Windchill:Wind:
Aussen-T/F 201 09-12-2009 16:07:02 9 C 5.99 g/m*3 9 C 0 km/h
202 09-12-2009 16:19:01 8.9 C 6.13 g/m*3 8.9 C 0 km/h
203 09-12-2009 16:31:01 8.7 C 6.14 g/m*3 8.7 C 0 km/h
204 09-12-2009 16:43:01 8.6 C 6.19 g/m*3 8.6 C 0 km/h
205 09-12-2009 16:55:01 8.6 C 6.27 g/m*3 8.6 C 0 km/h
206 09-12-2009 17:07:01 8.5 C 6.32 g/m*3 8.5 C 0 km/h
207 09-12-2009 17:19:02 8.4 C 6.28 g/m*3 8.4 C 0 km/h
208 09-12-2009 17:31:01 8.4 C 6.36 g/m*3 8.4 C 0 km/h
209 09-12-2009 17:43:01 8.4 C 6.36 g/m*3 8.4 C 0 km/h
210 09-12-2009 17:55:01 8.2 C 6.36 g/m*3 8.2 C 0 km/h
211 09-12-2009 18:07:02 8.1 C 6.41 g/m*3 8.1 C 0 km/h
212 09-12-2009 18:19:01 8.2 C 6.53 g/m*3 8.2 C 0 km/h
213 09-12-2009 18:31:01 8.2 C 6.53 g/m*3 8.2 C 0 km/h
214 09-12-2009 18:43:01 8.2 C 6.53 g/m*3 8.2 C 0 km/h
215 09-12-2009 18:55:01 8.4 C 6.62 g/m*3 8.4 C 0 km/h
216 09-12-2009 19:07:01 8.1 C 6.41 g/m*3 8.1 C 0 km/h
217 09-12-2009 19:19:02 7.8 C 6.53 g/m*3 7.8 C 0 km/h
218 09-12-2009 19:31:01 7.8 C 6.69 g/m*3 7.8 C 0 km/h
219 09-12-2009 19:43:01 7.7 C 6.73 g/m*3 7.7 C 0 km/h
220 09-12-2009 19:55:01 7.7 C 6.81 g/m*3 7.7 C 0 km/h
221 09-12-2009 20:07:01 7.7 C 6.89 g/m*3 7.7 C 0 km/h
222 09-12-2009 20:19:02 7.8 C 6.94 g/m*3 7.8 C 0 km/h
223 09-12-2009 20:31:01 7.8 C 7.02 g/m*3 7.8 C 0 km/h
224 09-12-2009 20:43:01 7.8 C 7.02 g/m*3 7.8 C 0 km/h
225 09-12-2009 20:55:02 7.7 C 7.05 g/m*3 7.7 C 0 km/h
Sensor: Nr:Datum:Temp:Abs-Feuchte:Windchill:Wind:
Aussen-T/F 226 09-12-2009 21:07:02 7.7 C 7.05 g/m*3 7.7 C 0 km/h
227 09-12-2009 21:19:01 7.8 C 7.1 g/m*3 7.8 C 0 km/h
228 09-12-2009 21:31:01 7.8 C 7.1 g/m*3 7.8 C 0 km/h
229 09-12-2009 21:43:01 7.6 C 7.01 g/m*3 7.6 C 0 km/h
230 09-12-2009 21:55:01 7.6 C 7.09 g/m*3 7.6 C 0 km/h
231 09-12-2009 22:08:02 7.6 C 7.09 g/m*3 7.6 C 0 km/h
232 09-12-2009 22:20:02 7.6 C 7.09 g/m*3 7.6 C 0 km/h
233 09-12-2009 22:32:02 7.7 C 7.14 g/m*3 7.7 C 0 km/h
234 09-12-2009 22:44:03 7.6 C 7.17 g/m*3 7.6 C 0 km/h
235 09-12-2009 22:56:03 7.6 C 7.17 g/m*3 7.6 C 0 km/h
236 09-12-2009 23:08:03 7.6 C 7.17 g/m*3 7.6 C 0 km/h
237 09-12-2009 23:20:03 7.5 C 7.12 g/m*3 7.5 C 0 km/h
238 09-12-2009 23:32:03 7.5 C 7.2 g/m*3 7.5 C 0 km/h
239 09-12-2009 23:44:03 7.5 C 7.28 g/m*3 7.5 C 0 km/h
240 09-12-2009 23:56:03 7.5 C 7.28 g/m*3 7.5 C 0 km/h
241 10-12-2009 00:08:03 7.5 C 7.36 g/m*3 7.5 C 0 km/h
242 10-12-2009 00:20:03 7.4 C 7.32 g/m*3 7.4 C 0 km/h
243 10-12-2009 00:32:03 7.4 C 7.32 g/m*3 7.4 C 0 km/h
244 10-12-2009 00:44:03 7.4 C 7.32 g/m*3 7.4 C 0 km/h
245 10-12-2009 00:56:03 7.5 C 7.44 g/m*3 7.5 C 0 km/h
246 10-12-2009 01:08:03 7.5 C 7.44 g/m*3 7.5 C 0 km/h
247 10-12-2009 01:20:03 7.5 C 7.44 g/m*3 7.5 C 0 km/h
248 10-12-2009 01:32:03 7.6 C 7.49 g/m*3 7.6 C 0 km/h
249 10-12-2009 01:44:04 7.6 C 7.49 g/m*3 7.6 C 0 km/h
250 10-12-2009 01:56:04 7.7 C 7.54 g/m*3 7.7 C 0 km/h
Sensor: Nr:Datum:Temp:Abs-Feuchte:Windchill:Wind:
Aussen-T/F 251 10-12-2009 02:08:04 7.7 C 7.54 g/m*3 7.7 C 0 km/h
252 10-12-2009 02:20:04 7.6 C 7.49 g/m*3 7.6 C 0 km/h
253 10-12-2009 02:32:04 7.6 C 7.49 g/m*3 7.6 C 0 km/h
254 10-12-2009 02:44:04 7.6 C 7.49 g/m*3 7.6 C 0 km/h
255 10-12-2009 02:56:04 7.7 C 7.54 g/m*3 7.7 C 0 km/h
256 10-12-2009 03:08:04 7.7 C 7.54 g/m*3 7.7 C 0 km/h
257 10-12-2009 03:20:04 7.7 C 7.54 g/m*3 7.7 C 0 km/h
258 10-12-2009 03:32:04 7.7 C 7.62 g/m*3 7.7 C 0 km/h
259 10-12-2009 03:44:04 7.8 C 7.67 g/m*3 7.8 C 0 km/h
260 10-12-2009 03:56:04 7.8 C 7.67 g/m*3 7.8 C 0 km/h
261 10-12-2009 04:08:04 7.8 C 7.67 g/m*3 7.8 C 0 km/h
262 10-12-2009 04:20:04 7.8 C 7.67 g/m*3 7.8 C 0 km/h
263 10-12-2009 04:32:04 7.8 C 7.67 g/m*3 7.8 C 0 km/h
264 10-12-2009 04:44:04 7.8 C 7.67 g/m*3 7.8 C 0 km/h
265 10-12-2009 04:56:04 7.8 C 7.67 g/m*3 7.8 C 0 km/h
266 10-12-2009 05:08:04 7.8 C 7.67 g/m*3 7.8 C 0 km/h
267 10-12-2009 05:20:04 7.9 C 7.72 g/m*3 7.9 C 0 km/h
268 10-12-2009 05:32:04 7.9 C 7.72 g/m*3 7.9 C 0 km/h
269 10-12-2009 05:44:04 7.8 C 7.67 g/m*3 7.8 C 0 km/h
270 10-12-2009 05:56:04 7.9 C 7.8 g/m*3 7.9 C 0 km/h
271 10-12-2009 06:08:05 8 C 7.77 g/m*3 8 C 0 km/h
272 10-12-2009 06:20:05 8.4 C 7.97 g/m*3 8.4 C 0 km/h
273 10-12-2009 06:32:05 8.5 C 8.11 g/m*3 8.5 C 0 km/h
274 10-12-2009 06:44:05 8.7 C 8.22 g/m*3 8.7 C 0 km/h
275 10-12-2009 06:56:05 8.9 C 8.32 g/m*3 8.9 C 0 km/h
Sensor: Nr:Datum:Temp:Abs-Feuchte:Windchill:Wind:
Aussen-T/F 276 10-12-2009 07:08:02 9 C 8.38 g/m*3 9 C 0 km/h
277 10-12-2009 07:20:02 8.9 C 8.32 g/m*3 8.9 C 0 km/h
278 10-12-2009 07:32:02 8.9 C 8.32 g/m*3 8.9 C 0 km/h
279 10-12-2009 07:44:02 8.8 C 8.27 g/m*3 8.8 C 0 km/h
280 10-12-2009 07:56:02 8.9 C 8.32 g/m*3 8.9 C 0 km/h
281 10-12-2009 08:08:01 8.9 C 8.32 g/m*3 8.9 C 0 km/h
282 10-12-2009 08:20:02 8.8 C 8.27 g/m*3 8.8 C 0 km/h
283 10-12-2009 08:32:02 8.5 C 8.11 g/m*3 8.5 C 0 km/h
284 10-12-2009 08:44:02 8.5 C 8.11 g/m*3 8.5 C 0 km/h
285 10-12-2009 08:56:01 8.4 C 8.06 g/m*3 8.4 C 0 km/h
286 10-12-2009 09:08:01 8.7 C 8.22 g/m*3 8.7 C 0 km/h
287 10-12-2009 09:20:01 8.7 C 8.22 g/m*3 8.7 C 0 km/h
288 10-12-2009 09:32:01 8.8 C 8.27 g/m*3 8.8 C 0 km/h
289 10-12-2009 09:44:01 8.9 C 8.32 g/m*3 8.9 C 0 km/h
290 10-12-2009 09:56:02 8.9 C 8.32 g/m*3 8.9 C 0 km/h
291 10-12-2009 10:08:02 8.9 C 8.32 g/m*3 8.9 C 0 km/h
292 10-12-2009 10:20:01 9 C 8.38 g/m*3 9 C 0 km/h
293 10-12-2009 10:32:02 9 C 8.29 g/m*3 9 C 0 km/h
294 10-12-2009 10:44:02 8.9 C 8.32 g/m*3 8.9 C 0 km/h
295 10-12-2009 10:56:02 9.1 C 8.34 g/m*3 9.1 C 0 km/h
296 10-12-2009 11:08:02 9.3 C 8.45 g/m*3 9.3 C 0 km/h
297 10-12-2009 11:20:01 9.7 C 8.57 g/m*3 9.7 C 0 km/h
298 10-12-2009 11:32:01 9.6 C 8.43 g/m*3 9.6 C 0 km/h
299 10-12-2009 11:44:01 9.8 C 8.35 g/m*3 9.8 C 0 km/h
300 10-12-2009 11:56:02 10 C 7.99 g/m*3 10 C 0 km/h
Sensor: Nr:Datum:Temp:Abs-Feuchte:Windchill:Wind:
Aussen-T/F 301 10-12-2009 12:08:02 10 C 7.52 g/m*3 10 C 0 km/h
302 10-12-2009 12:20:02 10 C 7.8 g/m*3 10 C 0 km/h
303 10-12-2009 12:32:01 10 C 7.61 g/m*3 10 C 0 km/h
304 10-12-2009 12:44:01 10.1 C 7.09 g/m*3 10.1 C 0 km/h
305 10-12-2009 12:56:03 10.1 C 6.71 g/m*3 10.1 C 0 km/h
306 10-12-2009 13:08:02 10.3 C 6.8 g/m*3 10.3 C 0 km/h
307 10-12-2009 13:20:03 10.4 C 6.46 g/m*3 10.4 C 0 km/h
308 10-12-2009 13:32:02 10.7 C 6.29 g/m*3 10.7 C 0 km/h
309 10-12-2009 13:44:02 10.8 C 6.13 g/m*3 10.8 C 0 km/h
310 10-12-2009 13:56:02 10.9 C 5.97 g/m*3 10.9 C 0 km/h
311 10-12-2009 14:08:01 10.8 C 6.03 g/m*3 10.8 C 0 km/h
312 10-12-2009 14:20:02 10.8 C 6.03 g/m*3 10.8 C 0 km/h
313 10-12-2009 14:32:02 10.8 C 6.03 g/m*3 10.8 C 0 km/h
314 10-12-2009 14:44:02 10.8 C 5.93 g/m*3 10.8 C 0 km/h
315 10-12-2009 14:56:02 11 C 5.71 g/m*3 11 C 0 km/h
316 10-12-2009 15:08:02 10.8 C 5.73 g/m*3 10.8 C 0 km/h
317 10-12-2009 15:20:02 10.8 C 5.63 g/m*3 10.8 C 0 km/h
318 10-12-2009 15:32:02 10.5 C 5.53 g/m*3 10.5 C 0 km/h
319 10-12-2009 15:44:02 10.4 C 5.3 g/m*3 10.4 C 0 km/h
320 10-12-2009 15:56:02 10.4 C 5.11 g/m*3 10.4 C 0 km/h
321 10-12-2009 16:08:02 10.2 C 5.14 g/m*3 10.2 C 0 km/h
322 10-12-2009 16:20:01 10.1 C 5.01 g/m*3 10.1 C 0 km/h
323 10-12-2009 16:32:02 9.9 C 5.04 g/m*3 9.9 C 0 km/h
324 10-12-2009 16:44:02 9.8 C 5.1 g/m*3 9.8 C 0 km/h
325 10-12-2009 16:56:02 9.8 C 5.2 g/m*3 9.8 C 0 km/h
Sensor: Nr:Datum:Temp:Abs-Feuchte:Windchill:Wind:
Aussen-T/F 326 10-12-2009 17:08:02 9.7 C 5.35 g/m*3 9.7 C 0 km/h
327 10-12-2009 17:20:02 9.5 C 5.37 g/m*3 9.5 C 0 km/h
328 10-12-2009 17:32:02 9.3 C 5.39 g/m*3 9.3 C 0 km/h
329 10-12-2009 17:44:03 9.1 C 5.5 g/m*3 9.1 C 0 km/h
330 10-12-2009 17:56:01 9 C 5.29 g/m*3 9 C 0 km/h
331 10-12-2009 18:08:02 8.7 C 5.28 g/m*3 8.7 C 0 km/h
332 10-12-2009 18:20:01 8.5 C 5.29 g/m*3 8.5 C 0 km/h
333 10-12-2009 18:32:02 8.7 C 5.45 g/m*3 8.7 C 0 km/h
334 10-12-2009 18:44:02 8.7 C 5.53 g/m*3 8.7 C 0 km/h
335 10-12-2009 18:56:01 8.7 C 5.53 g/m*3 8.7 C 0 km/h
336 10-12-2009 19:08:02 8.7 C 5.71 g/m*3 8.7 C 0 km/h
337 10-12-2009 19:20:02 8.2 C 5.95 g/m*3 8.2 C 0 km/h
338 10-12-2009 19:32:02 8.2 C 6.11 g/m*3 8.2 C 0 km/h
339 10-12-2009 19:44:02 8.1 C 6.16 g/m*3 8.1 C 0 km/h
340 10-12-2009 19:56:02 8.3 C 6.15 g/m*3 8.3 C 0 km/h
341 10-12-2009 20:08:03 8.3 C 6.15 g/m*3 8.3 C 0 km/h
342 10-12-2009 20:20:04 8.6 C 6.1 g/m*3 8.6 C 0 km/h
343 10-12-2009 20:32:02 8.6 C 6.02 g/m*3 8.6 C 0 km/h
344 10-12-2009 20:44:02 8.5 C 5.98 g/m*3 8.5 C 0 km/h
345 10-12-2009 20:56:02 8.6 C 5.93 g/m*3 8.6 C 0 km/h
346 10-12-2009 21:08:02 8.5 C 6.06 g/m*3 8.5 C 0 km/h
347 10-12-2009 21:20:02 7.9 C 6.24 g/m*3 7.9 C 0 km/h
348 10-12-2009 21:32:02 7.9 C 6.32 g/m*3 7.9 C 0 km/h
349 10-12-2009 21:44:02 7.9 C 6.32 g/m*3 7.9 C 0 km/h
350 10-12-2009 21:56:02 8.2 C 6.2 g/m*3 8.2 C 0 km/h
Sensor: Nr:Datum:Temp:Abs-Feuchte:Windchill:Wind:
Aussen-T/F 351 10-12-2009 22:08:01 8.5 C 6.06 g/m*3 8.5 C 0 km/h
352 10-12-2009 22:21:03 8.5 C 6.06 g/m*3 8.5 C 0 km/h
353 10-12-2009 22:33:03 8.4 C 6.11 g/m*3 8.4 C 0 km/h
354 10-12-2009 22:45:03 8.3 C 6.24 g/m*3 8.3 C 0 km/h
355 10-12-2009 22:57:03 8.3 C 6.32 g/m*3 8.3 C 0 km/h
356 10-12-2009 23:09:03 8.3 C 6.32 g/m*3 8.3 C 0 km/h
357 10-12-2009 23:21:03 8.1 C 6.41 g/m*3 8.1 C 0 km/h
358 10-12-2009 23:33:03 8 C 6.45 g/m*3 8 C 0 km/h
359 10-12-2009 23:45:03 7.9 C 6.74 g/m*3 7.9 C 0 km/h
360 10-12-2009 23:57:03 7.7 C 6.81 g/m*3 7.7 C 0 km/h
361 11-12-2009 00:09:03 7.6 C 6.93 g/m*3 7.6 C 0 km/h
362 11-12-2009 00:21:03 7.5 C 7.04 g/m*3 7.5 C 0 km/h
363 11-12-2009 00:33:03 7.6 C 7.09 g/m*3 7.6 C 0 km/h
364 11-12-2009 00:45:03 7.7 C 7.14 g/m*3 7.7 C 0 km/h
365 11-12-2009 00:57:03 7.8 C 7.1 g/m*3 7.8 C 0 km/h
366 11-12-2009 01:09:03 7.8 C 7.1 g/m*3 7.8 C 0 km/h
367 11-12-2009 01:21:03 7.8 C 7.1 g/m*3 7.8 C 0 km/h
368 11-12-2009 01:33:03 7.8 C 7.1 g/m*3 7.8 C 0 km/h
369 11-12-2009 01:45:03 7.9 C 7.06 g/m*3 7.9 C 0 km/h
370 11-12-2009 01:57:03 7.9 C 6.98 g/m*3 7.9 C 0 km/h
371 11-12-2009 02:09:04 8 C 6.86 g/m*3 8 C 0 km/h
372 11-12-2009 02:21:04 7.9 C 6.9 g/m*3 7.9 C 0 km/h
373 11-12-2009 02:33:04 7.8 C 6.94 g/m*3 7.8 C 0 km/h
374 11-12-2009 02:45:04 7.9 C 6.98 g/m*3 7.9 C 0 km/h
375 11-12-2009 02:57:04 8 C 6.94 g/m*3 8 C 0 km/h
Sensor: Nr:Datum:Temp:Abs-Feuchte:Windchill:Wind:
Aussen-T/F 376 11-12-2009 03:09:04 8 C 6.94 g/m*3 8 C 0 km/h
377 11-12-2009 03:21:04 8 C 6.86 g/m*3 8 C 0 km/h
378 11-12-2009 03:33:04 7.9 C 6.98 g/m*3 7.9 C 0 km/h
379 11-12-2009 03:45:04 7.9 C 7.06 g/m*3 7.9 C 0 km/h
380 11-12-2009 03:57:04 7.9 C 7.06 g/m*3 7.9 C 0 km/h
381 11-12-2009 04:09:04 8.1 C 6.91 g/m*3 8.1 C 0 km/h
382 11-12-2009 04:21:04 8.2 C 6.95 g/m*3 8.2 C 0 km/h
383 11-12-2009 04:33:04 8.1 C 6.91 g/m*3 8.1 C 0 km/h
384 11-12-2009 04:45:04 8.1 C 6.91 g/m*3 8.1 C 0 km/h
385 11-12-2009 04:57:04 8 C 6.86 g/m*3 8 C 0 km/h
386 11-12-2009 05:09:04 7.9 C 6.98 g/m*3 7.9 C 0 km/h
387 11-12-2009 05:21:04 7.8 C 7.02 g/m*3 7.8 C 0 km/h
388 11-12-2009 05:33:04 7.8 C 7.02 g/m*3 7.8 C 0 km/h
389 11-12-2009 05:45:04 7.9 C 7.06 g/m*3 7.9 C 0 km/h
390 11-12-2009 05:57:04 7.9 C 6.9 g/m*3 7.9 C 0 km/h
391 11-12-2009 06:09:04 8 C 6.7 g/m*3 8 C 0 km/h
392 11-12-2009 06:21:04 7.8 C 6.77 g/m*3 7.8 C 0 km/h
393 11-12-2009 06:33:05 7.6 C 6.93 g/m*3 7.6 C 0 km/h
394 11-12-2009 06:45:05 7.4 C 7 g/m*3 7.4 C 0 km/h
395 11-12-2009 06:57:05 7.3 C 6.95 g/m*3 7.3 C 0 km/h
396 11-12-2009 07:09:02 7 C 6.82 g/m*3 7 C 0 km/h
397 11-12-2009 07:21:03 7.3 C 7.03 g/m*3 7.3 C 0 km/h
398 11-12-2009 07:33:03 7.4 C 7.08 g/m*3 7.4 C 0 km/h
399 11-12-2009 07:45:02 7.4 C 7 g/m*3 7.4 C 0 km/h
400 11-12-2009 07:57:02 7.6 C 7.01 g/m*3 7.6 C 0 km/h
Sensor: Nr:Datum:Temp:Abs-Feuchte:Windchill:Wind:
Aussen-T/F 401 11-12-2009 08:09:02 7.6 C 6.77 g/m*3 7.6 C 0 km/h
402 11-12-2009 08:21:02 7.7 C 6.57 g/m*3 7.7 C 0 km/h
403 11-12-2009 08:33:03 7.7 C 6.49 g/m*3 7.7 C 0 km/h
404 11-12-2009 08:45:02 7.7 C 6.57 g/m*3 7.7 C 0 km/h
405 11-12-2009 08:57:02 7.8 C 6.61 g/m*3 7.8 C 0 km/h
406 11-12-2009 09:09:02 7.7 C 6.49 g/m*3 7.7 C 0 km/h
407 11-12-2009 09:21:01 7.7 C 6.41 g/m*3 7.7 C 0 km/h
408 11-12-2009 09:33:02 7.6 C 6.2 g/m*3 7.6 C 0 km/h
409 11-12-2009 09:45:02 7.6 C 6.04 g/m*3 7.6 C 0 km/h
410 11-12-2009 09:57:02 7.6 C 5.96 g/m*3 7.6 C 0 km/h
411 11-12-2009 10:09:02 7.4 C 5.73 g/m*3 7.4 C 0 km/h
412 11-12-2009 10:21:02 7.4 C 5.57 g/m*3 7.4 C 0 km/h
413 11-12-2009 10:33:02 7.3 C 5.45 g/m*3 7.3 C 0 km/h
414 11-12-2009 10:45:02 7.3 C 5.45 g/m*3 7.3 C 0 km/h
415 11-12-2009 10:57:02 7.5 C 5.44 g/m*3 7.5 C 0 km/h
416 11-12-2009 11:09:02 7.6 C 5.4 g/m*3 7.6 C 0 km/h
417 11-12-2009 11:21:02 7.5 C 5.44 g/m*3 7.5 C 0 km/h
418 11-12-2009 11:33:02 7.5 C 5.36 g/m*3 7.5 C 0 km/h
419 11-12-2009 11:45:02 7.9 C 5.42 g/m*3 7.9 C 0 km/h
420 11-12-2009 11:57:02 8.2 C 5.36 g/m*3 8.2 C 0 km/h
421 11-12-2009 12:09:02 8.3 C 5.31 g/m*3 8.3 C 0 km/h
422 11-12-2009 12:21:03 8 C 5.29 g/m*3 8 C 0 km/h
423 11-12-2009 12:33:02 7.8 C 5.3 g/m*3 7.8 C 0 km/h
424 11-12-2009 12:45:03 7.7 C 5.27 g/m*3 7.7 C 0 km/h
425 11-12-2009 12:57:03 7.7 C 5.27 g/m*3 7.7 C 0 km/h
Sensor: Nr:Datum:Temp:Abs-Feuchte:Windchill:Wind:
Aussen-T/F 426 11-12-2009 13:09:02 7.9 C 5.34 g/m*3 7.9 C 0 km/h
427 11-12-2009 13:21:02 7.9 C 5.42 g/m*3 7.9 C 0 km/h
428 11-12-2009 13:33:02 7.8 C 5.3 g/m*3 7.8 C 0 km/h
429 11-12-2009 13:45:02 7.7 C 5.27 g/m*3 7.7 C 0 km/h
430 11-12-2009 13:57:02 7.7 C 5.35 g/m*3 7.7 C 0 km/h
431 11-12-2009 14:09:02 7.6 C 5.32 g/m*3 7.6 C 0 km/h
432 11-12-2009 14:21:02 7.4 C 5.17 g/m*3 7.4 C 0 km/h
433 11-12-2009 14:33:02 7.3 C 5.14 g/m*3 7.3 C 0 km/h
434 11-12-2009 14:45:02 7.3 C 5.14 g/m*3 7.3 C 0 km/h
435 11-12-2009 14:57:03 7.3 C 5.21 g/m*3 7.3 C 0 km/h
436 11-12-2009 15:09:01 7.1 C 5.15 g/m*3 7.1 C 0 km/h
437 11-12-2009 15:21:01 7.1 C 5.15 g/m*3 7.1 C 0 km/h
438 11-12-2009 15:33:02 7 C 5.19 g/m*3 7 C 0 km/h
439 11-12-2009 15:45:02 7 C 5.27 g/m*3 7 C 0 km/h
440 11-12-2009 15:57:02 6.8 C 5.51 g/m*3 6.8 C 0 km/h
441 11-12-2009 16:09:02 6.5 C 5.55 g/m*3 6.5 C 0 km/h
442 11-12-2009 16:21:02 6.3 C 5.63 g/m*3 6.3 C 0 km/h
443 11-12-2009 16:33:02 6.4 C 5.74 g/m*3 6.4 C 0 km/h
444 11-12-2009 16:45:02 6.3 C 5.7 g/m*3 6.3 C 0 km/h
445 11-12-2009 16:57:02 6.3 C 5.7 g/m*3 6.3 C 0 km/h
446 11-12-2009 17:09:02 6.3 C 5.63 g/m*3 6.3 C 0 km/h
447 11-12-2009 17:21:02 6.2 C 5.66 g/m*3 6.2 C 0 km/h
448 11-12-2009 17:33:02 6 C 5.81 g/m*3 6 C 0 km/h
449 11-12-2009 17:45:02 5.8 C 6.02 g/m*3 5.8 C 0 km/h
450 11-12-2009 17:57:02 5.8 C 6.16 g/m*3 5.8 C 0 km/h
Sensor: Nr:Datum:Temp:Abs-Feuchte:Windchill:Wind:
Aussen-T/F 451 11-12-2009 18:09:02 5.8 C 6.23 g/m*3 5.8 C 0 km/h
452 11-12-2009 18:21:02 5.9 C 6.35 g/m*3 5.9 C 0 km/h
453 11-12-2009 18:33:02 5.7 C 6.33 g/m*3 5.7 C 0 km/h
454 11-12-2009 18:45:02 5.6 C 6.36 g/m*3 5.6 C 0 km/h
455 11-12-2009 18:57:02 5.4 C 6.28 g/m*3 5.4 C 0 km/h
456 11-12-2009 19:09:01 5.4 C 6.35 g/m*3 5.4 C 0 km/h
457 11-12-2009 19:21:02 5.4 C 6.35 g/m*3 5.4 C 0 km/h
458 11-12-2009 19:33:02 5.3 C 6.38 g/m*3 5.3 C 0 km/h
459 11-12-2009 19:45:02 5.1 C 6.29 g/m*3 5.1 C 0 km/h
460 11-12-2009 19:57:02 4.6 C 6.09 g/m*3 4.6 C 0 km/h
461 11-12-2009 20:09:02 4.3 C 5.9 g/m*3 4.3 C 0 km/h
462 11-12-2009 20:21:02 4 C 5.79 g/m*3 4 C 0 km/h
463 11-12-2009 20:33:02 3.9 C 5.75 g/m*3 3.9 C 0 km/h
464 11-12-2009 20:45:01 3.7 C 5.73 g/m*3 3.7 C 0 km/h
465 11-12-2009 20:57:01 3.5 C 5.6 g/m*3 3.5 C 0 km/h
466 11-12-2009 21:09:01 3.4 C 5.56 g/m*3 3.4 C 0 km/h
467 11-12-2009 21:21:02 3.2 C 5.54 g/m*3 3.2 C 0 km/h
468 11-12-2009 21:33:01 3.3 C 5.58 g/m*3 3.3 C 0 km/h
469 11-12-2009 21:45:02 3.4 C 5.68 g/m*3 3.4 C 0 km/h
470 11-12-2009 21:57:02 3.4 C 5.68 g/m*3 3.4 C 0 km/h
471 11-12-2009 22:09:02 3.4 C 5.68 g/m*3 3.4 C 0 km/h
472 11-12-2009 22:21:02 3.4 C 5.68 g/m*3 3.4 C 0 km/h
473 11-12-2009 22:33:02 3.3 C 5.64 g/m*3 3.3 C 0 km/h
474 11-12-2009 22:45:02 3.4 C 5.68 g/m*3 3.4 C 0 km/h
475 11-12-2009 22:57:02 3.4 C 5.68 g/m*3 3.4 C 0 km/h
Sensor: Nr:Datum:Temp:Abs-Feuchte:Windchill:Wind:
Aussen-T/F 476 11-12-2009 23:09:01 3.4 C 5.68 g/m*3 3.4 C 0 km/h
477 11-12-2009 23:21:02 3.4 C 5.68 g/m*3 3.4 C 0 km/h
478 11-12-2009 23:33:02 3.4 C 5.68 g/m*3 3.4 C 0 km/h
479 11-12-2009 23:45:02 3.2 C 5.6 g/m*3 3.2 C 0 km/h
480 11-12-2009 23:57:02 3.3 C 5.64 g/m*3 3.3 C 0 km/h
481 12-12-2009 00:09:03 3.4 C 5.68 g/m*3 3.4 C 0 km/h
482 12-12-2009 00:21:02 3.4 C 5.68 g/m*3 3.4 C 0 km/h
483 12-12-2009 00:33:02 3.1 C 5.57 g/m*3 3.1 C 0 km/h
484 12-12-2009 00:45:01 3.1 C 5.63 g/m*3 3.1 C 0 km/h
485 12-12-2009 00:57:01 3.3 C 5.7 g/m*3 3.3 C 0 km/h
486 12-12-2009 01:09:02 3.4 C 5.74 g/m*3 3.4 C 0 km/h
487 12-12-2009 01:21:01 3.2 C 5.66 g/m*3 3.2 C 0 km/h
488 12-12-2009 01:33:01 3.2 C 5.66 g/m*3 3.2 C 0 km/h
489 12-12-2009 01:45:01 3.1 C 5.63 g/m*3 3.1 C 0 km/h
490 12-12-2009 01:57:01 3.3 C 5.7 g/m*3 3.3 C 0 km/h
491 12-12-2009 02:09:02 3.3 C 5.7 g/m*3 3.3 C 0 km/h
492 12-12-2009 02:21:02 3.2 C 5.66 g/m*3 3.2 C 0 km/h
493 12-12-2009 02:33:01 3.1 C 5.63 g/m*3 3.1 C 0 km/h
494 12-12-2009 02:46:03 3.2 C 5.72 g/m*3 3.2 C 0 km/h
495 12-12-2009 02:58:03 3.4 C 5.8 g/m*3 3.4 C 0 km/h
496 12-12-2009 03:10:03 3.4 C 5.8 g/m*3 3.4 C 0 km/h
497 12-12-2009 03:22:03 3.3 C 5.7 g/m*3 3.3 C 0 km/h
498 12-12-2009 03:34:02 3.4 C 5.74 g/m*3 3.4 C 0 km/h
499 12-12-2009 03:46:02 3.2 C 5.6 g/m*3 3.2 C 0 km/h
500 12-12-2009 03:58:02 3.1 C 5.57 g/m*3 3.1 C 0 km/h
Sensor: Nr:Datum:Temp:Abs-Feuchte:Windchill:Wind:
Aussen-T/F 501 12-12-2009 04:10:02 3.1 C 5.51 g/m*3 3.1 C 0 km/h
502 12-12-2009 04:22:02 3.1 C 5.51 g/m*3 3.1 C 0 km/h
503 12-12-2009 04:34:02 2.9 C 5.49 g/m*3 2.9 C 0 km/h
504 12-12-2009 04:46:02 2.9 C 5.49 g/m*3 2.9 C 0 km/h
505 12-12-2009 04:58:02 2.9 C 5.49 g/m*3 2.9 C 0 km/h
506 12-12-2009 05:10:02 3 C 5.47 g/m*3 3 C 0 km/h
507 12-12-2009 05:22:02 2.9 C 5.49 g/m*3 2.9 C 0 km/h
508 12-12-2009 05:34:02 2.9 C 5.49 g/m*3 2.9 C 0 km/h
509 12-12-2009 05:46:02 3 C 5.47 g/m*3 3 C 0 km/h
510 12-12-2009 05:58:02 2.9 C 5.49 g/m*3 2.9 C 0 km/h
511 12-12-2009 06:10:02 2.9 C 5.49 g/m*3 2.9 C 0 km/h
512 12-12-2009 06:22:02 3 C 5.47 g/m*3 3 C 0 km/h
513 12-12-2009 06:34:02 3 C 5.47 g/m*3 3 C 0 km/h
514 12-12-2009 06:46:02 3.1 C 5.51 g/m*3 3.1 C 0 km/h
515 12-12-2009 06:58:02 3.1 C 5.51 g/m*3 3.1 C 0 km/h
516 12-12-2009 07:10:01 3.1 C 5.51 g/m*3 3.1 C 0 km/h
517 12-12-2009 07:22:02 3.1 C 5.51 g/m*3 3.1 C 0 km/h
518 12-12-2009 07:34:01 3.1 C 5.51 g/m*3 3.1 C 0 km/h
519 12-12-2009 07:46:02 3.1 C 5.51 g/m*3 3.1 C 0 km/h
520 12-12-2009 07:58:02 3.1 C 5.51 g/m*3 3.1 C 0 km/h
521 12-12-2009 08:10:02 3.1 C 5.51 g/m*3 3.1 C 0 km/h
522 12-12-2009 08:22:02 3.1 C 5.51 g/m*3 3.1 C 0 km/h
523 12-12-2009 08:34:02 3.4 C 5.62 g/m*3 3.4 C 0 km/h
524 12-12-2009 08:46:02 3.1 C 5.51 g/m*3 3.1 C 0 km/h
525 12-12-2009 08:58:02 3.1 C 5.51 g/m*3 3.1 C 0 km/h
Sensor: Nr:Datum:Temp:Abs-Feuchte:Windchill:Wind:
Aussen-T/F 526 12-12-2009 09:10:02 3.2 C 5.54 g/m*3 3.2 C 0 km/h
527 12-12-2009 09:22:01 3.2 C 5.54 g/m*3 3.2 C 0 km/h
528 12-12-2009 09:34:02 3.3 C 5.58 g/m*3 3.3 C 0 km/h
529 12-12-2009 09:46:02 3.4 C 5.62 g/m*3 3.4 C 0 km/h
530 12-12-2009 09:58:02 3.4 C 5.62 g/m*3 3.4 C 0 km/h
531 12-12-2009 10:10:02 3.4 C 5.56 g/m*3 3.4 C 0 km/h
532 12-12-2009 10:22:01 3.5 C 5.6 g/m*3 3.5 C 0 km/h
533 12-12-2009 10:34:02 3.4 C 5.56 g/m*3 3.4 C 0 km/h
534 12-12-2009 10:46:02 3.3 C 5.52 g/m*3 3.3 C 0 km/h
535 12-12-2009 10:58:02 3.4 C 5.56 g/m*3 3.4 C 0 km/h
536 12-12-2009 11:10:02 3.6 C 5.63 g/m*3 3.6 C 0 km/h
537 12-12-2009 11:22:02 3.6 C 5.63 g/m*3 3.6 C 0 km/h
538 12-12-2009 11:34:02 3.6 C 5.63 g/m*3 3.6 C 0 km/h
539 12-12-2009 11:46:02 3.7 C 5.61 g/m*3 3.7 C 0 km/h
540 12-12-2009 11:58:02 3.8 C 5.65 g/m*3 3.8 C 0 km/h
541 12-12-2009 12:10:02 3.8 C 5.58 g/m*3 3.8 C 0 km/h
542 12-12-2009 12:22:01 3.8 C 5.58 g/m*3 3.8 C 0 km/h
543 12-12-2009 12:34:02 3.8 C 5.58 g/m*3 3.8 C 0 km/h
544 12-12-2009 12:46:01 3.8 C 5.52 g/m*3 3.8 C 0 km/h
545 12-12-2009 12:58:01 4 C 5.53 g/m*3 4 C 0 km/h
546 12-12-2009 13:10:02 4.2 C 5.54 g/m*3 4.2 C 0 km/h
547 12-12-2009 13:22:02 4.2 C 5.54 g/m*3 4.2 C 0 km/h
548 12-12-2009 13:34:01 4.4 C 5.55 g/m*3 4.4 C 0 km/h
549 12-12-2009 13:46:02 4.5 C 5.52 g/m*3 4.5 C 0 km/h
550 12-12-2009 13:58:02 4.5 C 5.46 g/m*3 4.5 C 0 km/h
Sensor: Nr:Datum:Temp:Abs-Feuchte:Windchill:Wind:
Aussen-T/F 551 12-12-2009 14:10:01 4.5 C 5.39 g/m*3 4.5 C 0 km/h
552 12-12-2009 14:22:02 4.6 C 5.43 g/m*3 4.6 C 0 km/h
553 12-12-2009 14:34:01 4.7 C 5.46 g/m*3 4.7 C 0 km/h
554 12-12-2009 14:46:03 4.6 C 5.43 g/m*3 4.6 C 0 km/h
555 12-12-2009 14:58:03 4.5 C 5.39 g/m*3 4.5 C 0 km/h
556 12-12-2009 15:10:02 4.4 C 5.29 g/m*3 4.4 C 0 km/h
557 12-12-2009 15:22:02 4.4 C 5.22 g/m*3 4.4 C 0 km/h
558 12-12-2009 15:34:02 4.4 C 5.22 g/m*3 4.4 C 0 km/h
559 12-12-2009 15:46:02 4.4 C 5.03 g/m*3 4.4 C 0 km/h
560 12-12-2009 15:58:02 4.4 C 4.9 g/m*3 4.4 C 0 km/h
561 12-12-2009 16:10:01 4.4 C 4.83 g/m*3 4.4 C 0 km/h
562 12-12-2009 16:22:02 4.3 C 4.74 g/m*3 4.3 C 0 km/h
563 12-12-2009 16:34:02 4.2 C 4.77 g/m*3 4.2 C 0 km/h
564 12-12-2009 16:46:02 4.2 C 4.9 g/m*3 4.2 C 0 km/h
565 12-12-2009 16:58:03 4.1 C 4.86 g/m*3 4.1 C 0 km/h
566 12-12-2009 17:10:01 4.1 C 4.8 g/m*3 4.1 C 0 km/h
567 12-12-2009 17:22:01 4.1 C 4.74 g/m*3 4.1 C 0 km/h
568 12-12-2009 17:34:02 4 C 4.77 g/m*3 4 C 0 km/h
569 12-12-2009 17:46:02 4 C 4.77 g/m*3 4 C 0 km/h
570 12-12-2009 17:58:02 4 C 4.77 g/m*3 4 C 0 km/h
571 12-12-2009 18:10:01 3.9 C 4.86 g/m*3 3.9 C 0 km/h
572 12-12-2009 18:22:02 3.9 C 4.86 g/m*3 3.9 C 0 km/h
573 12-12-2009 18:34:02 3.8 C 4.83 g/m*3 3.8 C 0 km/h
574 12-12-2009 18:46:01 3.9 C 4.8 g/m*3 3.9 C 0 km/h
575 12-12-2009 18:58:01 3.9 C 4.86 g/m*3 3.9 C 0 km/h
Sensor: Nr:Datum:Temp:Abs-Feuchte:Windchill:Wind:
Aussen-T/F 576 12-12-2009 19:10:02 3.8 C 4.83 g/m*3 3.8 C 0 km/h
577 12-12-2009 19:22:01 3.8 C 4.77 g/m*3 3.8 C 0 km/h
578 12-12-2009 19:34:02 3.5 C 4.67 g/m*3 3.5 C 0 km/h
579 12-12-2009 19:46:02 3.1 C 4.61 g/m*3 3.1 C 0 km/h
580 12-12-2009 19:58:02 2.8 C 4.69 g/m*3 2.8 C 0 km/h
581 12-12-2009 20:10:02 2.7 C 4.72 g/m*3 2.7 C 0 km/h
582 12-12-2009 20:22:01 2.8 C 4.81 g/m*3 2.8 C 0 km/h
583 12-12-2009 20:34:02 3 C 4.82 g/m*3 3 C 0 km/h
584 12-12-2009 20:46:02 3 C 4.82 g/m*3 3 C 0 km/h
585 12-12-2009 20:58:02 3.2 C 4.76 g/m*3 3.2 C 0 km/h
586 12-12-2009 21:10:02 3.1 C 4.73 g/m*3 3.1 C 0 km/h
587 12-12-2009 21:22:02 3.2 C 4.82 g/m*3 3.2 C 0 km/h
588 12-12-2009 21:34:01 3.1 C 4.79 g/m*3 3.1 C 0 km/h
589 12-12-2009 21:46:02 3 C 4.76 g/m*3 3 C 0 km/h
590 12-12-2009 21:58:02 3.1 C 4.85 g/m*3 3.1 C 0 km/h
591 12-12-2009 22:10:01 3.1 C 4.85 g/m*3 3.1 C 0 km/h
592 12-12-2009 22:22:02 3 C 4.82 g/m*3 3 C 0 km/h
593 12-12-2009 22:34:01 3 C 4.82 g/m*3 3 C 0 km/h
594 12-12-2009 22:46:02 3 C 4.82 g/m*3 3 C 0 km/h
595 12-12-2009 22:58:02 3 C 4.82 g/m*3 3 C 0 km/h
596 12-12-2009 23:10:02 3 C 4.76 g/m*3 3 C 0 km/h
597 12-12-2009 23:22:02 3.1 C 4.73 g/m*3 3.1 C 0 km/h
598 12-12-2009 23:34:03 3.1 C 4.67 g/m*3 3.1 C 0 km/h
599 12-12-2009 23:46:02 3.2 C 4.7 g/m*3 3.2 C 0 km/h
600 12-12-2009 23:58:02 3.1 C 4.67 g/m*3 3.1 C 0 km/h
Sensor: Nr:Datum:Temp:Abs-Feuchte:Windchill:Wind:
Aussen-T/F 601 13-12-2009 00:10:01 3.1 C 4.61 g/m*3 3.1 C 0 km/h
602 13-12-2009 00:22:01 3.1 C 4.61 g/m*3 3.1 C 0 km/h
603 13-12-2009 00:34:02 3.1 C 4.61 g/m*3 3.1 C 0 km/h
604 13-12-2009 00:46:01 3.1 C 4.67 g/m*3 3.1 C 0 km/h
605 13-12-2009 00:58:01 3.1 C 4.67 g/m*3 3.1 C 0 km/h
606 13-12-2009 01:10:02 3.1 C 4.67 g/m*3 3.1 C 0 km/h
607 13-12-2009 01:22:02 3 C 4.58 g/m*3 3 C 0 km/h
608 13-12-2009 01:34:02 2.9 C 4.61 g/m*3 2.9 C 0 km/h
609 13-12-2009 01:46:02 2.8 C 4.63 g/m*3 2.8 C 0 km/h
610 13-12-2009 01:58:02 2.6 C 4.63 g/m*3 2.6 C 0 km/h
611 13-12-2009 02:10:02 2.6 C 4.69 g/m*3 2.6 C 0 km/h
612 13-12-2009 02:22:02 2.4 C 4.68 g/m*3 2.4 C 0 km/h
613 13-12-2009 02:34:01 2.4 C 4.74 g/m*3 2.4 C 0 km/h
614 13-12-2009 02:47:04 2.2 C 4.79 g/m*3 2.2 C 0 km/h
615 13-12-2009 02:59:04 2.2 C 4.79 g/m*3 2.2 C 0 km/h
616 13-12-2009 03:11:03 2.1 C 4.81 g/m*3 2.1 C 0 km/h
617 13-12-2009 03:23:03 2.1 C 4.87 g/m*3 2.1 C 0 km/h
618 13-12-2009 03:35:01 2.2 C 4.9 g/m*3 2.2 C 0 km/h
619 13-12-2009 03:47:01 2.3 C 4.99 g/m*3 2.3 C 0 km/h
620 13-12-2009 03:59:01 2.2 C 4.96 g/m*3 2.2 C 0 km/h
621 13-12-2009 04:11:02 2.2 C 4.96 g/m*3 2.2 C 0 km/h
622 13-12-2009 04:23:01 2.2 C 4.96 g/m*3 2.2 C 0 km/h
623 13-12-2009 04:35:01 2.2 C 4.96 g/m*3 2.2 C 0 km/h
624 13-12-2009 04:47:01 2.2 C 4.9 g/m*3 2.2 C 0 km/h
625 13-12-2009 04:59:01 2.2 C 4.9 g/m*3 2.2 C 0 km/h
Sensor: Nr:Datum:Temp:Abs-Feuchte:Windchill:Wind:
Aussen-T/F 626 13-12-2009 05:11:01 2.2 C 4.9 g/m*3 2.2 C 0 km/h
627 13-12-2009 05:23:02 2.2 C 4.84 g/m*3 2.2 C 0 km/h
628 13-12-2009 05:35:01 2.2 C 4.84 g/m*3 2.2 C 0 km/h
629 13-12-2009 05:47:03 2.2 C 4.84 g/m*3 2.2 C 0 km/h
630 13-12-2009 05:59:03 2.2 C 4.84 g/m*3 2.2 C 0 km/h
631 13-12-2009 06:11:02 2.2 C 4.79 g/m*3 2.2 C 0 km/h
632 13-12-2009 06:23:02 2.2 C 4.79 g/m*3 2.2 C 0 km/h
633 13-12-2009 06:35:02 2.2 C 4.79 g/m*3 2.2 C 0 km/h
634 13-12-2009 06:47:02 2 C 4.56 g/m*3 2 C 0 km/h
635 13-12-2009 06:59:02 2.1 C 4.25 g/m*3 2.1 C 0 km/h
636 13-12-2009 07:11:01 2 C 4.06 g/m*3 2 C 0 km/h
637 13-12-2009 07:23:02 1.7 C 4.03 g/m*3 1.7 C 0 km/h
638 13-12-2009 07:35:02 1.7 C 4.08 g/m*3 1.7 C 0 km/h
639 13-12-2009 07:47:02 1.7 C 4.03 g/m*3 1.7 C 0 km/h
640 13-12-2009 07:59:02 1.7 C 3.97 g/m*3 1.7 C 0 km/h
641 13-12-2009 08:11:03 1.7 C 4.03 g/m*3 1.7 C 0 km/h
642 13-12-2009 08:23:02 1.7 C 4.08 g/m*3 1.7 C 0 km/h
643 13-12-2009 08:35:02 1.7 C 4.08 g/m*3 1.7 C 0 km/h
644 13-12-2009 08:47:01 1.7 C 4.08 g/m*3 1.7 C 0 km/h
645 13-12-2009 08:59:01 1.8 C 4.11 g/m*3 1.8 C 0 km/h
646 13-12-2009 09:11:02 1.8 C 4.11 g/m*3 1.8 C 0 km/h
647 13-12-2009 09:23:01 1.9 C 4.14 g/m*3 1.9 C 0 km/h
648 13-12-2009 09:35:01 2 C 4.11 g/m*3 2 C 0 km/h
649 13-12-2009 09:47:01 2.1 C 4.14 g/m*3 2.1 C 0 km/h
650 13-12-2009 09:59:01 2.1 C 4.08 g/m*3 2.1 C 0 km/h
Sensor: Nr:Datum:Temp:Abs-Feuchte:Windchill:Wind:
Aussen-T/F 651 13-12-2009 10:11:02 2.1 C 3.97 g/m*3 2.1 C 0 km/h
652 13-12-2009 10:23:01 2.1 C 3.92 g/m*3 2.1 C 0 km/h
653 13-12-2009 10:35:02 2.1 C 3.75 g/m*3 2.1 C 0 km/h
654 13-12-2009 10:47:01 2.3 C 3.69 g/m*3 2.3 C 0 km/h
655 13-12-2009 10:59:01 2.3 C 3.52 g/m*3 2.3 C 0 km/h
656 13-12-2009 11:11:02 2.3 C 3.52 g/m*3 2.3 C 0 km/h
657 13-12-2009 11:23:01 2.3 C 3.52 g/m*3 2.3 C 0 km/h
658 13-12-2009 11:35:01 2.7 C 3.67 g/m*3 2.7 C 0 km/h
659 13-12-2009 11:47:01 2.8 C 3.7 g/m*3 2.8 C 0 km/h
660 13-12-2009 11:59:01 2.5 C 3.56 g/m*3 2.5 C 0 km/h
661 13-12-2009 12:11:01 2.5 C 3.56 g/m*3 2.5 C 0 km/h
662 13-12-2009 12:23:02 2.6 C 3.59 g/m*3 2.6 C 0 km/h
663 13-12-2009 12:35:01 2.6 C 3.59 g/m*3 2.6 C 0 km/h
664 13-12-2009 12:47:02 2.9 C 3.48 g/m*3 2.9 C 0 km/h
665 13-12-2009 12:59:02 2.8 C 3.4 g/m*3 2.8 C 0 km/h
666 13-12-2009 13:11:02 2.6 C 3.47 g/m*3 2.6 C 0 km/h
667 13-12-2009 13:23:02 2.6 C 3.47 g/m*3 2.6 C 0 km/h
668 13-12-2009 13:35:02 2.7 C 3.5 g/m*3 2.7 C 0 km/h
669 13-12-2009 13:47:02 2.8 C 3.58 g/m*3 2.8 C 0 km/h
670 13-12-2009 13:59:02 2.8 C 3.28 g/m*3 2.8 C 0 km/h
671 13-12-2009 14:11:02 2.6 C 3.07 g/m*3 2.6 C 0 km/h
672 13-12-2009 14:23:02 2.3 C 3.01 g/m*3 2.3 C 0 km/h
673 13-12-2009 14:35:01 2 C 2.95 g/m*3 2 C 0 km/h
674 13-12-2009 14:47:02 1.7 C 2.99 g/m*3 1.7 C 0 km/h
675 13-12-2009 14:59:02 1.6 C 2.97 g/m*3 1.6 C 0 km/h
Sensor: Nr:Datum:Temp:Abs-Feuchte:Windchill:Wind:
Aussen-T/F 676 13-12-2009 15:11:02 1.6 C 2.97 g/m*3 1.6 C 0 km/h
677 13-12-2009 15:23:02 1.5 C 3.01 g/m*3 1.5 C 0 km/h
678 13-12-2009 15:35:03 1.4 C 2.72 g/m*3 1.4 C 0 km/h
679 13-12-2009 15:47:02 1.4 C 2.72 g/m*3 1.4 C 0 km/h
680 13-12-2009 15:59:02 1.3 C 2.7 g/m*3 1.3 C 0 km/h
681 13-12-2009 16:11:01 1.2 C 2.63 g/m*3 1.2 C 0 km/h
682 13-12-2009 16:23:02 1.1 C 2.67 g/m*3 1.1 C 0 km/h
683 13-12-2009 16:35:01 1 C 2.7 g/m*3 1 C 0 km/h
684 13-12-2009 16:47:02 1 C 2.8 g/m*3 1 C 0 km/h
685 13-12-2009 16:59:02 0.9 C 2.73 g/m*3 0.9 C 0 km/h
686 13-12-2009 17:11:01 0.8 C 2.61 g/m*3 0.8 C 0 km/h
687 13-12-2009 17:23:01 0.8 C 2.61 g/m*3 0.8 C 0 km/h
688 13-12-2009 17:35:02 0.8 C 2.51 g/m*3 0.8 C 0 km/h
689 13-12-2009 17:47:02 0.6 C 2.42 g/m*3 0.6 C 0 km/h
690 13-12-2009 17:59:02 0.6 C 2.42 g/m*3 0.6 C 0 km/h
691 13-12-2009 18:11:02 0.5 C 2.41 g/m*3 0.5 C 0 km/h
692 13-12-2009 18:23:02 0.5 C 2.46 g/m*3 0.5 C 0 km/h
693 13-12-2009 18:35:02 0.4 C 2.39 g/m*3 0.4 C 0 km/h
694 13-12-2009 18:47:01 0.3 C 2.37 g/m*3 0.3 C 0 km/h
695 13-12-2009 18:59:01 0.2 C 2.41 g/m*3 0.2 C 0 km/h
696 13-12-2009 19:11:02 0.2 C 2.36 g/m*3 0.2 C 0 km/h
697 13-12-2009 19:23:01 0 C 2.37 g/m*3 0 C 0 km/h
698 13-12-2009 19:35:02 -0.2 C 2.39 g/m*3 -0.2 C 0 km/h
699 13-12-2009 19:47:02 -0.4 C 2.4 g/m*3 -0.4 C 0 km/h
700 13-12-2009 19:59:02 -0.5 C 2.43 g/m*3 -0.5 C 0 km/h
Sensor: Nr:Datum:Temp:Abs-Feuchte:Windchill:Wind:
Aussen-T/F 701 13-12-2009 20:11:02 -0.6 C 2.42 g/m*3 -0.6 C 0 km/h
702 13-12-2009 20:23:02 -0.6 C 2.46 g/m*3 -0.6 C 0 km/h
703 13-12-2009 20:35:02 -0.7 C 2.45 g/m*3 -0.7 C 0 km/h
704 13-12-2009 20:47:02 -0.7 C 2.45 g/m*3 -0.7 C 0 km/h
705 13-12-2009 20:59:02 -0.8 C 2.43 g/m*3 -0.8 C 0 km/h
706 13-12-2009 21:11:02 -0.9 C 2.46 g/m*3 -0.9 C 0 km/h
707 13-12-2009 21:23:02 -0.9 C 2.5 g/m*3 -0.9 C 0 km/h
708 13-12-2009 21:35:02 -0.9 C 2.5 g/m*3 -0.9 C 0 km/h
709 13-12-2009 21:47:02 -0.7 C 2.54 g/m*3 -0.7 C 0 km/h
710 13-12-2009 21:59:02 -0.5 C 2.57 g/m*3 -0.5 C 0 km/h
711 13-12-2009 22:11:02 -0.5 C 2.57 g/m*3 -0.5 C 0 km/h
712 13-12-2009 22:24:02 -0.4 C 2.59 g/m*3 -0.4 C 0 km/h
713 13-12-2009 22:36:02 -0.5 C 2.57 g/m*3 -0.5 C 0 km/h
714 13-12-2009 22:48:02 -0.4 C 2.59 g/m*3 -0.4 C 0 km/h
715 13-12-2009 23:00:02 -0.3 C 2.56 g/m*3 -0.3 C 0 km/h
716 13-12-2009 23:12:02 -0.3 C 2.56 g/m*3 -0.3 C 0 km/h
717 13-12-2009 23:24:02 -0.3 C 2.56 g/m*3 -0.3 C 0 km/h
718 13-12-2009 23:36:02 -0.3 C 2.61 g/m*3 -0.3 C 0 km/h
719 13-12-2009 23:48:02 -0.3 C 2.61 g/m*3 -0.3 C 0 km/h
720 14-12-2009 00:00:02 -0.3 C 2.66 g/m*3 -0.3 C 0 km/h
721 14-12-2009 00:12:02 -0.3 C 2.71 g/m*3 -0.3 C 0 km/h
722 14-12-2009 00:24:02 -0.4 C 2.73 g/m*3 -0.4 C 0 km/h
723 14-12-2009 00:36:02 -0.4 C 2.83 g/m*3 -0.4 C 0 km/h
724 14-12-2009 00:48:02 -0.5 C 2.86 g/m*3 -0.5 C 0 km/h
725 14-12-2009 01:00:02 -0.7 C 2.86 g/m*3 -0.7 C 0 km/h
Sensor: Nr:Datum:Temp:Abs-Feuchte:Windchill:Wind:
Aussen-T/F 726 14-12-2009 01:12:02 -1.1 C 2.83 g/m*3 -1.1 C 0 km/h
727 14-12-2009 01:24:02 -1.4 C 2.86 g/m*3 -1.4 C 0 km/h
728 14-12-2009 01:36:02 -1.7 C 2.84 g/m*3 -1.7 C 0 km/h
729 14-12-2009 01:48:02 -2 C 2.78 g/m*3 -2 C 0 km/h
730 14-12-2009 02:00:03 -2.2 C 2.78 g/m*3 -2.2 C 0 km/h
731 14-12-2009 02:12:03 -2.3 C 2.81 g/m*3 -2.3 C 0 km/h
732 14-12-2009 02:24:03 -2.4 C 2.79 g/m*3 -2.4 C 0 km/h
733 14-12-2009 02:36:03 -2.4 C 2.83 g/m*3 -2.4 C 0 km/h
734 14-12-2009 02:48:03 -2.5 C 2.85 g/m*3 -2.5 C 0 km/h
735 14-12-2009 03:00:03 -2.5 C 2.85 g/m*3 -2.5 C 0 km/h
736 14-12-2009 03:12:03 -2.7 C 2.85 g/m*3 -2.7 C 0 km/h
737 14-12-2009 03:24:03 -2.5 C 2.93 g/m*3 -2.5 C 0 km/h
738 14-12-2009 03:36:03 -2.1 C 3.01 g/m*3 -2.1 C 0 km/h
739 14-12-2009 03:48:03 -1.8 C 3.08 g/m*3 -1.8 C 0 km/h
740 14-12-2009 04:00:03 -1.7 C 3.06 g/m*3 -1.7 C 0 km/h
741 14-12-2009 04:12:03 -1.5 C 3.06 g/m*3 -1.5 C 0 km/h
742 14-12-2009 04:24:03 -1.4 C 3.08 g/m*3 -1.4 C 0 km/h
743 14-12-2009 04:36:03 -1.3 C 3.01 g/m*3 -1.3 C 0 km/h
744 14-12-2009 04:48:03 -1.2 C 2.99 g/m*3 -1.2 C 0 km/h
745 14-12-2009 05:00:03 -1.1 C 2.96 g/m*3 -1.1 C 0 km/h
746 14-12-2009 05:12:03 -0.9 C 2.87 g/m*3 -0.9 C 0 km/h
747 14-12-2009 05:24:03 -0.9 C 2.82 g/m*3 -0.9 C 0 km/h
748 14-12-2009 05:36:03 -0.9 C 2.78 g/m*3 -0.9 C 0 km/h
749 14-12-2009 05:48:03 -0.8 C 2.75 g/m*3 -0.8 C 0 km/h
750 14-12-2009 06:00:03 -0.8 C 2.66 g/m*3 -0.8 C 0 km/h
Sensor: Nr:Datum:Temp:Abs-Feuchte:Windchill:Wind:
Aussen-T/F 751 14-12-2009 06:12:04 -0.7 C 2.68 g/m*3 -0.7 C 0 km/h
752 14-12-2009 06:24:04 -0.7 C 2.63 g/m*3 -0.7 C 0 km/h
753 14-12-2009 06:36:04 -0.7 C 2.58 g/m*3 -0.7 C 0 km/h
754 14-12-2009 06:48:04 -0.8 C 2.57 g/m*3 -0.8 C 0 km/h
755 14-12-2009 07:00:04 -0.8 C 2.57 g/m*3 -0.8 C 0 km/h
756 14-12-2009 07:12:04 -0.8 C 2.52 g/m*3 -0.8 C 0 km/h
757 14-12-2009 07:24:04 -0.8 C 2.52 g/m*3 -0.8 C 0 km/h
758 14-12-2009 07:36:04 -0.7 C 2.58 g/m*3 -0.7 C 0 km/h
759 14-12-2009 07:48:02 -0.7 C 2.63 g/m*3 -0.7 C 0 km/h
760 14-12-2009 08:00:02 -0.7 C 2.63 g/m*3 -0.7 C 0 km/h
761 14-12-2009 08:12:02 -0.7 C 2.63 g/m*3 -0.7 C 0 km/h
762 14-12-2009 08:24:02 -0.7 C 2.58 g/m*3 -0.7 C 0 km/h
763 14-12-2009 08:36:01 -0.7 C 2.63 g/m*3 -0.7 C 0 km/h
764 14-12-2009 08:48:02 -0.7 C 2.63 g/m*3 -0.7 C 0 km/h
765 14-12-2009 09:00:02 -0.7 C 2.63 g/m*3 -0.7 C 0 km/h
766 14-12-2009 09:12:02 -0.7 C 2.63 g/m*3 -0.7 C 0 km/h
767 14-12-2009 09:24:02 -0.7 C 2.63 g/m*3 -0.7 C 0 km/h
768 14-12-2009 09:36:03 -0.7 C 2.58 g/m*3 -0.7 C 0 km/h
769 14-12-2009 09:48:02 -0.7 C 2.54 g/m*3 -0.7 C 0 km/h
770 14-12-2009 10:00:02 -0.6 C 2.51 g/m*3 -0.6 C 0 km/h
771 14-12-2009 10:12:03 -0.5 C 2.48 g/m*3 -0.5 C 0 km/h
772 14-12-2009 10:24:02 -0.4 C 2.5 g/m*3 -0.4 C 0 km/h
773 14-12-2009 10:36:03 -0.5 C 2.43 g/m*3 -0.5 C 0 km/h
774 14-12-2009 10:48:02 -0.2 C 2.53 g/m*3 -0.2 C 0 km/h
775 14-12-2009 11:00:02 -0.2 C 2.48 g/m*3 -0.2 C 0 km/h
Sensor: Nr:Datum:Temp:Abs-Feuchte:Windchill:Wind:
Aussen-T/F 776 14-12-2009 11:12:02 -0.2 C 2.48 g/m*3 -0.2 C 0 km/h
777 14-12-2009 11:24:01 0 C 2.52 g/m*3 0 C 0 km/h
778 14-12-2009 11:36:02 0.1 C 2.49 g/m*3 0.1 C 0 km/h
779 14-12-2009 11:48:01 0.3 C 2.52 g/m*3 0.3 C 0 km/h
780 14-12-2009 12:00:01 0.2 C 2.46 g/m*3 0.2 C 0 km/h
781 14-12-2009 12:12:02 0.1 C 2.44 g/m*3 0.1 C 0 km/h
782 14-12-2009 12:24:01 0.1 C 2.44 g/m*3 0.1 C 0 km/h
783 14-12-2009 12:36:02 0.1 C 2.44 g/m*3 0.1 C 0 km/h
784 14-12-2009 12:48:01 0 C 2.42 g/m*3 0 C 0 km/h
785 14-12-2009 13:00:01 0 C 2.42 g/m*3 0 C 0 km/h
786 14-12-2009 13:12:02 0 C 2.42 g/m*3 0 C 0 km/h
787 14-12-2009 13:24:01 0.1 C 2.44 g/m*3 0.1 C 0 km/h
788 14-12-2009 13:36:01 0.2 C 2.46 g/m*3 0.2 C 0 km/h
789 14-12-2009 13:48:01 0.4 C 2.49 g/m*3 0.4 C 0 km/h
790 14-12-2009 14:00:01 0.6 C 2.58 g/m*3 0.6 C 0 km/h
791 14-12-2009 14:12:01 0.6 C 2.63 g/m*3 0.6 C 0 km/h
792 14-12-2009 14:24:02 0.3 C 2.57 g/m*3 0.3 C 0 km/h
793 14-12-2009 14:36:01 0.2 C 2.6 g/m*3 0.2 C 0 km/h
794 14-12-2009 14:48:02 0.1 C 2.63 g/m*3 0.1 C 0 km/h
795 14-12-2009 15:00:02 0 C 2.62 g/m*3 0 C 0 km/h
796 14-12-2009 15:12:01 -0.1 C 2.65 g/m*3 -0.1 C 0 km/h
797 14-12-2009 15:24:02 -0.3 C 2.56 g/m*3 -0.3 C 0 km/h
798 14-12-2009 15:36:01 -0.4 C 2.59 g/m*3 -0.4 C 0 km/h
799 14-12-2009 15:48:02 -0.5 C 2.57 g/m*3 -0.5 C 0 km/h
800 14-12-2009 16:00:02 -0.4 C 2.64 g/m*3 -0.4 C 0 km/h
Sensor: Nr:Datum:Temp:Abs-Feuchte:Windchill:Wind:
Aussen-T/F 801 14-12-2009 16:12:02 -0.5 C 2.62 g/m*3 -0.5 C 0 km/h
802 14-12-2009 16:24:02 -0.5 C 2.67 g/m*3 -0.5 C 0 km/h
803 14-12-2009 16:36:02 -0.5 C 2.67 g/m*3 -0.5 C 0 km/h
804 14-12-2009 16:48:02 -0.6 C 2.65 g/m*3 -0.6 C 0 km/h
805 14-12-2009 17:00:03 -0.4 C 2.73 g/m*3 -0.4 C 0 km/h
806 14-12-2009 17:12:01 -0.5 C 2.71 g/m*3 -0.5 C 0 km/h
807 14-12-2009 17:24:01 -0.6 C 2.65 g/m*3 -0.6 C 0 km/h
808 14-12-2009 17:36:02 -0.6 C 2.65 g/m*3 -0.6 C 0 km/h
809 14-12-2009 17:48:02 -0.6 C 2.65 g/m*3 -0.6 C 0 km/h
810 14-12-2009 18:00:02 -0.6 C 2.7 g/m*3 -0.6 C 0 km/h
811 14-12-2009 18:12:02 -0.6 C 2.65 g/m*3 -0.6 C 0 km/h
812 14-12-2009 18:24:02 -0.7 C 2.58 g/m*3 -0.7 C 0 km/h
813 14-12-2009 18:36:02 -0.7 C 2.54 g/m*3 -0.7 C 0 km/h
814 14-12-2009 18:48:02 -0.8 C 2.57 g/m*3 -0.8 C 0 km/h
815 14-12-2009 19:00:02 -0.8 C 2.61 g/m*3 -0.8 C 0 km/h
816 14-12-2009 19:12:02 -0.7 C 2.63 g/m*3 -0.7 C 0 km/h
817 14-12-2009 19:24:02 -0.7 C 2.68 g/m*3 -0.7 C 0 km/h
818 14-12-2009 19:36:02 -0.7 C 2.68 g/m*3 -0.7 C 0 km/h
819 14-12-2009 19:48:01 -0.7 C 2.68 g/m*3 -0.7 C 0 km/h
820 14-12-2009 20:00:01 -0.6 C 2.7 g/m*3 -0.6 C 0 km/h
821 14-12-2009 20:12:02 -0.6 C 2.7 g/m*3 -0.6 C 0 km/h
822 14-12-2009 20:24:02 -0.6 C 2.7 g/m*3 -0.6 C 0 km/h
823 14-12-2009 20:36:02 -0.6 C 2.7 g/m*3 -0.6 C 0 km/h
824 14-12-2009 20:48:02 -0.6 C 2.65 g/m*3 -0.6 C 0 km/h
825 14-12-2009 21:00:02 -0.5 C 2.71 g/m*3 -0.5 C 0 km/h
Sensor: Nr:Datum:Temp:Abs-Feuchte:Windchill:Wind:
Aussen-T/F 826 14-12-2009 21:12:02 -0.5 C 2.71 g/m*3 -0.5 C 0 km/h
827 14-12-2009 21:24:02 -0.5 C 2.76 g/m*3 -0.5 C 0 km/h
828 14-12-2009 21:36:02 -0.5 C 2.71 g/m*3 -0.5 C 0 km/h
829 14-12-2009 21:49:04 -0.5 C 2.67 g/m*3 -0.5 C 0 km/h
830 14-12-2009 22:01:04 -1.1 C 2.6 g/m*3 -1.1 C 0 km/h
831 14-12-2009 22:13:04 -1.6 C 2.6 g/m*3 -1.6 C 0 km/h
832 14-12-2009 22:25:04 -1.8 C 2.61 g/m*3 -1.8 C 0 km/h
833 14-12-2009 22:37:04 -2 C 2.61 g/m*3 -2 C 0 km/h
834 14-12-2009 22:49:04 -2 C 2.66 g/m*3 -2 C 0 km/h
835 14-12-2009 23:01:04 -2.1 C 2.64 g/m*3 -2.1 C 0 km/h
836 14-12-2009 23:13:04 -2.2 C 2.66 g/m*3 -2.2 C 0 km/h
837 14-12-2009 23:25:05 -2.3 C 2.64 g/m*3 -2.3 C 0 km/h
838 14-12-2009 23:37:05 -2.4 C 2.62 g/m*3 -2.4 C 0 km/h
839 14-12-2009 23:49:05 -2.7 C 2.65 g/m*3 -2.7 C 0 km/h
840 15-12-2009 00:01:05 -2.7 C 2.69 g/m*3 -2.7 C 0 km/h
841 15-12-2009 00:13:05 -2.7 C 2.73 g/m*3 -2.7 C 0 km/h
842 15-12-2009 00:25:05 -2.9 C 2.69 g/m*3 -2.9 C 0 km/h
843 15-12-2009 00:37:05 -3 C 2.67 g/m*3 -3 C 0 km/h
844 15-12-2009 00:49:05 -3.2 C 2.67 g/m*3 -3.2 C 0 km/h
845 15-12-2009 01:01:05 -3.3 C 2.69 g/m*3 -3.3 C 0 km/h
846 15-12-2009 01:13:05 -3.3 C 2.73 g/m*3 -3.3 C 0 km/h
847 15-12-2009 01:25:05 -3.3 C 2.73 g/m*3 -3.3 C 0 km/h
848 15-12-2009 01:37:05 -3.4 C 2.71 g/m*3 -3.4 C 0 km/h
849 15-12-2009 01:49:05 -3.5 C 2.73 g/m*3 -3.5 C 0 km/h
850 15-12-2009 02:01:05 -3.5 C 2.73 g/m*3 -3.5 C 0 km/h
Sensor: Nr:Datum:Temp:Abs-Feuchte:Windchill:Wind:
Aussen-T/F 851 15-12-2009 02:13:05 -3.5 C 2.77 g/m*3 -3.5 C 0 km/h
852 15-12-2009 02:25:05 -3.2 C 2.83 g/m*3 -3.2 C 0 km/h
853 15-12-2009 02:37:05 -3 C 2.87 g/m*3 -3 C 0 km/h
854 15-12-2009 02:49:05 -2.7 C 2.93 g/m*3 -2.7 C 0 km/h
855 15-12-2009 03:01:06 -2.6 C 2.91 g/m*3 -2.6 C 0 km/h
856 15-12-2009 03:13:06 -2.4 C 2.91 g/m*3 -2.4 C 0 km/h
857 15-12-2009 03:25:06 -2.3 C 2.89 g/m*3 -2.3 C 0 km/h
858 15-12-2009 03:37:06 -2.3 C 2.89 g/m*3 -2.3 C 0 km/h
859 15-12-2009 03:49:06 -2.2 C 2.91 g/m*3 -2.2 C 0 km/h
860 15-12-2009 04:01:06 -2.1 C 2.93 g/m*3 -2.1 C 0 km/h
861 15-12-2009 04:13:06 -2 C 2.95 g/m*3 -2 C 0 km/h
862 15-12-2009 04:25:06 -1.9 C 2.97 g/m*3 -1.9 C 0 km/h
863 15-12-2009 04:37:06 -1.9 C 2.97 g/m*3 -1.9 C 0 km/h
864 15-12-2009 04:49:06 -1.9 C 2.97 g/m*3 -1.9 C 0 km/h
865 15-12-2009 05:01:06 -1.9 C 2.97 g/m*3 -1.9 C 0 km/h
866 15-12-2009 05:13:06 -1.9 C 2.97 g/m*3 -1.9 C 0 km/h
867 15-12-2009 05:25:06 -1.8 C 3.04 g/m*3 -1.8 C 0 km/h
868 15-12-2009 05:37:06 -1.8 C 3.04 g/m*3 -1.8 C 0 km/h
869 15-12-2009 05:49:06 -1.8 C 3.08 g/m*3 -1.8 C 0 km/h
870 15-12-2009 06:01:06 -1.7 C 3.1 g/m*3 -1.7 C 0 km/h
871 15-12-2009 06:13:06 -1.6 C 3.12 g/m*3 -1.6 C 0 km/h
872 15-12-2009 06:25:06 -1.5 C 3.14 g/m*3 -1.5 C 0 km/h
873 15-12-2009 06:37:06 -1.6 C 3.12 g/m*3 -1.6 C 0 km/h
874 15-12-2009 06:49:06 -1.6 C 3.12 g/m*3 -1.6 C 0 km/h
875 15-12-2009 07:01:07 -1.7 C 3.1 g/m*3 -1.7 C 0 km/h
Sensor: Nr:Datum:Temp:Abs-Feuchte:Windchill:Wind:
Aussen-T/F 876 15-12-2009 07:13:07 -1.7 C 3.14 g/m*3 -1.7 C 0 km/h
877 15-12-2009 07:25:02 -1.6 C 3.16 g/m*3 -1.6 C 0 km/h
878 15-12-2009 07:37:02 -1.6 C 3.16 g/m*3 -1.6 C 0 km/h
879 15-12-2009 07:49:02 -1.5 C 3.19 g/m*3 -1.5 C 0 km/h
880 15-12-2009 08:01:01 -1.3 C 3.19 g/m*3 -1.3 C 0 km/h
881 15-12-2009 08:13:01 -1.2 C 3.21 g/m*3 -1.2 C 0 km/h
882 15-12-2009 08:25:02 -1.2 C 3.21 g/m*3 -1.2 C 0 km/h
883 15-12-2009 08:37:02 -1.1 C 3.23 g/m*3 -1.1 C 0 km/h
884 15-12-2009 08:49:02 -1 C 3.25 g/m*3 -1 C 0 km/h
885 15-12-2009 09:01:02 -0.9 C 3.28 g/m*3 -0.9 C 0 km/h
886 15-12-2009 09:13:02 -0.9 C 3.23 g/m*3 -0.9 C 0 km/h
887 15-12-2009 09:25:01 -0.7 C 3.28 g/m*3 -0.7 C 0 km/h
888 15-12-2009 09:37:02 -0.5 C 3.28 g/m*3 -0.5 C 0 km/h
889 15-12-2009 09:49:02 -0.4 C 3.2 g/m*3 -0.4 C 0 km/h
890 15-12-2009 10:01:02 -0.2 C 3.15 g/m*3 -0.2 C 0 km/h
891 15-12-2009 10:13:02 0 C 3.15 g/m*3 0 C 0 km/h
892 15-12-2009 10:25:02 0.1 C 3.17 g/m*3 0.1 C 0 km/h
893 15-12-2009 10:37:02 0.2 C 3.14 g/m*3 0.2 C 0 km/h
894 15-12-2009 10:49:02 0.3 C 3.17 g/m*3 0.3 C 0 km/h
895 15-12-2009 11:01:02 0.3 C 3.12 g/m*3 0.3 C 0 km/h
896 15-12-2009 11:13:03 0.4 C 3.14 g/m*3 0.4 C 0 km/h
897 15-12-2009 11:25:02 0.3 C 3.12 g/m*3 0.3 C 0 km/h
898 15-12-2009 11:37:02 0.5 C 3.11 g/m*3 0.5 C 0 km/h
899 15-12-2009 11:49:01 0.7 C 3.05 g/m*3 0.7 C 0 km/h
900 15-12-2009 12:01:01 0.9 C 3.04 g/m*3 0.9 C 0 km/h
Sensor: Nr:Datum:Temp:Abs-Feuchte:Windchill:Wind:
Aussen-T/F 901 15-12-2009 12:13:01 1 C 2.91 g/m*3 1 C 0 km/h
902 15-12-2009 12:25:02 1 C 2.91 g/m*3 1 C 0 km/h
903 15-12-2009 12:37:01 0.8 C 2.92 g/m*3 0.8 C 0 km/h
904 15-12-2009 12:49:01 0.7 C 2.85 g/m*3 0.7 C 0 km/h
905 15-12-2009 13:01:01 0.8 C 2.87 g/m*3 0.8 C 0 km/h
906 15-12-2009 13:13:01 1.1 C 2.87 g/m*3 1.1 C 0 km/h
907 15-12-2009 13:25:02 1.6 C 2.87 g/m*3 1.6 C 0 km/h
908 15-12-2009 13:37:01 1.6 C 2.81 g/m*3 1.6 C 0 km/h
909 15-12-2009 13:49:02 1.6 C 2.76 g/m*3 1.6 C 0 km/h
910 15-12-2009 14:01:02 1.6 C 2.7 g/m*3 1.6 C 0 km/h
911 15-12-2009 14:13:02 1.6 C 2.65 g/m*3 1.6 C 0 km/h
912 15-12-2009 14:25:02 1.5 C 2.69 g/m*3 1.5 C 0 km/h
913 15-12-2009 14:37:02 1.4 C 2.67 g/m*3 1.4 C 0 km/h
914 15-12-2009 14:49:02 1.3 C 2.65 g/m*3 1.3 C 0 km/h
915 15-12-2009 15:01:01 1.2 C 2.63 g/m*3 1.2 C 0 km/h
916 15-12-2009 15:13:01 1.2 C 2.63 g/m*3 1.2 C 0 km/h
917 15-12-2009 15:25:02 1.2 C 2.63 g/m*3 1.2 C 0 km/h
918 15-12-2009 15:37:02 1.1 C 2.67 g/m*3 1.1 C 0 km/h
919 15-12-2009 15:49:02 1 C 2.65 g/m*3 1 C 0 km/h
920 15-12-2009 16:01:02 1 C 2.65 g/m*3 1 C 0 km/h
921 15-12-2009 16:13:02 1 C 2.6 g/m*3 1 C 0 km/h
922 15-12-2009 16:25:02 0.9 C 2.63 g/m*3 0.9 C 0 km/h
923 15-12-2009 16:37:02 0.9 C 2.68 g/m*3 0.9 C 0 km/h
924 15-12-2009 16:49:02 0.8 C 2.66 g/m*3 0.8 C 0 km/h
925 15-12-2009 17:01:02 0.7 C 2.64 g/m*3 0.7 C 0 km/h
Sensor: Nr:Datum:Temp:Abs-Feuchte:Windchill:Wind:
Aussen-T/F 926 15-12-2009 17:13:02 0.7 C 2.64 g/m*3 0.7 C 0 km/h
927 15-12-2009 17:25:02 0.6 C 2.68 g/m*3 0.6 C 0 km/h
928 15-12-2009 17:37:02 0.6 C 2.73 g/m*3 0.6 C 0 km/h
929 15-12-2009 17:49:01 0.6 C 2.68 g/m*3 0.6 C 0 km/h
930 15-12-2009 18:01:01 0.6 C 2.68 g/m*3 0.6 C 0 km/h
931 15-12-2009 18:13:01 0.6 C 2.63 g/m*3 0.6 C 0 km/h
932 15-12-2009 18:25:02 0.6 C 2.63 g/m*3 0.6 C 0 km/h
933 15-12-2009 18:37:02 0.6 C 2.63 g/m*3 0.6 C 0 km/h
934 15-12-2009 18:49:02 0.6 C 2.68 g/m*3 0.6 C 0 km/h
935 15-12-2009 19:01:02 0.5 C 2.71 g/m*3 0.5 C 0 km/h
936 15-12-2009 19:13:02 0.4 C 2.69 g/m*3 0.4 C 0 km/h
937 15-12-2009 19:25:05 0.4 C 2.74 g/m*3 0.4 C 0 km/h
938 15-12-2009 19:37:02 0.4 C 2.69 g/m*3 0.4 C 0 km/h
939 15-12-2009 19:49:02 0.4 C 2.74 g/m*3 0.4 C 0 km/h
940 15-12-2009 20:01:56 0.5 C 2.71 g/m*3 0.5 C 0 km/h
941 15-12-2009 20:13:56 0.5 C 2.76 g/m*3 0.5 C 0 km/h
942 15-12-2009 20:25:02 0.4 C 2.69 g/m*3 0.4 C 0 km/h
943 15-12-2009 20:37:02 0.5 C 2.66 g/m*3 0.5 C 0 km/h
944 15-12-2009 20:49:02 0.5 C 2.71 g/m*3 0.5 C 0 km/h
945 15-12-2009 21:01:01 0.5 C 2.71 g/m*3 0.5 C 0 km/h
946 15-12-2009 21:13:01 0.5 C 2.71 g/m*3 0.5 C 0 km/h
947 15-12-2009 21:25:01 0.3 C 2.67 g/m*3 0.3 C 0 km/h
948 15-12-2009 21:37:02 0.2 C 2.65 g/m*3 0.2 C 0 km/h
949 15-12-2009 21:49:02 0.2 C 2.65 g/m*3 0.2 C 0 km/h
950 15-12-2009 22:01:02 0.1 C 2.63 g/m*3 0.1 C 0 km/h
Sensor: Nr:Datum:Temp:Abs-Feuchte:Windchill:Wind:
Aussen-T/F 951 15-12-2009 22:13:02 0.1 C 2.68 g/m*3 0.1 C 0 km/h
952 15-12-2009 22:25:02 0.1 C 2.68 g/m*3 0.1 C 0 km/h
953 15-12-2009 22:38:02 0 C 2.66 g/m*3 0 C 0 km/h
954 15-12-2009 22:50:02 0 C 2.66 g/m*3 0 C 0 km/h
955 15-12-2009 23:02:02 -0.1 C 2.69 g/m*3 -0.1 C 0 km/h
956 15-12-2009 23:14:02 -0.2 C 2.72 g/m*3 -0.2 C 0 km/h
957 15-12-2009 23:26:03 -0.2 C 2.72 g/m*3 -0.2 C 0 km/h
958 15-12-2009 23:38:03 -0.2 C 2.72 g/m*3 -0.2 C 0 km/h
959 15-12-2009 23:50:03 -0.2 C 2.72 g/m*3 -0.2 C 0 km/h
960 16-12-2009 00:02:03 -0.2 C 2.77 g/m*3 -0.2 C 0 km/h
961 16-12-2009 00:14:03 -0.2 C 2.77 g/m*3 -0.2 C 0 km/h
962 16-12-2009 00:26:03 -0.3 C 2.75 g/m*3 -0.3 C 0 km/h
963 16-12-2009 00:38:03 -0.4 C 2.78 g/m*3 -0.4 C 0 km/h
964 16-12-2009 00:50:03 -0.5 C 2.76 g/m*3 -0.5 C 0 km/h
965 16-12-2009 01:02:03 -0.9 C 2.73 g/m*3 -0.9 C 0 km/h
966 16-12-2009 01:14:03 -1 C 2.76 g/m*3 -1 C 0 km/h
967 16-12-2009 01:26:03 -1.1 C 2.78 g/m*3 -1.1 C 0 km/h
968 16-12-2009 01:38:03 -1.1 C 2.74 g/m*3 -1.1 C 0 km/h
969 16-12-2009 01:50:03 -1.1 C 2.74 g/m*3 -1.1 C 0 km/h
970 16-12-2009 02:02:03 -1.2 C 2.76 g/m*3 -1.2 C 0 km/h
971 16-12-2009 02:14:03 -1.3 C 2.74 g/m*3 -1.3 C 0 km/h
972 16-12-2009 02:26:03 -1.3 C 2.79 g/m*3 -1.3 C 0 km/h
973 16-12-2009 02:38:03 -1.2 C 2.81 g/m*3 -1.2 C 0 km/h
974 16-12-2009 02:50:03 -1.1 C 2.83 g/m*3 -1.1 C 0 km/h
975 16-12-2009 03:02:03 -1.1 C 2.78 g/m*3 -1.1 C 0 km/h
Sensor: Nr:Datum:Temp:Abs-Feuchte:Windchill:Wind:
Aussen-T/F 976 16-12-2009 03:14:04 -1.1 C 2.78 g/m*3 -1.1 C 0 km/h
977 16-12-2009 03:26:04 -1.1 C 2.78 g/m*3 -1.1 C 0 km/h
978 16-12-2009 03:38:04 -1 C 2.85 g/m*3 -1 C 0 km/h
979 16-12-2009 03:50:04 -1 C 2.85 g/m*3 -1 C 0 km/h
980 16-12-2009 04:02:04 -1 C 2.8 g/m*3 -1 C 0 km/h
981 16-12-2009 04:14:04 -1 C 2.8 g/m*3 -1 C 0 km/h
982 16-12-2009 04:26:04 -1 C 2.8 g/m*3 -1 C 0 km/h
983 16-12-2009 04:38:04 -1.1 C 2.78 g/m*3 -1.1 C 0 km/h
984 16-12-2009 04:50:04 -1.1 C 2.78 g/m*3 -1.1 C 0 km/h
985 16-12-2009 05:02:04 -1.1 C 2.83 g/m*3 -1.1 C 0 km/h
986 16-12-2009 05:14:04 -1.2 C 2.81 g/m*3 -1.2 C 0 km/h
987 16-12-2009 05:26:04 -1.2 C 2.85 g/m*3 -1.2 C 0 km/h
988 16-12-2009 05:38:04 -1.2 C 2.85 g/m*3 -1.2 C 0 km/h
989 16-12-2009 05:50:04 -1.1 C 2.92 g/m*3 -1.1 C 0 km/h
990 16-12-2009 06:02:04 -1.1 C 2.87 g/m*3 -1.1 C 0 km/h
991 16-12-2009 06:14:04 -1.1 C 2.87 g/m*3 -1.1 C 0 km/h
992 16-12-2009 06:26:04 -1.2 C 2.85 g/m*3 -1.2 C 0 km/h
993 16-12-2009 06:38:04 -1.2 C 2.85 g/m*3 -1.2 C 0 km/h
994 16-12-2009 06:50:04 -1.2 C 2.85 g/m*3 -1.2 C 0 km/h
995 16-12-2009 07:02:03 -1.2 C 2.85 g/m*3 -1.2 C 0 km/h
996 16-12-2009 07:14:03 -1.2 C 2.85 g/m*3 -1.2 C 0 km/h
997 16-12-2009 07:26:02 -1.2 C 2.85 g/m*3 -1.2 C 0 km/h
998 16-12-2009 07:38:02 -1.2 C 2.9 g/m*3 -1.2 C 0 km/h
999 16-12-2009 07:50:01 -1.2 C 2.9 g/m*3 -1.2 C 0 km/h
1000 16-12-2009 08:02:02 -1.2 C 2.9 g/m*3 -1.2 C 0 km/h
Sensor: Nr:Datum:Temp:Abs-Feuchte:Windchill:Wind:
Aussen-T/F 1001 16-12-2009 08:14:02 -1.2 C 2.9 g/m*3 -1.2 C 0 km/h
1002 16-12-2009 08:26:02 -1.2 C 2.9 g/m*3 -1.2 C 0 km/h
1003 16-12-2009 08:38:02 -1.2 C 2.9 g/m*3 -1.2 C 0 km/h
1004 16-12-2009 08:50:03 -1.2 C 2.9 g/m*3 -1.2 C 0 km/h
1005 16-12-2009 09:02:02 -1.2 C 2.94 g/m*3 -1.2 C 0 km/h
1006 16-12-2009 09:14:02 -1.2 C 2.94 g/m*3 -1.2 C 0 km/h
1007 16-12-2009 09:26:03 -1.1 C 2.96 g/m*3 -1.1 C 0 km/h
1008 16-12-2009 09:38:02 -1 C 2.98 g/m*3 -1 C 0 km/h
1009 16-12-2009 09:50:02 -0.8 C 2.98 g/m*3 -0.8 C 0 km/h
1010 16-12-2009 10:02:02 -0.6 C 3.02 g/m*3 -0.6 C 0 km/h
1011 16-12-2009 10:14:02 -0.4 C 3.02 g/m*3 -0.4 C 0 km/h
1012 16-12-2009 10:26:02 -0.2 C 3.01 g/m*3 -0.2 C 0 km/h
1013 16-12-2009 10:38:02 -0.2 C 2.91 g/m*3 -0.2 C 0 km/h
1014 16-12-2009 10:50:02 0 C 2.96 g/m*3 0 C 0 km/h
1015 16-12-2009 11:02:02 0.1 C 2.98 g/m*3 0.1 C 0 km/h
1016 16-12-2009 11:14:02 0.2 C 2.95 g/m*3 0.2 C 0 km/h
1017 16-12-2009 11:26:02 0.1 C 2.88 g/m*3 0.1 C 0 km/h
1018 16-12-2009 11:38:03 0.2 C 2.9 g/m*3 0.2 C 0 km/h
1019 16-12-2009 11:50:02 0.4 C 2.89 g/m*3 0.4 C 0 km/h
1020 16-12-2009 12:02:02 0.6 C 2.98 g/m*3 0.6 C 0 km/h
1021 16-12-2009 12:14:02 0.8 C 2.97 g/m*3 0.8 C 0 km/h
1022 16-12-2009 12:26:02 0.7 C 2.9 g/m*3 0.7 C 0 km/h
1023 16-12-2009 12:38:02 1 C 2.96 g/m*3 1 C 0 km/h
1024 16-12-2009 12:50:02 1.1 C 2.93 g/m*3 1.1 C 0 km/h
1025 16-12-2009 13:02:03 1.1 C 2.93 g/m*3 1.1 C 0 km/h
Sensor: Nr:Datum:Temp:Abs-Feuchte:Windchill:Wind:
Aussen-T/F 1026 16-12-2009 13:14:03 1.2 C 2.89 g/m*3 1.2 C 0 km/h
1027 16-12-2009 13:26:02 1.1 C 2.82 g/m*3 1.1 C 0 km/h
1028 16-12-2009 13:38:03 0.6 C 2.78 g/m*3 0.6 C 0 km/h
1029 16-12-2009 13:50:02 0.6 C 2.78 g/m*3 0.6 C 0 km/h
1030 16-12-2009 14:02:02 0.8 C 2.76 g/m*3 0.8 C 0 km/h
1031 16-12-2009 14:14:02 0.9 C 2.84 g/m*3 0.9 C 0 km/h
1032 16-12-2009 14:26:01 1 C 2.7 g/m*3 1 C 0 km/h
1033 16-12-2009 14:38:02 1.3 C 2.75 g/m*3 1.3 C 0 km/h
1034 16-12-2009 14:50:02 1.1 C 2.72 g/m*3 1.1 C 0 km/h
1035 16-12-2009 15:02:02 0.7 C 2.69 g/m*3 0.7 C 0 km/h
1036 16-12-2009 15:14:03 0.4 C 2.59 g/m*3 0.4 C 0 km/h
1037 16-12-2009 15:26:01 0 C 2.62 g/m*3 0 C 0 km/h
1038 16-12-2009 15:38:02 -0.3 C 2.61 g/m*3 -0.3 C 0 km/h
1039 16-12-2009 15:50:02 -0.5 C 2.62 g/m*3 -0.5 C 0 km/h
1040 16-12-2009 16:02:02 -0.6 C 2.6 g/m*3 -0.6 C 0 km/h
1041 16-12-2009 16:14:02 -0.7 C 2.58 g/m*3 -0.7 C 0 km/h
1042 16-12-2009 16:26:02 -0.9 C 2.55 g/m*3 -0.9 C 0 km/h
1043 16-12-2009 16:38:02 -1.1 C 2.51 g/m*3 -1.1 C 0 km/h
1044 16-12-2009 16:50:01 -1.3 C 2.48 g/m*3 -1.3 C 0 km/h
1045 16-12-2009 17:02:02 -1.5 C 2.49 g/m*3 -1.5 C 0 km/h
1046 16-12-2009 17:14:02 -1.7 C 2.5 g/m*3 -1.7 C 0 km/h
1047 16-12-2009 17:26:02 -1.7 C 2.58 g/m*3 -1.7 C 0 km/h
1048 16-12-2009 17:38:02 -1.8 C 2.61 g/m*3 -1.8 C 0 km/h
1049 16-12-2009 17:50:02 -1.9 C 2.63 g/m*3 -1.9 C 0 km/h
1050 16-12-2009 18:02:02 -2 C 2.66 g/m*3 -2 C 0 km/h
Sensor: Nr:Datum:Temp:Abs-Feuchte:Windchill:Wind:
Aussen-T/F 1051 16-12-2009 18:14:02 -2.1 C 2.68 g/m*3 -2.1 C 0 km/h
1052 16-12-2009 18:26:02 -2 C 2.7 g/m*3 -2 C 0 km/h
1053 16-12-2009 18:38:03 -2 C 2.7 g/m*3 -2 C 0 km/h
1054 16-12-2009 18:50:02 -2 C 2.7 g/m*3 -2 C 0 km/h
1055 16-12-2009 19:02:01 -1.9 C 2.76 g/m*3 -1.9 C 0 km/h
1056 16-12-2009 19:14:01 -1.9 C 2.76 g/m*3 -1.9 C 0 km/h
1057 16-12-2009 19:26:01 -2.1 C 2.72 g/m*3 -2.1 C 0 km/h
1058 16-12-2009 19:38:02 -2.3 C 2.68 g/m*3 -2.3 C 0 km/h
1059 16-12-2009 19:50:02 -2.5 C 2.65 g/m*3 -2.5 C 0 km/h
1060 16-12-2009 20:02:02 -2.6 C 2.67 g/m*3 -2.6 C 0 km/h
1061 16-12-2009 20:14:02 -2.8 C 2.67 g/m*3 -2.8 C 0 km/h
1062 16-12-2009 20:26:01 -2.9 C 2.69 g/m*3 -2.9 C 0 km/h
1063 16-12-2009 20:38:02 -3 C 2.71 g/m*3 -3 C 0 km/h
1064 16-12-2009 20:50:02 -3.1 C 2.69 g/m*3 -3.1 C 0 km/h
1065 16-12-2009 21:02:02 -3.2 C 2.71 g/m*3 -3.2 C 0 km/h
1066 16-12-2009 21:14:02 -3.2 C 2.75 g/m*3 -3.2 C 0 km/h
1067 16-12-2009 21:26:02 -3.3 C 2.73 g/m*3 -3.3 C 0 km/h
1068 16-12-2009 21:38:02 -3.5 C 2.69 g/m*3 -3.5 C 0 km/h
1069 16-12-2009 21:50:02 -3.7 C 2.69 g/m*3 -3.7 C 0 km/h
1070 16-12-2009 22:02:02 -3.7 C 2.73 g/m*3 -3.7 C 0 km/h
1071 16-12-2009 22:14:02 -3.8 C 2.71 g/m*3 -3.8 C 0 km/h
1072 16-12-2009 22:27:05 -3.9 C 2.69 g/m*3 -3.9 C 0 km/h
1073 16-12-2009 22:39:05 -3.9 C 2.73 g/m*3 -3.9 C 0 km/h
1074 16-12-2009 22:51:05 -3.8 C 2.78 g/m*3 -3.8 C 0 km/h
1075 16-12-2009 23:03:05 -3.8 C 2.78 g/m*3 -3.8 C 0 km/h
Sensor: Nr:Datum:Temp:Abs-Feuchte:Windchill:Wind:
Aussen-T/F 1076 16-12-2009 23:15:06 -4.1 C 2.72 g/m*3 -4.1 C 0 km/h
1077 16-12-2009 23:27:06 -4.3 C 2.69 g/m*3 -4.3 C 0 km/h
1078 16-12-2009 23:39:06 -4.4 C 2.67 g/m*3 -4.4 C 0 km/h
1079 16-12-2009 23:51:06 -4.4 C 2.67 g/m*3 -4.4 C 0 km/h
1080 17-12-2009 00:03:06 -4.6 C 2.66 g/m*3 -4.6 C 0 km/h
1081 17-12-2009 00:15:06 -4.7 C 2.64 g/m*3 -4.7 C 0 km/h
1082 17-12-2009 00:27:06 -4.8 C 2.66 g/m*3 -4.8 C 0 km/h
1083 17-12-2009 00:39:06 -5.1 C 2.6 g/m*3 -5.1 C 0 km/h
1084 17-12-2009 00:51:06 -5.3 C 2.57 g/m*3 -5.3 C 0 km/h
1085 17-12-2009 01:03:06 -5.2 C 2.62 g/m*3 -5.2 C 0 km/h
1086 17-12-2009 01:15:06 -5.4 C 2.58 g/m*3 -5.4 C 0 km/h
1087 17-12-2009 01:27:06 -5.3 C 2.63 g/m*3 -5.3 C 0 km/h
1088 17-12-2009 01:39:06 -5.3 C 2.63 g/m*3 -5.3 C 0 km/h
1089 17-12-2009 01:51:06 -5.6 C 2.58 g/m*3 -5.6 C 0 km/h
1090 17-12-2009 02:03:06 -5.6 C 2.58 g/m*3 -5.6 C 0 km/h
1091 17-12-2009 02:15:06 -5.5 C 2.63 g/m*3 -5.5 C 0 km/h
1092 17-12-2009 02:27:06 -5.6 C 2.64 g/m*3 -5.6 C 0 km/h
1093 17-12-2009 02:39:06 -5.7 C 2.62 g/m*3 -5.7 C 0 km/h
1094 17-12-2009 02:51:06 -5.9 C 2.58 g/m*3 -5.9 C 0 km/h
1095 17-12-2009 03:03:06 -5.9 C 2.58 g/m*3 -5.9 C 0 km/h
1096 17-12-2009 03:15:06 -5.6 C 2.67 g/m*3 -5.6 C 0 km/h
1097 17-12-2009 03:27:07 -5.4 C 2.75 g/m*3 -5.4 C 0 km/h
1098 17-12-2009 03:39:07 -5.3 C 2.77 g/m*3 -5.3 C 0 km/h
1099 17-12-2009 03:51:07 -5.4 C 2.75 g/m*3 -5.4 C 0 km/h
1100 17-12-2009 04:03:07 -5.3 C 2.77 g/m*3 -5.3 C 0 km/h
Sensor: Nr:Datum:Temp:Abs-Feuchte:Windchill:Wind:
Aussen-T/F 1101 17-12-2009 04:15:07 -5.4 C 2.75 g/m*3 -5.4 C 0 km/h
1102 17-12-2009 04:27:07 -5.5 C 2.73 g/m*3 -5.5 C 0 km/h
1103 17-12-2009 04:39:07 -5.6 C 2.71 g/m*3 -5.6 C 0 km/h
1104 17-12-2009 04:51:07 -5.9 C 2.65 g/m*3 -5.9 C 0 km/h
1105 17-12-2009 05:03:07 -5.9 C 2.65 g/m*3 -5.9 C 0 km/h
1106 17-12-2009 05:15:07 -6 C 2.63 g/m*3 -6 C 0 km/h
1107 17-12-2009 05:27:07 -5.8 C 2.67 g/m*3 -5.8 C 0 km/h
1108 17-12-2009 05:39:07 -5.9 C 2.65 g/m*3 -5.9 C 0 km/h
1109 17-12-2009 05:51:07 -6 C 2.63 g/m*3 -6 C 0 km/h
1110 17-12-2009 06:03:07 -6 C 2.63 g/m*3 -6 C 0 km/h
1111 17-12-2009 06:15:07 -6.1 C 2.61 g/m*3 -6.1 C 0 km/h
1112 17-12-2009 06:27:07 -6 C 2.63 g/m*3 -6 C 0 km/h
1113 17-12-2009 06:39:07 -6.2 C 2.59 g/m*3 -6.2 C 0 km/h
1114 17-12-2009 06:51:02 -6.2 C 2.59 g/m*3 -6.2 C 0 km/h
1115 17-12-2009 07:03:02 -6.1 C 2.61 g/m*3 -6.1 C 0 km/h
1116 17-12-2009 07:15:02 -6.2 C 2.59 g/m*3 -6.2 C 0 km/h
1117 17-12-2009 07:27:02 -6.4 C 2.55 g/m*3 -6.4 C 0 km/h
1118 17-12-2009 07:39:02 -6.5 C 2.53 g/m*3 -6.5 C 0 km/h
1119 17-12-2009 07:51:02 -6.6 C 2.52 g/m*3 -6.6 C 0 km/h
1120 17-12-2009 08:03:01 -6.7 C 2.5 g/m*3 -6.7 C 0 km/h
1121 17-12-2009 08:15:01 -6.7 C 2.5 g/m*3 -6.7 C 0 km/h
1122 17-12-2009 08:27:01 -6.6 C 2.52 g/m*3 -6.6 C 0 km/h
1123 17-12-2009 08:39:02 -6.2 C 2.62 g/m*3 -6.2 C 0 km/h
1124 17-12-2009 08:51:02 -6 C 2.66 g/m*3 -6 C 0 km/h
1125 17-12-2009 09:03:02 -6 C 2.66 g/m*3 -6 C 0 km/h
Sensor: Nr:Datum:Temp:Abs-Feuchte:Windchill:Wind:
Aussen-T/F 1126 17-12-2009 09:15:02 -6 C 2.63 g/m*3 -6 C 0 km/h
1127 17-12-2009 09:27:02 -5.9 C 2.65 g/m*3 -5.9 C 0 km/h
1128 17-12-2009 09:39:02 -5.8 C 2.67 g/m*3 -5.8 C 0 km/h
1129 17-12-2009 09:51:02 -5.7 C 2.69 g/m*3 -5.7 C 0 km/h
1130 17-12-2009 10:03:03 -5.6 C 2.71 g/m*3 -5.6 C 0 km/h
1131 17-12-2009 10:15:02 -5.5 C 2.73 g/m*3 -5.5 C 0 km/h
1132 17-12-2009 10:27:02 -5.3 C 2.77 g/m*3 -5.3 C 0 km/h
1133 17-12-2009 10:39:02 -5.1 C 2.81 g/m*3 -5.1 C 0 km/h
1134 17-12-2009 10:51:01 -4.9 C 2.85 g/m*3 -4.9 C 0 km/h
1135 17-12-2009 11:03:02 -4.5 C 2.93 g/m*3 -4.5 C 0 km/h
1136 17-12-2009 11:15:01 -4.2 C 2.96 g/m*3 -4.2 C 0 km/h
1137 17-12-2009 11:27:01 -4 C 3 g/m*3 -4 C 0 km/h
1138 17-12-2009 11:39:01 -4.1 C 2.94 g/m*3 -4.1 C 0 km/h
1139 17-12-2009 11:51:01 -4.1 C 2.94 g/m*3 -4.1 C 0 km/h
1140 17-12-2009 12:03:01 -4.1 C 2.94 g/m*3 -4.1 C 0 km/h
1141 17-12-2009 12:15:02 -3.8 C 3.01 g/m*3 -3.8 C 0 km/h
1142 17-12-2009 12:27:02 -3 C 3.14 g/m*3 -3 C 0 km/h
1143 17-12-2009 12:39:01 -2.3 C 3.05 g/m*3 -2.3 C 0 km/h
1144 17-12-2009 12:51:01 -1.9 C 2.84 g/m*3 -1.9 C 0 km/h
1145 17-12-2009 13:03:01 -1.8 C 2.78 g/m*3 -1.8 C 0 km/h
1146 17-12-2009 13:15:02 -1.7 C 2.76 g/m*3 -1.7 C 0 km/h
1147 17-12-2009 13:27:02 -1.6 C 2.64 g/m*3 -1.6 C 0 km/h
1148 17-12-2009 13:39:01 -1.5 C 2.62 g/m*3 -1.5 C 0 km/h
1149 17-12-2009 13:51:02 -1.5 C 2.62 g/m*3 -1.5 C 0 km/h
1150 17-12-2009 14:03:02 -1.4 C 2.64 g/m*3 -1.4 C 0 km/h
Sensor: Nr:Datum:Temp:Abs-Feuchte:Windchill:Wind:
Aussen-T/F 1151 17-12-2009 14:15:02 -1.4 C 2.64 g/m*3 -1.4 C 0 km/h
1152 17-12-2009 14:27:03 -1.3 C 2.66 g/m*3 -1.3 C 0 km/h
1153 17-12-2009 14:39:02 -1.3 C 2.61 g/m*3 -1.3 C 0 km/h
1154 17-12-2009 14:51:02 -1.3 C 2.52 g/m*3 -1.3 C 0 km/h
1155 17-12-2009 15:03:01 -1.3 C 2.48 g/m*3 -1.3 C 0 km/h
1156 17-12-2009 15:15:02 -1.6 C 2.43 g/m*3 -1.6 C 0 km/h
1157 17-12-2009 15:27:02 -1.7 C 2.45 g/m*3 -1.7 C 0 km/h
1158 17-12-2009 15:39:02 -2 C 2.49 g/m*3 -2 C 0 km/h
1159 17-12-2009 15:51:02 -2.2 C 2.54 g/m*3 -2.2 C 0 km/h
1160 17-12-2009 16:03:03 -2.3 C 2.56 g/m*3 -2.3 C 0 km/h
1161 17-12-2009 16:15:02 -2.5 C 2.52 g/m*3 -2.5 C 0 km/h
1162 17-12-2009 16:27:02 -2.7 C 2.53 g/m*3 -2.7 C 0 km/h
1163 17-12-2009 16:39:02 -2.6 C 2.51 g/m*3 -2.6 C 0 km/h
1164 17-12-2009 16:51:01 -2.6 C 2.51 g/m*3 -2.6 C 0 km/h
1165 17-12-2009 17:03:02 -3 C 2.44 g/m*3 -3 C 0 km/h
1166 17-12-2009 17:15:01 -3.5 C 2.39 g/m*3 -3.5 C 0 km/h
1167 17-12-2009 17:27:01 -3.8 C 2.37 g/m*3 -3.8 C 0 km/h
1168 17-12-2009 17:39:02 -4.1 C 2.36 g/m*3 -4.1 C 0 km/h
1169 17-12-2009 17:51:01 -4.2 C 2.34 g/m*3 -4.2 C 0 km/h
1170 17-12-2009 18:03:02 -4.5 C 2.29 g/m*3 -4.5 C 0 km/h
1171 17-12-2009 18:15:01 -4.6 C 2.28 g/m*3 -4.6 C 0 km/h
1172 17-12-2009 18:27:01 -4.5 C 2.33 g/m*3 -4.5 C 0 km/h
1173 17-12-2009 18:39:02 -4.6 C 2.35 g/m*3 -4.6 C 0 km/h
1174 17-12-2009 18:51:01 -4.6 C 2.35 g/m*3 -4.6 C 0 km/h
1175 17-12-2009 19:03:02 -4.7 C 2.37 g/m*3 -4.7 C 0 km/h
Sensor: Nr:Datum:Temp:Abs-Feuchte:Windchill:Wind:
Aussen-T/F 1176 17-12-2009 19:15:02 -4.6 C 2.42 g/m*3 -4.6 C 0 km/h
1177 17-12-2009 19:27:02 -4.7 C 2.4 g/m*3 -4.7 C 0 km/h
1178 17-12-2009 19:39:02 -4.7 C 2.44 g/m*3 -4.7 C 0 km/h
1179 17-12-2009 19:51:02 -4.6 C 2.45 g/m*3 -4.6 C 0 km/h
1180 17-12-2009 20:03:01 -4.7 C 2.44 g/m*3 -4.7 C 0 km/h
1181 17-12-2009 20:15:02 -4.6 C 2.49 g/m*3 -4.6 C 0 km/h
1182 17-12-2009 20:27:02 -4.4 C 2.52 g/m*3 -4.4 C 0 km/h
1183 17-12-2009 20:39:01 -4.2 C 2.56 g/m*3 -4.2 C 0 km/h
1184 17-12-2009 20:51:02 -4.1 C 2.58 g/m*3 -4.1 C 0 km/h
1185 17-12-2009 21:03:01 -4.1 C 2.54 g/m*3 -4.1 C 0 km/h
1186 17-12-2009 21:15:01 -4.1 C 2.54 g/m*3 -4.1 C 0 km/h
1187 17-12-2009 21:27:01 -4.1 C 2.58 g/m*3 -4.1 C 0 km/h
1188 17-12-2009 21:39:01 -4.1 C 2.58 g/m*3 -4.1 C 0 km/h
1189 17-12-2009 21:51:02 -4 C 2.56 g/m*3 -4 C 0 km/h
1190 17-12-2009 22:04:03 -4 C 2.56 g/m*3 -4 C 0 km/h
1191 17-12-2009 22:16:03 -3.9 C 2.54 g/m*3 -3.9 C 0 km/h
1192 17-12-2009 22:28:03 -3.9 C 2.51 g/m*3 -3.9 C 0 km/h
1193 17-12-2009 22:40:03 -3.7 C 2.54 g/m*3 -3.7 C 0 km/h
1194 17-12-2009 22:52:03 -3.7 C 2.54 g/m*3 -3.7 C 0 km/h
1195 17-12-2009 23:04:03 -3.7 C 2.54 g/m*3 -3.7 C 0 km/h
1196 17-12-2009 23:16:03 -3.8 C 2.49 g/m*3 -3.8 C 0 km/h
1197 17-12-2009 23:28:03 -4 C 2.41 g/m*3 -4 C 0 km/h
1198 17-12-2009 23:40:03 -4.2 C 2.38 g/m*3 -4.2 C 0 km/h
1199 17-12-2009 23:52:03 -4.3 C 2.4 g/m*3 -4.3 C 0 km/h
1200 18-12-2009 00:04:03 -4.6 C 2.35 g/m*3 -4.6 C 0 km/h
Sensor: Nr:Datum:Temp:Abs-Feuchte:Windchill:Wind:
Aussen-T/F 1201 18-12-2009 00:16:03 -4.9 C 2.33 g/m*3 -4.9 C 0 km/h
1202 18-12-2009 00:28:03 -5.1 C 2.37 g/m*3 -5.1 C 0 km/h
1203 18-12-2009 00:40:03 -5.3 C 2.33 g/m*3 -5.3 C 0 km/h
1204 18-12-2009 00:52:03 -5.4 C 2.35 g/m*3 -5.4 C 0 km/h
1205 18-12-2009 01:04:03 -5.5 C 2.33 g/m*3 -5.5 C 0 km/h
1206 18-12-2009 01:16:03 -5.6 C 2.35 g/m*3 -5.6 C 0 km/h
1207 18-12-2009 01:28:03 -5.7 C 2.33 g/m*3 -5.7 C 0 km/h
1208 18-12-2009 01:40:03 -5.6 C 2.38 g/m*3 -5.6 C 0 km/h
1209 18-12-2009 01:52:04 -5.6 C 2.41 g/m*3 -5.6 C 0 km/h
1210 18-12-2009 02:04:04 -5.4 C 2.41 g/m*3 -5.4 C 0 km/h
1211 18-12-2009 02:16:04 -5.7 C 2.33 g/m*3 -5.7 C 0 km/h
1212 18-12-2009 02:28:04 -6 C 2.28 g/m*3 -6 C 0 km/h
1213 18-12-2009 02:40:04 -6.1 C 2.3 g/m*3 -6.1 C 0 km/h
1214 18-12-2009 02:52:04 -6.3 C 2.26 g/m*3 -6.3 C 0 km/h
1215 18-12-2009 03:04:04 -6.4 C 2.28 g/m*3 -6.4 C 0 km/h
1216 18-12-2009 03:16:04 -6.5 C 2.29 g/m*3 -6.5 C 0 km/h
1217 18-12-2009 03:28:04 -6.6 C 2.27 g/m*3 -6.6 C 0 km/h
1218 18-12-2009 03:40:04 -6.7 C 2.26 g/m*3 -6.7 C 0 km/h
1219 18-12-2009 03:52:04 -6.6 C 2.3 g/m*3 -6.6 C 0 km/h
1220 18-12-2009 04:04:04 -6.7 C 2.32 g/m*3 -6.7 C 0 km/h
1221 18-12-2009 04:16:04 -6.8 C 2.3 g/m*3 -6.8 C 0 km/h
1222 18-12-2009 04:28:04 -6.8 C 2.3 g/m*3 -6.8 C 0 km/h
1223 18-12-2009 04:40:04 -6.9 C 2.31 g/m*3 -6.9 C 0 km/h
1224 18-12-2009 04:52:04 -7.1 C 2.28 g/m*3 -7.1 C 0 km/h
1225 18-12-2009 05:04:04 -7.1 C 2.28 g/m*3 -7.1 C 0 km/h
Sensor: Nr:Datum:Temp:Abs-Feuchte:Windchill:Wind:
Aussen-T/F 1226 18-12-2009 05:16:04 -7.2 C 2.29 g/m*3 -7.2 C 0 km/h
1227 18-12-2009 05:28:04 -7.4 C 2.26 g/m*3 -7.4 C 0 km/h
1228 18-12-2009 05:40:04 -7.4 C 2.26 g/m*3 -7.4 C 0 km/h
1229 18-12-2009 05:52:04 -7.5 C 2.24 g/m*3 -7.5 C 0 km/h
1230 18-12-2009 06:04:04 -7.5 C 2.24 g/m*3 -7.5 C 0 km/h
1231 18-12-2009 06:16:05 -7.6 C 2.25 g/m*3 -7.6 C 0 km/h
1232 18-12-2009 06:28:05 -7.7 C 2.24 g/m*3 -7.7 C 0 km/h
1233 18-12-2009 06:40:05 -7.8 C 2.22 g/m*3 -7.8 C 0 km/h
1234 18-12-2009 06:52:05 -7.9 C 2.2 g/m*3 -7.9 C 0 km/h
1235 18-12-2009 07:04:02 -7.9 C 2.2 g/m*3 -7.9 C 0 km/h
1236 18-12-2009 07:16:02 -7.8 C 2.22 g/m*3 -7.8 C 0 km/h
1237 18-12-2009 07:28:03 -7.7 C 2.24 g/m*3 -7.7 C 0 km/h
1238 18-12-2009 07:40:02 -7.3 C 2.33 g/m*3 -7.3 C 0 km/h
1239 18-12-2009 07:52:02 -7.1 C 2.37 g/m*3 -7.1 C 0 km/h
1240 18-12-2009 08:04:02 -6.8 C 2.42 g/m*3 -6.8 C 0 km/h
1241 18-12-2009 08:16:02 -6.6 C 2.46 g/m*3 -6.6 C 0 km/h
1242 18-12-2009 08:28:02 -6.5 C 2.44 g/m*3 -6.5 C 0 km/h
1243 18-12-2009 08:40:02 -6.6 C 2.43 g/m*3 -6.6 C 0 km/h
1244 18-12-2009 08:52:02 -6.7 C 2.38 g/m*3 -6.7 C 0 km/h
1245 18-12-2009 09:04:02 -6.7 C 2.38 g/m*3 -6.7 C 0 km/h
1246 18-12-2009 09:16:01 -6.6 C 2.39 g/m*3 -6.6 C 0 km/h
1247 18-12-2009 09:28:01 -6.4 C 2.43 g/m*3 -6.4 C 0 km/h
1248 18-12-2009 09:40:02 -6.1 C 2.48 g/m*3 -6.1 C 0 km/h
1249 18-12-2009 09:52:02 -5.7 C 2.56 g/m*3 -5.7 C 0 km/h
1250 18-12-2009 10:04:02 -5.4 C 2.58 g/m*3 -5.4 C 0 km/h
Sensor: Nr:Datum:Temp:Abs-Feuchte:Windchill:Wind:
Aussen-T/F 1251 18-12-2009 10:16:01 -5.2 C 2.58 g/m*3 -5.2 C 0 km/h
1252 18-12-2009 10:28:01 -4.8 C 2.63 g/m*3 -4.8 C 0 km/h
1253 18-12-2009 10:40:02 -4.4 C 2.67 g/m*3 -4.4 C 0 km/h
1254 18-12-2009 10:52:02 -4.2 C 2.6 g/m*3 -4.2 C 0 km/h
1255 18-12-2009 11:04:02 -4.1 C 2.51 g/m*3 -4.1 C 0 km/h
1256 18-12-2009 11:16:01 -3.9 C 2.54 g/m*3 -3.9 C 0 km/h
1257 18-12-2009 11:28:01 -3.7 C 2.54 g/m*3 -3.7 C 0 km/h
1258 18-12-2009 11:40:02 -3.6 C 2.52 g/m*3 -3.6 C 0 km/h
1259 18-12-2009 11:52:02 -3.4 C 2.52 g/m*3 -3.4 C 0 km/h
1260 18-12-2009 12:04:02 -3.1 C 2.5 g/m*3 -3.1 C 0 km/h
1261 18-12-2009 12:16:02 -2.9 C 2.49 g/m*3 -2.9 C 0 km/h
1262 18-12-2009 12:28:02 -3 C 2.44 g/m*3 -3 C 0 km/h
1263 18-12-2009 12:40:02 -3 C 2.44 g/m*3 -3 C 0 km/h
1264 18-12-2009 12:52:02 -3.2 C 2.44 g/m*3 -3.2 C 0 km/h
1265 18-12-2009 13:04:02 -3 C 2.51 g/m*3 -3 C 0 km/h
1266 18-12-2009 13:16:02 -2.8 C 2.59 g/m*3 -2.8 C 0 km/h
1267 18-12-2009 13:28:02 -2.8 C 2.55 g/m*3 -2.8 C 0 km/h
1268 18-12-2009 13:40:01 -2.4 C 2.66 g/m*3 -2.4 C 0 km/h
1269 18-12-2009 13:52:02 -2.1 C 2.68 g/m*3 -2.1 C 0 km/h
1270 18-12-2009 14:04:01 -2.1 C 2.64 g/m*3 -2.1 C 0 km/h
1271 18-12-2009 14:16:02 -2.2 C 2.66 g/m*3 -2.2 C 0 km/h
1272 18-12-2009 14:28:02 -2.1 C 2.72 g/m*3 -2.1 C 0 km/h
1273 18-12-2009 14:40:01 -2 C 2.78 g/m*3 -2 C 0 km/h
1274 18-12-2009 14:52:02 -1.9 C 2.84 g/m*3 -1.9 C 0 km/h
1275 18-12-2009 15:04:02 -1.8 C 2.91 g/m*3 -1.8 C 0 km/h
Sensor: Nr:Datum:Temp:Abs-Feuchte:Windchill:Wind:
Aussen-T/F 1276 18-12-2009 15:16:02 -1.8 C 2.86 g/m*3 -1.8 C 0 km/h
1277 18-12-2009 15:28:02 -1.9 C 2.89 g/m*3 -1.9 C 0 km/h
1278 18-12-2009 15:40:03 -1.9 C 2.89 g/m*3 -1.9 C 0 km/h
1279 18-12-2009 15:52:02 -1.9 C 2.8 g/m*3 -1.9 C 0 km/h
1280 18-12-2009 16:04:02 -2 C 2.74 g/m*3 -2 C 0 km/h
1281 18-12-2009 16:16:01 -2.1 C 2.89 g/m*3 -2.1 C 0 km/h
1282 18-12-2009 16:28:01 -2.5 C 3.01 g/m*3 -2.5 C 0 km/h
1283 18-12-2009 16:40:02 -2.6 C 3.07 g/m*3 -2.6 C 0 km/h
1284 18-12-2009 16:52:02 -2.7 C 3.05 g/m*3 -2.7 C 0 km/h
1285 18-12-2009 17:04:02 -2.9 C 3.05 g/m*3 -2.9 C 0 km/h
1286 18-12-2009 17:16:02 -3 C 3.02 g/m*3 -3 C 0 km/h
1287 18-12-2009 17:28:02 -3 C 3.02 g/m*3 -3 C 0 km/h
1288 18-12-2009 17:40:02 -2.9 C 3.01 g/m*3 -2.9 C 0 km/h
1289 18-12-2009 17:52:02 -3 C 2.83 g/m*3 -3 C 0 km/h
1290 18-12-2009 18:04:01 -3.2 C 2.59 g/m*3 -3.2 C 0 km/h
1291 18-12-2009 18:16:02 -3.4 C 2.52 g/m*3 -3.4 C 0 km/h
1292 18-12-2009 18:28:02 -3.6 C 2.45 g/m*3 -3.6 C 0 km/h
1293 18-12-2009 18:40:01 -3.7 C 2.35 g/m*3 -3.7 C 0 km/h
1294 18-12-2009 18:52:02 -3.8 C 2.12 g/m*3 -3.8 C 0 km/h
1295 18-12-2009 19:04:02 -3.8 C 2.08 g/m*3 -3.8 C 0 km/h
1296 18-12-2009 19:16:02 -3.8 C 2.12 g/m*3 -3.8 C 0 km/h
1297 18-12-2009 19:28:02 -4.1 C 1.96 g/m*3 -4.1 C 0 km/h
1298 18-12-2009 19:40:03 -4.2 C 1.8 g/m*3 -4.2 C 0 km/h
1299 18-12-2009 19:52:02 -4.2 C 1.8 g/m*3 -4.2 C 0 km/h
1300 18-12-2009 20:04:01 -4.6 C 1.61 g/m*3 -4.6 C 0 km/h
Sensor: Nr:Datum:Temp:Abs-Feuchte:Windchill:Wind:
Aussen-T/F 1301 18-12-2009 20:16:02 -4.8 C 1.59 g/m*3 -4.8 C 0 km/h
1302 18-12-2009 20:28:02 -5.1 C 1.55 g/m*3 -5.1 C 0 km/h
1303 18-12-2009 20:40:02 -5.2 C 1.51 g/m*3 -5.2 C 0 km/h
1304 18-12-2009 20:52:02 -5.2 C 1.54 g/m*3 -5.2 C 0 km/h
1305 18-12-2009 21:04:01 -5.3 C 1.5 g/m*3 -5.3 C 0 km/h
1306 18-12-2009 21:16:01 -5.4 C 1.49 g/m*3 -5.4 C 0 km/h
1307 18-12-2009 21:28:01 -5.4 C 1.59 g/m*3 -5.4 C 0 km/h
1308 18-12-2009 21:41:29 -5.4 C 1.69 g/m*3 -5.4 C 0 km/h
1309 18-12-2009 21:53:29 -5.4 C 1.72 g/m*3 -5.4 C 0 km/h
1310 18-12-2009 22:05:29 -5.7 C 1.78 g/m*3 -5.7 C 0 km/h
1311 18-12-2009 22:17:29 -5.8 C 1.86 g/m*3 -5.8 C 0 km/h
1312 18-12-2009 22:29:29 -6 C 1.93 g/m*3 -6 C 0 km/h
1313 18-12-2009 22:41:29 -7.2 C 1.83 g/m*3 -7.2 C 0 km/h
1314 18-12-2009 22:53:29 -7.4 C 1.89 g/m*3 -7.4 C 0 km/h
1315 18-12-2009 23:05:29 -7.3 C 1.96 g/m*3 -7.3 C 0 km/h
1316 18-12-2009 23:17:29 -7.6 C 1.92 g/m*3 -7.6 C 0 km/h
1317 18-12-2009 23:29:29 -7.8 C 1.89 g/m*3 -7.8 C 0 km/h
1318 18-12-2009 23:41:29 -7.9 C 1.87 g/m*3 -7.9 C 0 km/h
1319 18-12-2009 23:53:29 -8.2 C 1.75 g/m*3 -8.2 C 0 km/h
1320 19-12-2009 00:05:29 -8.5 C 1.69 g/m*3 -8.5 C 0 km/h
1321 19-12-2009 00:17:29 -8.6 C 1.65 g/m*3 -8.6 C 0 km/h
1322 19-12-2009 00:29:29 -8.8 C 1.57 g/m*3 -8.8 C 0 km/h
1323 19-12-2009 00:41:29 -9.1 C 1.49 g/m*3 -9.1 C 0 km/h
1324 19-12-2009 00:53:29 -9.4 C 1.43 g/m*3 -9.4 C 0 km/h
1325 19-12-2009 01:05:29 -9.6 C 1.38 g/m*3 -9.6 C 0 km/h
Sensor: Nr:Datum:Temp:Abs-Feuchte:Windchill:Wind:
Aussen-T/F 1326 19-12-2009 01:17:29 -9.8 C 1.36 g/m*3 -9.8 C 0 km/h
1327 19-12-2009 01:29:30 -9.9 C 1.35 g/m*3 -9.9 C 0 km/h
1328 19-12-2009 01:41:30 -10 C 1.3 g/m*3 -10 C 0 km/h
1329 19-12-2009 01:53:30 -10 C 1.27 g/m*3 -10 C 0 km/h
1330 19-12-2009 02:05:30 -10 C 1.25 g/m*3 -10 C 0 km/h
1331 19-12-2009 02:17:30 -10 C 1.22 g/m*3 -10 C 0 km/h
1332 19-12-2009 02:29:30 -10 C 1.25 g/m*3 -10 C 0 km/h
1333 19-12-2009 02:41:30 -10.4 C 1.17 g/m*3 -10.4 C 0 km/h
1334 19-12-2009 02:53:30 -11.2 C 1.1 g/m*3 -11.2 C 0 km/h
1335 19-12-2009 03:05:30 -11.8 C 1.07 g/m*3 -11.8 C 0 km/h
1336 19-12-2009 03:17:30 -12.1 C 1.06 g/m*3 -12.1 C 0 km/h
1337 19-12-2009 03:29:30 -12.3 C 1.07 g/m*3 -12.3 C 0 km/h
1338 19-12-2009 03:41:30 -12.5 C 1.07 g/m*3 -12.5 C 0 km/h
1339 19-12-2009 03:53:30 -12.5 C 1.09 g/m*3 -12.5 C 0 km/h
1340 19-12-2009 04:05:30 -12.5 C 1.09 g/m*3 -12.5 C 0 km/h
1341 19-12-2009 04:17:30 -12.6 C 1.08 g/m*3 -12.6 C 0 km/h
1342 19-12-2009 04:29:30 -12.6 C 1.1 g/m*3 -12.6 C 0 km/h
1343 19-12-2009 04:41:30 -12.6 C 1.08 g/m*3 -12.6 C 0 km/h
1344 19-12-2009 04:53:30 -12.6 C 1.06 g/m*3 -12.6 C 0 km/h
1345 19-12-2009 05:05:30 -12.7 C 1.04 g/m*3 -12.7 C 0 km/h
1346 19-12-2009 05:17:30 -13.1 C 1 g/m*3 -13.1 C 0 km/h
1347 19-12-2009 05:29:30 -13.2 C 1 g/m*3 -13.2 C 0 km/h
1348 19-12-2009 05:41:30 -13.3 C 1.01 g/m*3 -13.3 C 0 km/h
1349 19-12-2009 05:53:30 -13.4 C 1.02 g/m*3 -13.4 C 0 km/h
1350 19-12-2009 06:05:31 -13.5 C 1.03 g/m*3 -13.5 C 0 km/h
Sensor: Nr:Datum:Temp:Abs-Feuchte:Windchill:Wind:
Aussen-T/F 1351 19-12-2009 06:17:31 -13.6 C 1.02 g/m*3 -13.6 C 0 km/h
1352 19-12-2009 06:29:31 -13.7 C 1.03 g/m*3 -13.7 C 0 km/h
1353 19-12-2009 06:41:31 -13.9 C 1.01 g/m*3 -13.9 C 0 km/h
1354 19-12-2009 06:53:31 -13.7 C 1.05 g/m*3 -13.7 C 0 km/h
1355 19-12-2009 07:05:31 -13.9 C 1.05 g/m*3 -13.9 C 0 km/h
1356 19-12-2009 07:17:31 -14 C 1.04 g/m*3 -14 C 0 km/h
1357 19-12-2009 07:29:31 -13.7 C 1.08 g/m*3 -13.7 C 0 km/h
1358 19-12-2009 07:41:01 -13.5 C 1.1 g/m*3 -13.5 C 0 km/h
1359 19-12-2009 07:53:02 -13.4 C 1.13 g/m*3 -13.4 C 0 km/h
1360 19-12-2009 08:05:02 -13.5 C 1.12 g/m*3 -13.5 C 0 km/h
1361 19-12-2009 08:17:02 -13.7 C 1.1 g/m*3 -13.7 C 0 km/h
1362 19-12-2009 08:29:03 -13.7 C 1.1 g/m*3 -13.7 C 0 km/h
1363 19-12-2009 08:41:02 -14 C 1.07 g/m*3 -14 C 0 km/h
1364 19-12-2009 08:53:02 -14.1 C 1.07 g/m*3 -14.1 C 0 km/h
1365 19-12-2009 09:05:01 -14.1 C 1.07 g/m*3 -14.1 C 0 km/h
1366 19-12-2009 09:17:02 -13.9 C 1.1 g/m*3 -13.9 C 0 km/h
1367 19-12-2009 09:29:02 -13.9 C 1.1 g/m*3 -13.9 C 0 km/h
1368 19-12-2009 09:41:02 -13.9 C 1.08 g/m*3 -13.9 C 0 km/h
1369 19-12-2009 09:53:02 -13.7 C 1.12 g/m*3 -13.7 C 0 km/h
1370 19-12-2009 10:05:03 -13.5 C 1.14 g/m*3 -13.5 C 0 km/h
1371 19-12-2009 10:17:02 -13.4 C 1.16 g/m*3 -13.4 C 0 km/h
1372 19-12-2009 10:29:02 -13.2 C 1.16 g/m*3 -13.2 C 0 km/h
1373 19-12-2009 10:41:03 -13 C 1.18 g/m*3 -13 C 0 km/h
1374 19-12-2009 10:53:02 -12.7 C 1.19 g/m*3 -12.7 C 0 km/h
1375 19-12-2009 11:05:02 -12.8 C 1.16 g/m*3 -12.8 C 0 km/h
Sensor: Nr:Datum:Temp:Abs-Feuchte:Windchill:Wind:
Aussen-T/F 1376 19-12-2009 11:17:01 -12.8 C 1.14 g/m*3 -12.8 C 0 km/h
1377 19-12-2009 11:29:01 -12.7 C 1.15 g/m*3 -12.7 C 0 km/h
1378 19-12-2009 11:41:02 -12.6 C 1.14 g/m*3 -12.6 C 0 km/h
1379 19-12-2009 11:53:02 -12.6 C 1.12 g/m*3 -12.6 C 0 km/h
1380 19-12-2009 12:05:02 -12.3 C 1.15 g/m*3 -12.3 C 0 km/h
1381 19-12-2009 12:17:02 -12 C 1.13 g/m*3 -12 C 0 km/h
1382 19-12-2009 12:29:02 -11.5 C 1.16 g/m*3 -11.5 C 0 km/h
1383 19-12-2009 12:41:02 -11.7 C 1.12 g/m*3 -11.7 C 0 km/h
1384 19-12-2009 12:53:02 -11.7 C 1.12 g/m*3 -11.7 C 0 km/h
1385 19-12-2009 13:05:02 -11.6 C 1.11 g/m*3 -11.6 C 0 km/h
1386 19-12-2009 13:17:01 -11.6 C 1.11 g/m*3 -11.6 C 0 km/h
1387 19-12-2009 13:29:01 -11.4 C 1.12 g/m*3 -11.4 C 0 km/h
1388 19-12-2009 13:41:02 -11.3 C 1.11 g/m*3 -11.3 C 0 km/h
1389 19-12-2009 13:53:02 -11.1 C 1.13 g/m*3 -11.1 C 0 km/h
1390 19-12-2009 14:05:02 -11.2 C 1.12 g/m*3 -11.2 C 0 km/h
1391 19-12-2009 14:17:02 -11.2 C 1.12 g/m*3 -11.2 C 0 km/h
1392 19-12-2009 14:29:02 -11.1 C 1.11 g/m*3 -11.1 C 0 km/h
1393 19-12-2009 14:41:02 -11.2 C 1.12 g/m*3 -11.2 C 0 km/h
1394 19-12-2009 14:53:02 -11.2 C 1.12 g/m*3 -11.2 C 0 km/h
1395 19-12-2009 15:05:02 -11.2 C 1.12 g/m*3 -11.2 C 0 km/h
1396 19-12-2009 15:17:02 -11.1 C 1.15 g/m*3 -11.1 C 0 km/h
1397 19-12-2009 15:29:02 -11 C 1.16 g/m*3 -11 C 0 km/h
1398 19-12-2009 15:41:02 -11.2 C 1.14 g/m*3 -11.2 C 0 km/h
1399 19-12-2009 15:53:02 -11.4 C 1.12 g/m*3 -11.4 C 0 km/h
1400 19-12-2009 16:05:02 -11.7 C 1.12 g/m*3 -11.7 C 0 km/h
Sensor: Nr:Datum:Temp:Abs-Feuchte:Windchill:Wind:
Aussen-T/F 1401 19-12-2009 16:17:02 -12 C 1.11 g/m*3 -12 C 0 km/h
1402 19-12-2009 16:29:02 -12.1 C 1.1 g/m*3 -12.1 C 0 km/h
1403 19-12-2009 16:41:02 -12.3 C 1.11 g/m*3 -12.3 C 0 km/h
1404 19-12-2009 16:53:02 -12.4 C 1.1 g/m*3 -12.4 C 0 km/h
1405 19-12-2009 17:05:02 -12.4 C 1.1 g/m*3 -12.4 C 0 km/h
1406 19-12-2009 17:17:03 -12.4 C 1.12 g/m*3 -12.4 C 0 km/h
1407 19-12-2009 17:29:03 -12.5 C 1.09 g/m*3 -12.5 C 0 km/h
1408 19-12-2009 17:41:02 -12.7 C 1.07 g/m*3 -12.7 C 0 km/h
1409 19-12-2009 17:53:02 -13 C 1.05 g/m*3 -13 C 0 km/h
1410 19-12-2009 18:05:04 -13.2 C 1.05 g/m*3 -13.2 C 0 km/h
1411 19-12-2009 18:17:02 -13.3 C 1.06 g/m*3 -13.3 C 0 km/h
1412 19-12-2009 18:29:02 -13.4 C 1.05 g/m*3 -13.4 C 0 km/h
1413 19-12-2009 18:41:04 -13.6 C 1.05 g/m*3 -13.6 C 0 km/h
1414 19-12-2009 18:53:05 -13.8 C 1.04 g/m*3 -13.8 C 0 km/h
1415 19-12-2009 19:05:04 -13.5 C 1.1 g/m*3 -13.5 C 0 km/h
1416 19-12-2009 19:17:03 -13.9 C 1.1 g/m*3 -13.9 C 0 km/h
1417 19-12-2009 19:29:03 -13.9 C 1.1 g/m*3 -13.9 C 0 km/h
1418 19-12-2009 19:41:03 -14.2 C 1.09 g/m*3 -14.2 C 0 km/h
1419 19-12-2009 19:53:02 -14.4 C 1.07 g/m*3 -14.4 C 0 km/h
1420 19-12-2009 20:05:02 -14.6 C 1.07 g/m*3 -14.6 C 0 km/h
1421 19-12-2009 20:17:02 -14.8 C 1.06 g/m*3 -14.8 C 0 km/h
1422 19-12-2009 20:29:02 -14.8 C 1.07 g/m*3 -14.8 C 0 km/h
1423 19-12-2009 20:41:02 -14.9 C 1.07 g/m*3 -14.9 C 0 km/h
1424 19-12-2009 20:53:02 -15 C 1.06 g/m*3 -15 C 0 km/h
1425 19-12-2009 21:05:03 -15.1 C 1.05 g/m*3 -15.1 C 0 km/h
Sensor: Nr:Datum:Temp:Abs-Feuchte:Windchill:Wind:
Aussen-T/F 1426 19-12-2009 21:17:02 -15 C 1.06 g/m*3 -15 C 0 km/h
1427 19-12-2009 21:29:02 -15 C 1.06 g/m*3 -15 C 0 km/h
1428 19-12-2009 21:41:02 -15.1 C 1.05 g/m*3 -15.1 C 0 km/h
1429 19-12-2009 21:53:01 -15.3 C 1.03 g/m*3 -15.3 C 0 km/h
1430 19-12-2009 22:05:01 -15.3 C 1.05 g/m*3 -15.3 C 0 km/h
1431 19-12-2009 22:17:02 -15.4 C 1.02 g/m*3 -15.4 C 0 km/h
1432 19-12-2009 22:29:02 -15.5 C 1.02 g/m*3 -15.5 C 0 km/h
1433 19-12-2009 22:41:01 -15.6 C 1.02 g/m*3 -15.6 C 0 km/h
1434 19-12-2009 22:53:03 -15.7 C 1.02 g/m*3 -15.7 C 0 km/h
1435 19-12-2009 23:05:02 -15.8 C 0.99 g/m*3 -15.8 C 0 km/h
1436 19-12-2009 23:17:02 -15.8 C 0.99 g/m*3 -15.8 C 0 km/h
1437 19-12-2009 23:29:02 -15.8 C 0.99 g/m*3 -15.8 C 0 km/h
1438 19-12-2009 23:41:02 -15.9 C 0.98 g/m*3 -15.9 C 0 km/h
1439 19-12-2009 23:53:02 -15.9 C 0.98 g/m*3 -15.9 C 0 km/h
1440 20-12-2009 00:05:01 -16 C 0.98 g/m*3 -16 C 0 km/h
1441 20-12-2009 00:17:02 -16.1 C 0.97 g/m*3 -16.1 C 0 km/h
1442 20-12-2009 00:29:02 -16.2 C 0.96 g/m*3 -16.2 C 0 km/h
1443 20-12-2009 00:41:01 -16.3 C 0.95 g/m*3 -16.3 C 0 km/h
1444 20-12-2009 00:54:01 -16.2 C 0.98 g/m*3 -16.2 C 0 km/h
1445 20-12-2009 01:06:01 -16.2 C 0.98 g/m*3 -16.2 C 0 km/h
1446 20-12-2009 01:18:01 -16.3 C 0.95 g/m*3 -16.3 C 0 km/h
1447 20-12-2009 01:30:01 -16.4 C 0.95 g/m*3 -16.4 C 0 km/h
1448 20-12-2009 01:42:01 -16.4 C 0.95 g/m*3 -16.4 C 0 km/h
1449 20-12-2009 01:54:01 -16.4 C 0.95 g/m*3 -16.4 C 0 km/h
1450 20-12-2009 02:06:01 -16 C 0.99 g/m*3 -16 C 0 km/h
Sensor: Nr:Datum:Temp:Abs-Feuchte:Windchill:Wind:
Aussen-T/F 1451 20-12-2009 02:18:01 -16.1 C 0.98 g/m*3 -16.1 C 0 km/h
1452 20-12-2009 02:30:01 -16.1 C 0.98 g/m*3 -16.1 C 0 km/h
1453 20-12-2009 02:42:01 -16.1 C 0.98 g/m*3 -16.1 C 0 km/h
1454 20-12-2009 02:54:01 -16 C 0.99 g/m*3 -16 C 0 km/h
1455 20-12-2009 03:06:02 -16 C 0.99 g/m*3 -16 C 0 km/h
1456 20-12-2009 03:18:02 -15.9 C 1 g/m*3 -15.9 C 0 km/h
1457 20-12-2009 03:30:02 -15.8 C 1.01 g/m*3 -15.8 C 0 km/h
1458 20-12-2009 03:42:02 -15.4 C 1.06 g/m*3 -15.4 C 0 km/h
1459 20-12-2009 03:54:02 -14.8 C 1.12 g/m*3 -14.8 C 0 km/h
1460 20-12-2009 04:06:02 -14.5 C 1.13 g/m*3 -14.5 C 0 km/h
1461 20-12-2009 04:18:02 -14.7 C 1.1 g/m*3 -14.7 C 0 km/h
1462 20-12-2009 04:30:02 -14.8 C 1.09 g/m*3 -14.8 C 0 km/h
1463 20-12-2009 04:42:02 -14.5 C 1.12 g/m*3 -14.5 C 0 km/h
1464 20-12-2009 04:54:02 -14.3 C 1.13 g/m*3 -14.3 C 0 km/h
1465 20-12-2009 05:06:02 -14.2 C 1.16 g/m*3 -14.2 C 0 km/h
1466 20-12-2009 05:18:02 -14.1 C 1.17 g/m*3 -14.1 C 0 km/h
1467 20-12-2009 05:30:02 -13.3 C 1.24 g/m*3 -13.3 C 0 km/h
1468 20-12-2009 05:42:02 -12.8 C 1.26 g/m*3 -12.8 C 0 km/h
1469 20-12-2009 05:54:02 -13 C 1.22 g/m*3 -13 C 0 km/h
1470 20-12-2009 06:06:03 -12.8 C 1.22 g/m*3 -12.8 C 0 km/h
1471 20-12-2009 06:18:03 -12.5 C 1.25 g/m*3 -12.5 C 0 km/h
1472 20-12-2009 06:30:03 -12.3 C 1.25 g/m*3 -12.3 C 0 km/h
1473 20-12-2009 06:42:03 -12 C 1.25 g/m*3 -12 C 0 km/h
1474 20-12-2009 06:54:03 -12.5 C 1.19 g/m*3 -12.5 C 0 km/h
1475 20-12-2009 07:06:03 -12.8 C 1.18 g/m*3 -12.8 C 0 km/h
Sensor: Nr:Datum:Temp:Abs-Feuchte:Windchill:Wind:
Aussen-T/F 1476 20-12-2009 07:18:03 -12.9 C 1.19 g/m*3 -12.9 C 0 km/h
1477 20-12-2009 07:30:03 -12.7 C 1.23 g/m*3 -12.7 C 0 km/h
1478 20-12-2009 07:42:03 -12.5 C 1.27 g/m*3 -12.5 C 0 km/h
1479 20-12-2009 07:54:03 -12.1 C 1.33 g/m*3 -12.1 C 0 km/h
1480 20-12-2009 08:06:02 -11.6 C 1.38 g/m*3 -11.6 C 0 km/h
1481 20-12-2009 08:18:02 -11.3 C 1.41 g/m*3 -11.3 C 0 km/h
1482 20-12-2009 08:30:02 -11.2 C 1.42 g/m*3 -11.2 C 0 km/h
1483 20-12-2009 08:42:01 -11 C 1.44 g/m*3 -11 C 0 km/h
1484 20-12-2009 08:54:02 -10.8 C 1.46 g/m*3 -10.8 C 0 km/h
1485 20-12-2009 09:06:02 -10.6 C 1.51 g/m*3 -10.6 C 0 km/h
1486 20-12-2009 09:18:02 -10 C 1.55 g/m*3 -10 C 0 km/h
1487 20-12-2009 09:30:02 -9.6 C 1.6 g/m*3 -9.6 C 0 km/h
1488 20-12-2009 09:42:02 -9.1 C 1.59 g/m*3 -9.1 C 0 km/h
1489 20-12-2009 09:54:01 -8.8 C 1.6 g/m*3 -8.8 C 0 km/h
1490 20-12-2009 10:06:01 -8.5 C 1.61 g/m*3 -8.5 C 0 km/h
1491 20-12-2009 10:18:01 -8.2 C 1.62 g/m*3 -8.2 C 0 km/h
1492 20-12-2009 10:30:01 -8 C 1.64 g/m*3 -8 C 0 km/h
1493 20-12-2009 10:42:01 -7.8 C 1.67 g/m*3 -7.8 C 0 km/h
1494 20-12-2009 10:54:01 -7.4 C 1.69 g/m*3 -7.4 C 0 km/h
1495 20-12-2009 11:06:02 -7.2 C 1.68 g/m*3 -7.2 C 0 km/h
1496 20-12-2009 11:18:01 -7.1 C 1.7 g/m*3 -7.1 C 0 km/h
1497 20-12-2009 11:30:01 -7 C 1.71 g/m*3 -7 C 0 km/h
1498 20-12-2009 11:42:01 -6.7 C 1.81 g/m*3 -6.7 C 0 km/h
1499 20-12-2009 11:54:02 -6.5 C 1.83 g/m*3 -6.5 C 0 km/h
1500 20-12-2009 12:06:02 -6.2 C 1.87 g/m*3 -6.2 C 0 km/h
Sensor: Nr:Datum:Temp:Abs-Feuchte:Windchill:Wind:
Aussen-T/F 1501 20-12-2009 12:18:02 -6.1 C 1.92 g/m*3 -6.1 C 0 km/h
1502 20-12-2009 12:30:02 -5.9 C 2.01 g/m*3 -5.9 C 0 km/h
1503 20-12-2009 12:42:02 -6 C 2.06 g/m*3 -6 C 0 km/h
1504 20-12-2009 12:54:02 -5.9 C 2.14 g/m*3 -5.9 C 0 km/h
1505 20-12-2009 13:06:02 -5.8 C 2.25 g/m*3 -5.8 C 0 km/h
1506 20-12-2009 13:18:03 -5.7 C 2.33 g/m*3 -5.7 C 0 km/h
1507 20-12-2009 13:30:03 -5.7 C 2.36 g/m*3 -5.7 C 0 km/h
1508 20-12-2009 13:42:02 -5.6 C 2.41 g/m*3 -5.6 C 0 km/h
1509 20-12-2009 13:54:02 -5.5 C 2.46 g/m*3 -5.5 C 0 km/h
1510 20-12-2009 14:06:02 -5.4 C 2.51 g/m*3 -5.4 C 0 km/h
1511 20-12-2009 14:18:01 -5.3 C 2.57 g/m*3 -5.3 C 0 km/h
1512 20-12-2009 14:30:01 -5.3 C 2.57 g/m*3 -5.3 C 0 km/h
1513 20-12-2009 14:42:01 -5.2 C 2.62 g/m*3 -5.2 C 0 km/h
1514 20-12-2009 14:54:01 -5 C 2.66 g/m*3 -5 C 0 km/h
1515 20-12-2009 15:06:01 -5 C 2.66 g/m*3 -5 C 0 km/h
1516 20-12-2009 15:18:02 -4.9 C 2.68 g/m*3 -4.9 C 0 km/h
1517 20-12-2009 15:30:02 -4.7 C 2.71 g/m*3 -4.7 C 0 km/h
1518 20-12-2009 15:42:01 -4.4 C 2.74 g/m*3 -4.4 C 0 km/h
1519 20-12-2009 15:54:02 -4.3 C 2.76 g/m*3 -4.3 C 0 km/h
1520 20-12-2009 16:06:02 -4.3 C 2.72 g/m*3 -4.3 C 0 km/h
1521 20-12-2009 16:18:03 -4 C 2.82 g/m*3 -4 C 0 km/h
1522 20-12-2009 16:30:03 -3.8 C 2.86 g/m*3 -3.8 C 0 km/h
1523 20-12-2009 16:42:02 -3.7 C 2.84 g/m*3 -3.7 C 0 km/h
1524 20-12-2009 16:54:03 -3.7 C 2.8 g/m*3 -3.7 C 0 km/h
1525 20-12-2009 17:06:02 -3.5 C 2.84 g/m*3 -3.5 C 0 km/h
Sensor: Nr:Datum:Temp:Abs-Feuchte:Windchill:Wind:
Aussen-T/F 1526 20-12-2009 17:18:02 -3.2 C 2.9 g/m*3 -3.2 C 0 km/h
1527 20-12-2009 17:30:02 -3 C 2.95 g/m*3 -3 C 0 km/h
1528 20-12-2009 17:42:02 -2.8 C 2.95 g/m*3 -2.8 C 0 km/h
1529 20-12-2009 17:54:02 -2.8 C 2.95 g/m*3 -2.8 C 0 km/h
1530 20-12-2009 18:06:02 -2.7 C 2.97 g/m*3 -2.7 C 0 km/h
1531 20-12-2009 18:18:02 -2.7 C 2.97 g/m*3 -2.7 C 0 km/h
1532 20-12-2009 18:30:02 -2.7 C 3.01 g/m*3 -2.7 C 0 km/h
1533 20-12-2009 18:42:02 -2.5 C 3.05 g/m*3 -2.5 C 0 km/h
1534 20-12-2009 18:54:02 -2.3 C 3.1 g/m*3 -2.3 C 0 km/h
1535 20-12-2009 19:06:02 -2 C 3.12 g/m*3 -2 C 0 km/h
1536 20-12-2009 19:18:01 -1.8 C 3.12 g/m*3 -1.8 C 0 km/h
1537 20-12-2009 19:30:01 -1.9 C 3.1 g/m*3 -1.9 C 0 km/h
1538 20-12-2009 19:42:02 -2 C 3.08 g/m*3 -2 C 0 km/h
1539 20-12-2009 19:54:02 -1.9 C 3.14 g/m*3 -1.9 C 0 km/h
1540 20-12-2009 20:06:02 -1.7 C 3.14 g/m*3 -1.7 C 0 km/h
1541 20-12-2009 20:18:01 -1.6 C 3.16 g/m*3 -1.6 C 0 km/h
1542 20-12-2009 20:30:01 -1.7 C 3.14 g/m*3 -1.7 C 0 km/h
1543 20-12-2009 20:42:02 -1.6 C 3.16 g/m*3 -1.6 C 0 km/h
1544 20-12-2009 20:54:02 -1.5 C 3.19 g/m*3 -1.5 C 0 km/h
1545 20-12-2009 21:06:02 -1.5 C 3.14 g/m*3 -1.5 C 0 km/h
1546 20-12-2009 21:18:01 -1.3 C 3.14 g/m*3 -1.3 C 0 km/h
1547 20-12-2009 21:30:01 -1.1 C 3.14 g/m*3 -1.1 C 0 km/h
1548 20-12-2009 21:42:02 -1.1 C 3.05 g/m*3 -1.1 C 0 km/h
1549 20-12-2009 21:54:02 -1.2 C 2.99 g/m*3 -1.2 C 0 km/h
1550 20-12-2009 22:06:02 -1.3 C 2.92 g/m*3 -1.3 C 0 km/h
Sensor: Nr:Datum:Temp:Abs-Feuchte:Windchill:Wind:
Aussen-T/F 1551 20-12-2009 22:18:02 -1.8 C 2.78 g/m*3 -1.8 C 0 km/h
1552 20-12-2009 22:30:02 -2 C 2.78 g/m*3 -2 C 0 km/h
1553 20-12-2009 22:42:02 -2.1 C 2.76 g/m*3 -2.1 C 0 km/h
1554 20-12-2009 22:54:02 -2 C 2.87 g/m*3 -2 C 0 km/h
1555 20-12-2009 23:06:01 -2 C 2.87 g/m*3 -2 C 0 km/h
1556 20-12-2009 23:18:01 -2.1 C 2.85 g/m*3 -2.1 C 0 km/h
1557 20-12-2009 23:30:01 -2.3 C 2.85 g/m*3 -2.3 C 0 km/h
1558 20-12-2009 23:42:02 -2.6 C 2.83 g/m*3 -2.6 C 0 km/h
1559 20-12-2009 23:54:02 -2.6 C 2.87 g/m*3 -2.6 C 0 km/h
1560 21-12-2009 00:06:02 -2.7 C 2.85 g/m*3 -2.7 C 0 km/h
1561 21-12-2009 00:18:02 -3.1 C 2.81 g/m*3 -3.1 C 0 km/h
1562 21-12-2009 00:30:02 -3.2 C 2.79 g/m*3 -3.2 C 0 km/h
1563 21-12-2009 00:42:02 -3.2 C 2.79 g/m*3 -3.2 C 0 km/h
1564 21-12-2009 00:54:01 -3.3 C 2.77 g/m*3 -3.3 C 0 km/h
1565 21-12-2009 01:06:02 -3.3 C 2.77 g/m*3 -3.3 C 0 km/h
1566 21-12-2009 01:18:01 -3.7 C 2.73 g/m*3 -3.7 C 0 km/h
1567 21-12-2009 01:30:01 -3.9 C 2.73 g/m*3 -3.9 C 0 km/h
1568 21-12-2009 01:42:02 -4.1 C 2.72 g/m*3 -4.1 C 0 km/h
1569 21-12-2009 01:54:02 -4.2 C 2.74 g/m*3 -4.2 C 0 km/h
1570 21-12-2009 02:06:02 -4.2 C 2.74 g/m*3 -4.2 C 0 km/h
1571 21-12-2009 02:18:01 -4.4 C 2.7 g/m*3 -4.4 C 0 km/h
1572 21-12-2009 02:30:01 -4.3 C 2.76 g/m*3 -4.3 C 0 km/h
1573 21-12-2009 02:42:02 -4.1 C 2.8 g/m*3 -4.1 C 0 km/h
1574 21-12-2009 02:55:03 -4 C 2.82 g/m*3 -4 C 0 km/h
1575 21-12-2009 03:07:03 -3.8 C 2.86 g/m*3 -3.8 C 0 km/h
Sensor: Nr:Datum:Temp:Abs-Feuchte:Windchill:Wind:
Aussen-T/F 1576 21-12-2009 03:19:04 -4 C 2.82 g/m*3 -4 C 0 km/h
1577 21-12-2009 03:31:02 -3.9 C 2.84 g/m*3 -3.9 C 0 km/h
1578 21-12-2009 03:43:02 -4 C 2.82 g/m*3 -4 C 0 km/h
1579 21-12-2009 03:55:02 -4 C 2.82 g/m*3 -4 C 0 km/h
1580 21-12-2009 04:07:02 -4 C 2.85 g/m*3 -4 C 0 km/h
1581 21-12-2009 04:19:02 -4.4 C 2.74 g/m*3 -4.4 C 0 km/h
1582 21-12-2009 04:31:02 -4.8 C 2.66 g/m*3 -4.8 C 0 km/h
1583 21-12-2009 04:43:02 -5.2 C 2.62 g/m*3 -5.2 C 0 km/h
1584 21-12-2009 04:55:02 -5.3 C 2.63 g/m*3 -5.3 C 0 km/h
1585 21-12-2009 05:07:02 -5.3 C 2.67 g/m*3 -5.3 C 0 km/h
1586 21-12-2009 05:19:02 -5.3 C 2.67 g/m*3 -5.3 C 0 km/h
1587 21-12-2009 05:31:02 -5.3 C 2.7 g/m*3 -5.3 C 0 km/h
1588 21-12-2009 05:43:02 -5.1 C 2.77 g/m*3 -5.1 C 0 km/h
1589 21-12-2009 05:55:02 -5.1 C 2.77 g/m*3 -5.1 C 0 km/h
1590 21-12-2009 06:07:02 -4.8 C 2.83 g/m*3 -4.8 C 0 km/h
1591 21-12-2009 06:19:01 -4.6 C 2.87 g/m*3 -4.6 C 0 km/h
1592 21-12-2009 06:31:02 -4.9 C 2.74 g/m*3 -4.9 C 0 km/h
1593 21-12-2009 06:43:03 -5.1 C 2.7 g/m*3 -5.1 C 0 km/h
1594 21-12-2009 06:55:02 -5 C 2.76 g/m*3 -5 C 0 km/h
1595 21-12-2009 07:07:02 -4.7 C 2.82 g/m*3 -4.7 C 0 km/h
1596 21-12-2009 07:19:01 -4.3 C 2.86 g/m*3 -4.3 C 0 km/h
1597 21-12-2009 07:31:02 -4.2 C 2.81 g/m*3 -4.2 C 0 km/h
1598 21-12-2009 07:43:02 -4.3 C 2.76 g/m*3 -4.3 C 0 km/h
1599 21-12-2009 07:55:01 -4.5 C 2.72 g/m*3 -4.5 C 0 km/h
1600 21-12-2009 08:07:02 -4.8 C 2.63 g/m*3 -4.8 C 0 km/h
Sensor: Nr:Datum:Temp:Abs-Feuchte:Windchill:Wind:
Aussen-T/F 1601 21-12-2009 08:19:02 -5.2 C 2.55 g/m*3 -5.2 C 0 km/h
1602 21-12-2009 08:31:01 -5.6 C 2.51 g/m*3 -5.6 C 0 km/h
1603 21-12-2009 08:43:01 -5.7 C 2.49 g/m*3 -5.7 C 0 km/h
1604 21-12-2009 08:55:01 -6 C 2.47 g/m*3 -6 C 0 km/h
1605 21-12-2009 09:07:01 -5.8 C 2.54 g/m*3 -5.8 C 0 km/h
1606 21-12-2009 09:19:02 -5.7 C 2.56 g/m*3 -5.7 C 0 km/h
1607 21-12-2009 09:31:01 -5.7 C 2.56 g/m*3 -5.7 C 0 km/h
1608 21-12-2009 09:43:01 -5.2 C 2.68 g/m*3 -5.2 C 0 km/h
1609 21-12-2009 09:55:02 -5.3 C 2.63 g/m*3 -5.3 C 0 km/h
1610 21-12-2009 10:07:01 -5.1 C 2.67 g/m*3 -5.1 C 0 km/h
1611 21-12-2009 10:19:01 -4.7 C 2.75 g/m*3 -4.7 C 0 km/h
1612 21-12-2009 10:31:01 -4 C 2.89 g/m*3 -4 C 0 km/h
1613 21-12-2009 10:43:01 -3.3 C 2.88 g/m*3 -3.3 C 0 km/h
1614 21-12-2009 10:55:02 -2.8 C 2.91 g/m*3 -2.8 C 0 km/h
1615 21-12-2009 11:07:02 -2.6 C 2.83 g/m*3 -2.6 C 0 km/h
1616 21-12-2009 11:19:02 -2.6 C 2.83 g/m*3 -2.6 C 0 km/h
1617 21-12-2009 11:31:02 -2.4 C 2.87 g/m*3 -2.4 C 0 km/h
1618 21-12-2009 11:43:02 -2.2 C 2.91 g/m*3 -2.2 C 0 km/h
1619 21-12-2009 11:55:02 -2.1 C 2.93 g/m*3 -2.1 C 0 km/h
1620 21-12-2009 12:07:01 -1.7 C 2.97 g/m*3 -1.7 C 0 km/h
1621 21-12-2009 12:19:01 -1.1 C 3.05 g/m*3 -1.1 C 0 km/h
1622 21-12-2009 12:31:02 -0.9 C 3.1 g/m*3 -0.9 C 0 km/h
1623 21-12-2009 12:43:02 -0.8 C 3.07 g/m*3 -0.8 C 0 km/h
1624 21-12-2009 12:55:02 -0.8 C 3.16 g/m*3 -0.8 C 0 km/h
1625 21-12-2009 13:07:01 -0.8 C 3.21 g/m*3 -0.8 C 0 km/h
Sensor: Nr:Datum:Temp:Abs-Feuchte:Windchill:Wind:
Aussen-T/F 1626 21-12-2009 13:19:02 -0.7 C 3.32 g/m*3 -0.7 C 0 km/h
1627 21-12-2009 13:31:02 -0.6 C 3.35 g/m*3 -0.6 C 0 km/h
1628 21-12-2009 13:43:02 -0.4 C 3.39 g/m*3 -0.4 C 0 km/h
1629 21-12-2009 13:55:02 -0.4 C 3.39 g/m*3 -0.4 C 0 km/h
1630 21-12-2009 14:07:02 -0.4 C 3.39 g/m*3 -0.4 C 0 km/h
1631 21-12-2009 14:19:02 -0.3 C 3.42 g/m*3 -0.3 C 0 km/h
1632 21-12-2009 14:31:02 -0.2 C 3.49 g/m*3 -0.2 C 0 km/h
1633 21-12-2009 14:43:02 -0.1 C 3.51 g/m*3 -0.1 C 0 km/h
1634 21-12-2009 14:55:01 0.1 C 3.56 g/m*3 0.1 C 0 km/h
1635 21-12-2009 15:07:02 -0.1 C 3.56 g/m*3 -0.1 C 0 km/h
1636 21-12-2009 15:19:01 -0.2 C 3.58 g/m*3 -0.2 C 0 km/h
1637 21-12-2009 15:31:01 -0.2 C 3.63 g/m*3 -0.2 C 0 km/h
1638 21-12-2009 15:43:01 -0.2 C 3.63 g/m*3 -0.2 C 0 km/h
1639 21-12-2009 15:55:01 -0.3 C 3.65 g/m*3 -0.3 C 0 km/h
1640 21-12-2009 16:07:02 -0.3 C 3.65 g/m*3 -0.3 C 0 km/h
1641 21-12-2009 16:19:01 -0.5 C 3.65 g/m*3 -0.5 C 0 km/h
1642 21-12-2009 16:31:01 -0.7 C 3.6 g/m*3 -0.7 C 0 km/h
1643 21-12-2009 16:43:01 -0.8 C 3.62 g/m*3 -0.8 C 0 km/h
1644 21-12-2009 16:55:01 -0.9 C 3.64 g/m*3 -0.9 C 0 km/h
1645 21-12-2009 17:07:02 -0.8 C 3.67 g/m*3 -0.8 C 0 km/h
1646 21-12-2009 17:19:02 -0.9 C 3.69 g/m*3 -0.9 C 0 km/h
1647 21-12-2009 17:31:01 -1 C 3.71 g/m*3 -1 C 0 km/h
1648 21-12-2009 17:43:01 -0.9 C 3.73 g/m*3 -0.9 C 0 km/h
1649 21-12-2009 17:55:01 -0.7 C 3.83 g/m*3 -0.7 C 0 km/h
1650 21-12-2009 18:07:02 -0.7 C 3.83 g/m*3 -0.7 C 0 km/h
Sensor: Nr:Datum:Temp:Abs-Feuchte:Windchill:Wind:
Aussen-T/F 1651 21-12-2009 18:19:02 -0.6 C 3.86 g/m*3 -0.6 C 0 km/h
1652 21-12-2009 18:31:01 -0.5 C 3.88 g/m*3 -0.5 C 0 km/h
1653 21-12-2009 18:43:01 -0.2 C 3.97 g/m*3 -0.2 C 0 km/h
1654 21-12-2009 18:55:02 0 C 3.97 g/m*3 0 C 0 km/h
1655 21-12-2009 19:07:01 0.2 C 3.98 g/m*3 0.2 C 0 km/h
1656 21-12-2009 19:19:02 0.3 C 3.96 g/m*3 0.3 C 0 km/h
1657 21-12-2009 19:31:01 0.5 C 4.01 g/m*3 0.5 C 0 km/h
1658 21-12-2009 19:43:01 0.5 C 4.01 g/m*3 0.5 C 0 km/h
1659 21-12-2009 19:55:02 0.5 C 4.01 g/m*3 0.5 C 0 km/h
1660 21-12-2009 20:07:02 0.5 C 4.01 g/m*3 0.5 C 0 km/h
1661 21-12-2009 20:19:02 0.6 C 4.09 g/m*3 0.6 C 0 km/h
1662 21-12-2009 20:31:03 0.5 C 4.06 g/m*3 0.5 C 0 km/h
1663 21-12-2009 20:43:03 0.6 C 4.19 g/m*3 0.6 C 0 km/h
1664 21-12-2009 20:55:02 0.7 C 4.27 g/m*3 0.7 C 0 km/h
1665 21-12-2009 21:07:01 0.7 C 4.32 g/m*3 0.7 C 0 km/h
1666 21-12-2009 21:19:02 1 C 4.41 g/m*3 1 C 0 km/h
1667 21-12-2009 21:31:02 0.8 C 4.35 g/m*3 0.8 C 0 km/h
1668 21-12-2009 21:43:02 0.7 C 4.37 g/m*3 0.7 C 0 km/h
1669 21-12-2009 21:55:02 0.7 C 4.42 g/m*3 0.7 C 0 km/h
1670 21-12-2009 22:08:02 0.6 C 4.44 g/m*3 0.6 C 0 km/h
1671 21-12-2009 22:20:02 0.7 C 4.47 g/m*3 0.7 C 0 km/h
1672 21-12-2009 22:32:02 0.6 C 4.49 g/m*3 0.6 C 0 km/h
1673 21-12-2009 22:44:02 0.7 C 4.53 g/m*3 0.7 C 0 km/h
1674 21-12-2009 22:56:02 0.8 C 4.56 g/m*3 0.8 C 0 km/h
1675 21-12-2009 23:08:02 0.6 C 4.49 g/m*3 0.6 C 0 km/h
Sensor: Nr:Datum:Temp:Abs-Feuchte:Windchill:Wind:
Aussen-T/F 1676 21-12-2009 23:20:02 0.7 C 4.53 g/m*3 0.7 C 0 km/h
1677 21-12-2009 23:32:02 0.8 C 4.56 g/m*3 0.8 C 0 km/h
1678 21-12-2009 23:44:02 0.8 C 4.56 g/m*3 0.8 C 0 km/h
1679 21-12-2009 23:56:02 0.8 C 4.56 g/m*3 0.8 C 0 km/h
1680 22-12-2009 00:08:02 0.8 C 4.56 g/m*3 0.8 C 0 km/h
1681 22-12-2009 00:20:02 0.9 C 4.54 g/m*3 0.9 C 0 km/h
1682 22-12-2009 00:32:02 1 C 4.52 g/m*3 1 C 0 km/h
1683 22-12-2009 00:44:02 1.1 C 4.55 g/m*3 1.1 C 0 km/h
1684 22-12-2009 00:56:02 1 C 4.52 g/m*3 1 C 0 km/h
1685 22-12-2009 01:08:02 1 C 4.52 g/m*3 1 C 0 km/h
1686 22-12-2009 01:20:02 1 C 4.52 g/m*3 1 C 0 km/h
1687 22-12-2009 01:32:02 1 C 4.52 g/m*3 1 C 0 km/h
1688 22-12-2009 01:44:02 1 C 4.57 g/m*3 1 C 0 km/h
1689 22-12-2009 01:56:02 1.1 C 4.6 g/m*3 1.1 C 0 km/h
1690 22-12-2009 02:08:02 1.2 C 4.63 g/m*3 1.2 C 0 km/h
1691 22-12-2009 02:20:03 1.1 C 4.6 g/m*3 1.1 C 0 km/h
1692 22-12-2009 02:32:03 1.2 C 4.63 g/m*3 1.2 C 0 km/h
1693 22-12-2009 02:44:03 1.2 C 4.63 g/m*3 1.2 C 0 km/h
1694 22-12-2009 02:56:03 1 C 4.57 g/m*3 1 C 0 km/h
1695 22-12-2009 03:08:03 0.9 C 4.59 g/m*3 0.9 C 0 km/h
1696 22-12-2009 03:20:03 1.1 C 4.65 g/m*3 1.1 C 0 km/h
1697 22-12-2009 03:32:03 1.1 C 4.65 g/m*3 1.1 C 0 km/h
1698 22-12-2009 03:44:03 0.9 C 4.64 g/m*3 0.9 C 0 km/h
1699 22-12-2009 03:56:03 1.1 C 4.7 g/m*3 1.1 C 0 km/h
1700 22-12-2009 04:08:03 1.2 C 4.79 g/m*3 1.2 C 0 km/h
Sensor: Nr:Datum:Temp:Abs-Feuchte:Windchill:Wind:
Aussen-T/F 1701 22-12-2009 04:20:03 1.3 C 4.82 g/m*3 1.3 C 0 km/h
1702 22-12-2009 04:32:03 1.6 C 4.92 g/m*3 1.6 C 0 km/h
1703 22-12-2009 04:44:03 1.5 C 4.89 g/m*3 1.5 C 0 km/h
1704 22-12-2009 04:56:03 1.5 C 4.89 g/m*3 1.5 C 0 km/h
1705 22-12-2009 05:08:03 1.7 C 4.95 g/m*3 1.7 C 0 km/h
1706 22-12-2009 05:20:03 1.6 C 4.92 g/m*3 1.6 C 0 km/h
1707 22-12-2009 05:32:03 1.6 C 4.97 g/m*3 1.6 C 0 km/h
1708 22-12-2009 05:44:03 1.6 C 4.97 g/m*3 1.6 C 0 km/h
1709 22-12-2009 05:56:03 1.8 C 5.04 g/m*3 1.8 C 0 km/h
1710 22-12-2009 06:08:03 1.8 C 5.1 g/m*3 1.8 C 0 km/h
1711 22-12-2009 06:20:03 2 C 5.17 g/m*3 2 C 0 km/h
1712 22-12-2009 06:32:04 2.3 C 5.27 g/m*3 2.3 C 0 km/h
1713 22-12-2009 06:44:04 2.5 C 5.4 g/m*3 2.5 C 0 km/h
1714 22-12-2009 06:56:04 2.5 C 5.4 g/m*3 2.5 C 0 km/h
1715 22-12-2009 07:08:02 2.5 C 5.4 g/m*3 2.5 C 0 km/h
1716 22-12-2009 07:20:02 2.6 C 5.44 g/m*3 2.6 C 0 km/h
1717 22-12-2009 07:32:01 2.8 C 5.57 g/m*3 2.8 C 0 km/h
1718 22-12-2009 07:44:01 2.8 C 5.57 g/m*3 2.8 C 0 km/h
1719 22-12-2009 07:56:02 2.7 C 5.54 g/m*3 2.7 C 0 km/h
1720 22-12-2009 08:08:01 2.7 C 5.54 g/m*3 2.7 C 0 km/h
1721 22-12-2009 08:20:02 3 C 5.65 g/m*3 3 C 0 km/h
1722 22-12-2009 08:32:02 3 C 5.65 g/m*3 3 C 0 km/h
1723 22-12-2009 08:44:02 3.1 C 5.69 g/m*3 3.1 C 0 km/h
1724 22-12-2009 08:56:02 3 C 5.65 g/m*3 3 C 0 km/h
1725 22-12-2009 09:08:02 3 C 5.65 g/m*3 3 C 0 km/h
Sensor: Nr:Datum:Temp:Abs-Feuchte:Windchill:Wind:
Aussen-T/F 1726 22-12-2009 09:20:02 3.3 C 5.76 g/m*3 3.3 C 0 km/h
1727 22-12-2009 09:32:02 3.4 C 5.8 g/m*3 3.4 C 0 km/h
1728 22-12-2009 09:44:02 3.4 C 5.8 g/m*3 3.4 C 0 km/h
1729 22-12-2009 09:56:01 3.4 C 5.8 g/m*3 3.4 C 0 km/h
1730 22-12-2009 10:08:02 3.5 C 5.84 g/m*3 3.5 C 0 km/h
1731 22-12-2009 10:20:01 3.5 C 5.84 g/m*3 3.5 C 0 km/h
1732 22-12-2009 10:32:02 3.5 C 5.84 g/m*3 3.5 C 0 km/h
1733 22-12-2009 10:44:02 3.6 C 5.88 g/m*3 3.6 C 0 km/h
1734 22-12-2009 10:56:02 3.7 C 5.92 g/m*3 3.7 C 0 km/h
1735 22-12-2009 11:08:02 3.8 C 5.96 g/m*3 3.8 C 0 km/h
1736 22-12-2009 11:20:01 3.9 C 6 g/m*3 3.9 C 0 km/h
1737 22-12-2009 11:32:02 3.8 C 5.96 g/m*3 3.8 C 0 km/h
1738 22-12-2009 11:44:02 4 C 6.04 g/m*3 4 C 0 km/h
1739 22-12-2009 11:56:02 4.3 C 6.16 g/m*3 4.3 C 0 km/h
1740 22-12-2009 12:08:02 5 C 6.46 g/m*3 5 C 0 km/h
1741 22-12-2009 12:20:01 5.6 C 6.72 g/m*3 5.6 C 0 km/h
1742 22-12-2009 12:32:02 6 C 6.9 g/m*3 6 C 0 km/h
1743 22-12-2009 12:44:02 6 C 6.9 g/m*3 6 C 0 km/h
1744 22-12-2009 12:56:02 6 C 6.68 g/m*3 6 C 0 km/h
1745 22-12-2009 13:08:02 6 C 6.46 g/m*3 6 C 0 km/h
1746 22-12-2009 13:20:02 6.2 C 6.25 g/m*3 6.2 C 0 km/h
1747 22-12-2009 13:32:02 6.3 C 6.07 g/m*3 6.3 C 0 km/h
1748 22-12-2009 13:44:02 6.1 C 5.77 g/m*3 6.1 C 0 km/h
1749 22-12-2009 13:56:01 5.9 C 5.7 g/m*3 5.9 C 0 km/h
1750 22-12-2009 14:08:02 6 C 5.52 g/m*3 6 C 0 km/h
Sensor: Nr:Datum:Temp:Abs-Feuchte:Windchill:Wind:
Aussen-T/F 1751 22-12-2009 14:20:02 5.9 C 5.34 g/m*3 5.9 C 0 km/h
1752 22-12-2009 14:32:02 5.7 C 5.05 g/m*3 5.7 C 0 km/h
1753 22-12-2009 14:44:02 5.6 C 4.95 g/m*3 5.6 C 0 km/h
1754 22-12-2009 14:56:02 5.5 C 4.92 g/m*3 5.5 C 0 km/h
1755 22-12-2009 15:08:02 5.1 C 4.86 g/m*3 5.1 C 0 km/h
1756 22-12-2009 15:20:02 5 C 4.76 g/m*3 5 C 0 km/h
1757 22-12-2009 15:32:01 4.6 C 4.7 g/m*3 4.6 C 0 km/h
1758 22-12-2009 15:44:01 4.4 C 4.7 g/m*3 4.4 C 0 km/h
1759 22-12-2009 15:56:02 4.2 C 4.64 g/m*3 4.2 C 0 km/h
1760 22-12-2009 16:08:01 3.9 C 4.61 g/m*3 3.9 C 0 km/h
1761 22-12-2009 16:20:01 3.5 C 4.55 g/m*3 3.5 C 0 km/h
1762 22-12-2009 16:32:02 3.4 C 4.64 g/m*3 3.4 C 0 km/h
1763 22-12-2009 16:44:02 3.6 C 4.64 g/m*3 3.6 C 0 km/h
1764 22-12-2009 16:56:02 3.4 C 4.64 g/m*3 3.4 C 0 km/h
1765 22-12-2009 17:08:02 3.4 C 4.64 g/m*3 3.4 C 0 km/h
1766 22-12-2009 17:20:02 3.5 C 4.55 g/m*3 3.5 C 0 km/h
1767 22-12-2009 17:32:02 3.5 C 4.49 g/m*3 3.5 C 0 km/h
1768 22-12-2009 17:44:02 3.4 C 4.46 g/m*3 3.4 C 0 km/h
1769 22-12-2009 17:56:02 3.2 C 4.4 g/m*3 3.2 C 0 km/h
1770 22-12-2009 18:08:02 3 C 4.46 g/m*3 3 C 0 km/h
1771 22-12-2009 18:20:01 2.8 C 4.52 g/m*3 2.8 C 0 km/h
1772 22-12-2009 18:32:02 2.8 C 4.58 g/m*3 2.8 C 0 km/h
1773 22-12-2009 18:44:02 2.7 C 4.54 g/m*3 2.7 C 0 km/h
1774 22-12-2009 18:56:02 2.7 C 4.6 g/m*3 2.7 C 0 km/h
1775 22-12-2009 19:08:02 2.6 C 4.57 g/m*3 2.6 C 0 km/h
Sensor: Nr:Datum:Temp:Abs-Feuchte:Windchill:Wind:
Aussen-T/F 1776 22-12-2009 19:20:02 2.5 C 4.54 g/m*3 2.5 C 0 km/h
1777 22-12-2009 19:32:02 2.6 C 4.63 g/m*3 2.6 C 0 km/h
1778 22-12-2009 19:44:03 2.4 C 4.62 g/m*3 2.4 C 0 km/h
1779 22-12-2009 19:56:02 2.2 C 4.62 g/m*3 2.2 C 0 km/h
1780 22-12-2009 20:08:02 2.2 C 4.73 g/m*3 2.2 C 0 km/h
1781 22-12-2009 20:20:02 2.1 C 4.81 g/m*3 2.1 C 0 km/h
1782 22-12-2009 20:32:02 2.1 C 4.87 g/m*3 2.1 C 0 km/h
1783 22-12-2009 20:44:02 2 C 4.83 g/m*3 2 C 0 km/h
1784 22-12-2009 20:56:01 1.9 C 4.91 g/m*3 1.9 C 0 km/h
1785 22-12-2009 21:08:01 1.7 C 4.85 g/m*3 1.7 C 0 km/h
1786 22-12-2009 21:20:01 1.6 C 4.87 g/m*3 1.6 C 0 km/h
1787 22-12-2009 21:32:01 1.5 C 4.89 g/m*3 1.5 C 0 km/h
1788 22-12-2009 21:44:01 1.4 C 4.85 g/m*3 1.4 C 0 km/h
1789 22-12-2009 21:56:01 1.3 C 4.82 g/m*3 1.3 C 0 km/h
1790 22-12-2009 22:08:01 1 C 4.72 g/m*3 1 C 0 km/h
1791 22-12-2009 22:21:02 0.8 C 4.71 g/m*3 0.8 C 0 km/h
1792 22-12-2009 22:33:02 0.8 C 4.76 g/m*3 0.8 C 0 km/h
1793 22-12-2009 22:45:02 0.8 C 4.76 g/m*3 0.8 C 0 km/h
1794 22-12-2009 22:57:02 0.8 C 4.76 g/m*3 0.8 C 0 km/h
1795 22-12-2009 23:09:02 0.7 C 4.73 g/m*3 0.7 C 0 km/h
1796 22-12-2009 23:21:02 0.5 C 4.66 g/m*3 0.5 C 0 km/h
1797 22-12-2009 23:33:02 0.4 C 4.63 g/m*3 0.4 C 0 km/h
1798 22-12-2009 23:45:02 0.4 C 4.63 g/m*3 0.4 C 0 km/h
1799 22-12-2009 23:57:02 0.4 C 4.63 g/m*3 0.4 C 0 km/h
1800 23-12-2009 00:09:02 0.4 C 4.68 g/m*3 0.4 C 0 km/h
Sensor: Nr:Datum:Temp:Abs-Feuchte:Windchill:Wind:
Aussen-T/F 1801 23-12-2009 00:21:02 0.4 C 4.68 g/m*3 0.4 C 0 km/h
1802 23-12-2009 00:33:02 0.5 C 4.71 g/m*3 0.5 C 0 km/h
1803 23-12-2009 00:45:02 0.5 C 4.71 g/m*3 0.5 C 0 km/h
1804 23-12-2009 00:57:03 0.6 C 4.8 g/m*3 0.6 C 0 km/h
1805 23-12-2009 01:09:03 0.5 C 4.76 g/m*3 0.5 C 0 km/h
1806 23-12-2009 01:21:03 0.5 C 4.76 g/m*3 0.5 C 0 km/h
1807 23-12-2009 01:33:03 0.6 C 4.8 g/m*3 0.6 C 0 km/h
1808 23-12-2009 01:45:03 0.6 C 4.8 g/m*3 0.6 C 0 km/h
1809 23-12-2009 01:57:03 0.6 C 4.8 g/m*3 0.6 C 0 km/h
1810 23-12-2009 02:09:03 0.6 C 4.8 g/m*3 0.6 C 0 km/h
1811 23-12-2009 02:21:03 0.6 C 4.8 g/m*3 0.6 C 0 km/h
1812 23-12-2009 02:33:03 0.6 C 4.8 g/m*3 0.6 C 0 km/h
1813 23-12-2009 02:45:03 0.7 C 4.83 g/m*3 0.7 C 0 km/h
1814 23-12-2009 02:57:03 0.6 C 4.8 g/m*3 0.6 C 0 km/h
1815 23-12-2009 03:09:03 0.6 C 4.8 g/m*3 0.6 C 0 km/h
1816 23-12-2009 03:21:03 0.5 C 4.76 g/m*3 0.5 C 0 km/h
1817 23-12-2009 03:33:03 0.4 C 4.73 g/m*3 0.4 C 0 km/h
1818 23-12-2009 03:45:03 0.4 C 4.73 g/m*3 0.4 C 0 km/h
1819 23-12-2009 03:57:03 0.3 C 4.7 g/m*3 0.3 C 0 km/h
1820 23-12-2009 04:09:03 0.3 C 4.7 g/m*3 0.3 C 0 km/h
1821 23-12-2009 04:21:03 0.3 C 4.7 g/m*3 0.3 C 0 km/h
1822 23-12-2009 04:33:03 0.3 C 4.7 g/m*3 0.3 C 0 km/h
1823 23-12-2009 04:45:03 0.4 C 4.73 g/m*3 0.4 C 0 km/h
1824 23-12-2009 04:57:04 0.2 C 4.67 g/m*3 0.2 C 0 km/h
1825 23-12-2009 05:09:04 0.3 C 4.7 g/m*3 0.3 C 0 km/h
Sensor: Nr:Datum:Temp:Abs-Feuchte:Windchill:Wind:
Aussen-T/F 1826 23-12-2009 05:21:04 0.3 C 4.7 g/m*3 0.3 C 0 km/h
1827 23-12-2009 05:33:04 0.3 C 4.7 g/m*3 0.3 C 0 km/h
1828 23-12-2009 05:45:04 0.3 C 4.7 g/m*3 0.3 C 0 km/h
1829 23-12-2009 05:57:04 0.3 C 4.7 g/m*3 0.3 C 0 km/h
1830 23-12-2009 06:09:04 0.1 C 4.63 g/m*3 0.1 C 0 km/h
1831 23-12-2009 06:21:04 0.1 C 4.63 g/m*3 0.1 C 0 km/h
1832 23-12-2009 06:33:03 0.2 C 4.67 g/m*3 0.2 C 0 km/h
1833 23-12-2009 06:45:02 0.3 C 4.7 g/m*3 0.3 C 0 km/h
1834 23-12-2009 06:57:02 0.3 C 4.7 g/m*3 0.3 C 0 km/h
1835 23-12-2009 07:09:02 0.3 C 4.7 g/m*3 0.3 C 0 km/h
1836 23-12-2009 07:21:02 0.1 C 4.63 g/m*3 0.1 C 0 km/h
1837 23-12-2009 07:33:02 -0.2 C 4.54 g/m*3 -0.2 C 0 km/h
1838 23-12-2009 07:45:02 -0.4 C 4.48 g/m*3 -0.4 C 0 km/h
1839 23-12-2009 07:57:02 -0.6 C 4.42 g/m*3 -0.6 C 0 km/h
1840 23-12-2009 08:09:02 -1 C 4.29 g/m*3 -1 C 0 km/h
1841 23-12-2009 08:21:02 -1.2 C 4.24 g/m*3 -1.2 C 0 km/h
1842 23-12-2009 08:33:02 -1.4 C 4.18 g/m*3 -1.4 C 0 km/h
1843 23-12-2009 08:45:01 -1.4 C 4.18 g/m*3 -1.4 C 0 km/h
1844 23-12-2009 08:57:01 -1.4 C 4.18 g/m*3 -1.4 C 0 km/h
1845 23-12-2009 09:09:01 -1.4 C 4.18 g/m*3 -1.4 C 0 km/h
1846 23-12-2009 09:21:01 -1.2 C 4.24 g/m*3 -1.2 C 0 km/h
1847 23-12-2009 09:33:01 -1 C 4.29 g/m*3 -1 C 0 km/h
1848 23-12-2009 09:45:01 -0.5 C 4.45 g/m*3 -0.5 C 0 km/h
1849 23-12-2009 09:57:01 -0.3 C 4.51 g/m*3 -0.3 C 0 km/h
1850 23-12-2009 10:09:01 0.1 C 4.63 g/m*3 0.1 C 0 km/h
Sensor: Nr:Datum:Temp:Abs-Feuchte:Windchill:Wind:
Aussen-T/F 1851 23-12-2009 10:21:02 0.2 C 4.67 g/m*3 0.2 C 0 km/h
1852 23-12-2009 10:33:01 0.2 C 4.67 g/m*3 0.2 C 0 km/h
1853 23-12-2009 10:45:02 0.5 C 4.76 g/m*3 0.5 C 0 km/h
1854 23-12-2009 10:57:02 0.8 C 4.86 g/m*3 0.8 C 0 km/h
1855 23-12-2009 11:09:02 0.8 C 4.81 g/m*3 0.8 C 0 km/h
1856 23-12-2009 11:21:03 0.9 C 4.74 g/m*3 0.9 C 0 km/h
1857 23-12-2009 11:33:02 0.9 C 4.69 g/m*3 0.9 C 0 km/h
1858 23-12-2009 11:45:02 0.5 C 4.46 g/m*3 0.5 C 0 km/h
1859 23-12-2009 11:57:02 0.4 C 4.43 g/m*3 0.4 C 0 km/h
1860 23-12-2009 12:09:02 0.4 C 4.43 g/m*3 0.4 C 0 km/h
1861 23-12-2009 12:21:02 0.9 C 4.64 g/m*3 0.9 C 0 km/h
1862 23-12-2009 12:33:02 1 C 4.62 g/m*3 1 C 0 km/h
1863 23-12-2009 12:45:02 1 C 4.62 g/m*3 1 C 0 km/h
1864 23-12-2009 12:57:02 1.1 C 4.65 g/m*3 1.1 C 0 km/h
1865 23-12-2009 13:09:01 1.5 C 4.78 g/m*3 1.5 C 0 km/h
1866 23-12-2009 13:21:02 2 C 4.89 g/m*3 2 C 0 km/h
1867 23-12-2009 13:33:02 2.3 C 4.93 g/m*3 2.3 C 0 km/h
1868 23-12-2009 13:45:02 2.5 C 5 g/m*3 2.5 C 0 km/h
1869 23-12-2009 13:57:03 2.4 C 4.97 g/m*3 2.4 C 0 km/h
1870 23-12-2009 14:09:02 1.6 C 4.65 g/m*3 1.6 C 0 km/h
1871 23-12-2009 14:21:02 2 C 4.83 g/m*3 2 C 0 km/h
1872 23-12-2009 14:33:02 2.3 C 4.93 g/m*3 2.3 C 0 km/h
1873 23-12-2009 14:45:02 2.3 C 4.93 g/m*3 2.3 C 0 km/h
1874 23-12-2009 14:57:02 1.8 C 4.77 g/m*3 1.8 C 0 km/h
1875 23-12-2009 15:09:02 1.6 C 4.76 g/m*3 1.6 C 0 km/h
Sensor: Nr:Datum:Temp:Abs-Feuchte:Windchill:Wind:
Aussen-T/F 1876 23-12-2009 15:21:01 1.3 C 4.66 g/m*3 1.3 C 0 km/h
1877 23-12-2009 15:33:02 1.2 C 4.63 g/m*3 1.2 C 0 km/h
1878 23-12-2009 15:45:02 1 C 4.62 g/m*3 1 C 0 km/h
1879 23-12-2009 15:57:02 1.1 C 4.65 g/m*3 1.1 C 0 km/h
1880 23-12-2009 16:09:02 0.8 C 4.61 g/m*3 0.8 C 0 km/h
1881 23-12-2009 16:21:02 0.5 C 4.51 g/m*3 0.5 C 0 km/h
1882 23-12-2009 16:33:02 0.4 C 4.48 g/m*3 0.4 C 0 km/h
1883 23-12-2009 16:45:02 0.2 C 4.47 g/m*3 0.2 C 0 km/h
1884 23-12-2009 16:57:02 0 C 4.41 g/m*3 0 C 0 km/h
1885 23-12-2009 17:09:01 -0.2 C 4.4 g/m*3 -0.2 C 0 km/h
1886 23-12-2009 17:21:02 -0.3 C 4.37 g/m*3 -0.3 C 0 km/h
1887 23-12-2009 17:33:01 -0.3 C 4.41 g/m*3 -0.3 C 0 km/h
1888 23-12-2009 17:45:01 -0.5 C 4.35 g/m*3 -0.5 C 0 km/h
1889 23-12-2009 17:57:01 -0.5 C 4.35 g/m*3 -0.5 C 0 km/h
1890 23-12-2009 18:09:02 -0.5 C 4.35 g/m*3 -0.5 C 0 km/h
1891 23-12-2009 18:21:01 -0.6 C 4.32 g/m*3 -0.6 C 0 km/h
1892 23-12-2009 18:33:02 -0.7 C 4.34 g/m*3 -0.7 C 0 km/h
1893 23-12-2009 18:45:02 -0.7 C 4.34 g/m*3 -0.7 C 0 km/h
1894 23-12-2009 18:57:02 -0.3 C 4.46 g/m*3 -0.3 C 0 km/h
1895 23-12-2009 19:09:02 0 C 4.6 g/m*3 0 C 0 km/h
1896 23-12-2009 19:21:02 0.2 C 4.67 g/m*3 0.2 C 0 km/h
1897 23-12-2009 19:33:02 0.2 C 4.67 g/m*3 0.2 C 0 km/h
1898 23-12-2009 19:45:02 0.3 C 4.7 g/m*3 0.3 C 0 km/h
1899 23-12-2009 19:57:02 0.3 C 4.7 g/m*3 0.3 C 0 km/h
1900 23-12-2009 20:09:02 0.5 C 4.76 g/m*3 0.5 C 0 km/h
Sensor: Nr:Datum:Temp:Abs-Feuchte:Windchill:Wind:
Aussen-T/F 1901 23-12-2009 20:21:02 0.6 C 4.8 g/m*3 0.6 C 0 km/h
1902 23-12-2009 20:33:02 0.7 C 4.83 g/m*3 0.7 C 0 km/h
1903 23-12-2009 20:45:01 0.8 C 4.86 g/m*3 0.8 C 0 km/h
1904 23-12-2009 20:57:01 1 C 4.93 g/m*3 1 C 0 km/h
1905 23-12-2009 21:09:01 1 C 4.93 g/m*3 1 C 0 km/h
1906 23-12-2009 21:21:01 1.1 C 4.96 g/m*3 1.1 C 0 km/h
1907 23-12-2009 21:33:01 1.2 C 5 g/m*3 1.2 C 0 km/h
1908 23-12-2009 21:45:01 1.2 C 5 g/m*3 1.2 C 0 km/h
1909 23-12-2009 21:57:01 1.3 C 5.03 g/m*3 1.3 C 0 km/h
1910 23-12-2009 22:09:01 1.3 C 5.03 g/m*3 1.3 C 0 km/h
1911 23-12-2009 22:21:02 1.3 C 5.03 g/m*3 1.3 C 0 km/h
1912 23-12-2009 22:33:01 1.3 C 5.03 g/m*3 1.3 C 0 km/h
1913 23-12-2009 22:45:02 1.2 C 5 g/m*3 1.2 C 0 km/h
1914 23-12-2009 22:57:02 1.1 C 4.96 g/m*3 1.1 C 0 km/h
1915 23-12-2009 23:09:02 1.1 C 4.96 g/m*3 1.1 C 0 km/h
1916 23-12-2009 23:21:02 1.1 C 4.96 g/m*3 1.1 C 0 km/h
1917 23-12-2009 23:33:02 1.2 C 5 g/m*3 1.2 C 0 km/h
1918 23-12-2009 23:45:02 1.2 C 5 g/m*3 1.2 C 0 km/h
1919 23-12-2009 23:57:02 1.2 C 5 g/m*3 1.2 C 0 km/h
1920 24-12-2009 00:09:01 1.2 C 5 g/m*3 1.2 C 0 km/h
1921 24-12-2009 00:21:02 1.2 C 5 g/m*3 1.2 C 0 km/h
1922 24-12-2009 00:34:03 1.1 C 4.96 g/m*3 1.1 C 0 km/h
1923 24-12-2009 00:46:03 1.2 C 5 g/m*3 1.2 C 0 km/h
1924 24-12-2009 00:58:03 1.2 C 5 g/m*3 1.2 C 0 km/h
1925 24-12-2009 01:10:03 1.1 C 4.91 g/m*3 1.1 C 0 km/h
Sensor: Nr:Datum:Temp:Abs-Feuchte:Windchill:Wind:
Aussen-T/F 1926 24-12-2009 01:22:03 1.1 C 4.91 g/m*3 1.1 C 0 km/h
1927 24-12-2009 01:34:04 1.2 C 4.95 g/m*3 1.2 C 0 km/h
1928 24-12-2009 01:46:04 1.2 C 4.95 g/m*3 1.2 C 0 km/h
1929 24-12-2009 01:58:04 1.1 C 4.91 g/m*3 1.1 C 0 km/h
1930 24-12-2009 02:10:04 1 C 4.88 g/m*3 1 C 0 km/h
1931 24-12-2009 02:22:04 0.9 C 4.85 g/m*3 0.9 C 0 km/h
1932 24-12-2009 02:34:04 1 C 4.88 g/m*3 1 C 0 km/h
1933 24-12-2009 02:46:04 0.9 C 4.9 g/m*3 0.9 C 0 km/h
1934 24-12-2009 02:58:04 0.6 C 4.75 g/m*3 0.6 C 0 km/h
1935 24-12-2009 03:10:04 0.6 C 4.8 g/m*3 0.6 C 0 km/h
1936 24-12-2009 03:22:04 0.7 C 4.83 g/m*3 0.7 C 0 km/h
1937 24-12-2009 03:34:04 0.8 C 4.86 g/m*3 0.8 C 0 km/h
1938 24-12-2009 03:46:04 0.9 C 4.9 g/m*3 0.9 C 0 km/h
1939 24-12-2009 03:58:04 1 C 4.93 g/m*3 1 C 0 km/h
1940 24-12-2009 04:10:04 1.1 C 4.96 g/m*3 1.1 C 0 km/h
1941 24-12-2009 04:22:04 1.1 C 4.96 g/m*3 1.1 C 0 km/h
1942 24-12-2009 04:34:04 1.2 C 5 g/m*3 1.2 C 0 km/h
1943 24-12-2009 04:46:04 1.2 C 5 g/m*3 1.2 C 0 km/h
1944 24-12-2009 04:58:04 1.3 C 5.03 g/m*3 1.3 C 0 km/h
1945 24-12-2009 05:10:04 1.3 C 5.03 g/m*3 1.3 C 0 km/h
1946 24-12-2009 05:22:04 1.4 C 5.07 g/m*3 1.4 C 0 km/h
1947 24-12-2009 05:34:04 1.3 C 5.03 g/m*3 1.3 C 0 km/h
1948 24-12-2009 05:46:05 1.3 C 5.03 g/m*3 1.3 C 0 km/h
1949 24-12-2009 05:58:05 1.4 C 5.01 g/m*3 1.4 C 0 km/h
1950 24-12-2009 06:10:05 1.3 C 4.98 g/m*3 1.3 C 0 km/h
Sensor: Nr:Datum:Temp:Abs-Feuchte:Windchill:Wind:
Aussen-T/F 1951 24-12-2009 06:22:05 1.2 C 4.95 g/m*3 1.2 C 0 km/h
1952 24-12-2009 06:34:05 1.3 C 4.98 g/m*3 1.3 C 0 km/h
1953 24-12-2009 06:46:05 1.3 C 4.98 g/m*3 1.3 C 0 km/h
1954 24-12-2009 06:58:05 1.3 C 4.98 g/m*3 1.3 C 0 km/h
1955 24-12-2009 07:10:05 1.4 C 5.01 g/m*3 1.4 C 0 km/h
1956 24-12-2009 07:22:05 1.4 C 5.01 g/m*3 1.4 C 0 km/h
1957 24-12-2009 07:34:05 1.4 C 5.01 g/m*3 1.4 C 0 km/h
1958 24-12-2009 07:46:05 1.4 C 5.01 g/m*3 1.4 C 0 km/h
1959 24-12-2009 07:58:05 1.4 C 5.01 g/m*3 1.4 C 0 km/h
1960 24-12-2009 08:10:05 1.5 C 5.05 g/m*3 1.5 C 0 km/h
1961 24-12-2009 08:22:05 1.6 C 5.08 g/m*3 1.6 C 0 km/h
1962 24-12-2009 08:34:05 1.6 C 5.08 g/m*3 1.6 C 0 km/h
1963 24-12-2009 08:46:05 1.6 C 5.08 g/m*3 1.6 C 0 km/h
1964 24-12-2009 08:58:05 1.7 C 5.12 g/m*3 1.7 C 0 km/h
1965 24-12-2009 09:10:05 1.7 C 5.12 g/m*3 1.7 C 0 km/h
1966 24-12-2009 09:22:05 1.7 C 5.12 g/m*3 1.7 C 0 km/h
1967 24-12-2009 09:34:05 1.8 C 5.15 g/m*3 1.8 C 0 km/h
1968 24-12-2009 09:46:06 1.9 C 5.19 g/m*3 1.9 C 0 km/h
1969 24-12-2009 09:58:06 2 C 5.17 g/m*3 2 C 0 km/h
1970 24-12-2009 10:10:06 2 C 5.17 g/m*3 2 C 0 km/h
1971 24-12-2009 10:22:02 2.1 C 5.2 g/m*3 2.1 C 0 km/h
1972 24-12-2009 10:34:02 2.2 C 5.24 g/m*3 2.2 C 0 km/h
1973 24-12-2009 10:46:01 2.3 C 5.22 g/m*3 2.3 C 0 km/h
1974 24-12-2009 10:58:01 2.6 C 5.32 g/m*3 2.6 C 0 km/h
1975 24-12-2009 11:10:02 2.7 C 5.36 g/m*3 2.7 C 0 km/h
Sensor: Nr:Datum:Temp:Abs-Feuchte:Windchill:Wind:
Aussen-T/F 1976 24-12-2009 11:22:01 2.8 C 5.34 g/m*3 2.8 C 0 km/h
1977 24-12-2009 11:34:02 3 C 5.35 g/m*3 3 C 0 km/h
1978 24-12-2009 11:46:01 3.2 C 5.42 g/m*3 3.2 C 0 km/h
1979 24-12-2009 11:58:01 3.6 C 5.57 g/m*3 3.6 C 0 km/h
1980 24-12-2009 12:10:02 3.7 C 5.55 g/m*3 3.7 C 0 km/h
1981 24-12-2009 12:22:01 4.1 C 5.57 g/m*3 4.1 C 0 km/h
1982 24-12-2009 12:34:02 4.4 C 5.62 g/m*3 4.4 C 0 km/h
1983 24-12-2009 12:46:02 4.2 C 5.22 g/m*3 4.2 C 0 km/h
1984 24-12-2009 12:58:02 4.1 C 5.06 g/m*3 4.1 C 0 km/h
1985 24-12-2009 13:10:02 4 C 5.02 g/m*3 4 C 0 km/h
1986 24-12-2009 13:22:01 4 C 5.02 g/m*3 4 C 0 km/h
1987 24-12-2009 13:34:02 4.2 C 5.09 g/m*3 4.2 C 0 km/h
1988 24-12-2009 13:46:01 4.3 C 5.06 g/m*3 4.3 C 0 km/h
1989 24-12-2009 13:58:01 4.4 C 5.03 g/m*3 4.4 C 0 km/h
1990 24-12-2009 14:10:02 4.3 C 4.99 g/m*3 4.3 C 0 km/h
1991 24-12-2009 14:22:02 4.1 C 4.93 g/m*3 4.1 C 0 km/h
1992 24-12-2009 14:34:02 4.1 C 4.99 g/m*3 4.1 C 0 km/h
1993 24-12-2009 14:46:01 4.2 C 5.09 g/m*3 4.2 C 0 km/h
1994 24-12-2009 14:58:01 4 C 5.02 g/m*3 4 C 0 km/h
1995 24-12-2009 15:10:02 3.9 C 5.05 g/m*3 3.9 C 0 km/h
1996 24-12-2009 15:22:02 3.8 C 5.08 g/m*3 3.8 C 0 km/h
1997 24-12-2009 15:34:02 3.6 C 5.08 g/m*3 3.6 C 0 km/h
1998 24-12-2009 15:46:02 3.5 C 5.1 g/m*3 3.5 C 0 km/h
1999 24-12-2009 15:58:02 3.4 C 5.07 g/m*3 3.4 C 0 km/h
2000 24-12-2009 16:10:02 3.2 C 5.06 g/m*3 3.2 C 0 km/h
Sensor: Nr:Datum:Temp:Abs-Feuchte:Windchill:Wind:
Aussen-T/F 2001 24-12-2009 16:22:02 3 C 4.99 g/m*3 3 C 0 km/h
2002 24-12-2009 16:34:01 2.8 C 5.04 g/m*3 2.8 C 0 km/h
2003 24-12-2009 16:46:02 2.7 C 5.07 g/m*3 2.7 C 0 km/h
2004 24-12-2009 16:58:02 2.5 C 5 g/m*3 2.5 C 0 km/h
2005 24-12-2009 17:10:01 2.5 C 5.06 g/m*3 2.5 C 0 km/h
2006 24-12-2009 17:22:02 2.5 C 5.12 g/m*3 2.5 C 0 km/h
2007 24-12-2009 17:34:01 2.6 C 5.15 g/m*3 2.6 C 0 km/h
2008 24-12-2009 17:46:02 2.6 C 5.21 g/m*3 2.6 C 0 km/h
2009 24-12-2009 17:58:02 2.6 C 5.21 g/m*3 2.6 C 0 km/h
2010 24-12-2009 18:10:01 2.6 C 5.21 g/m*3 2.6 C 0 km/h
2011 24-12-2009 18:22:01 2.6 C 5.27 g/m*3 2.6 C 0 km/h
2012 24-12-2009 18:34:01 2.6 C 5.27 g/m*3 2.6 C 0 km/h
2013 24-12-2009 18:46:02 2.7 C 5.3 g/m*3 2.7 C 0 km/h
2014 24-12-2009 18:58:02 2.7 C 5.3 g/m*3 2.7 C 0 km/h
2015 24-12-2009 19:10:02 2.7 C 5.36 g/m*3 2.7 C 0 km/h
2016 24-12-2009 19:22:02 2.7 C 5.36 g/m*3 2.7 C 0 km/h
2017 24-12-2009 19:34:02 2.7 C 5.36 g/m*3 2.7 C 0 km/h
2018 24-12-2009 19:46:02 2.7 C 5.36 g/m*3 2.7 C 0 km/h
2019 24-12-2009 19:58:02 2.7 C 5.36 g/m*3 2.7 C 0 km/h
2020 24-12-2009 20:10:01 2.7 C 5.36 g/m*3 2.7 C 0 km/h
2021 24-12-2009 20:22:01 2.7 C 5.36 g/m*3 2.7 C 0 km/h
2022 24-12-2009 20:34:02 2.7 C 5.36 g/m*3 2.7 C 0 km/h
2023 24-12-2009 20:46:02 2.7 C 5.36 g/m*3 2.7 C 0 km/h
2024 24-12-2009 20:58:02 2.7 C 5.36 g/m*3 2.7 C 0 km/h
2025 24-12-2009 21:10:02 2.7 C 5.36 g/m*3 2.7 C 0 km/h
Sensor: Nr:Datum:Temp:Abs-Feuchte:Windchill:Wind:
Aussen-T/F 2026 24-12-2009 21:22:02 2.6 C 5.32 g/m*3 2.6 C 0 km/h
2027 24-12-2009 21:34:02 2.6 C 5.32 g/m*3 2.6 C 0 km/h
2028 24-12-2009 21:46:01 2.6 C 5.32 g/m*3 2.6 C 0 km/h
2029 24-12-2009 21:58:01 2.6 C 5.32 g/m*3 2.6 C 0 km/h
2030 24-12-2009 22:10:02 2.6 C 5.38 g/m*3 2.6 C 0 km/h
2031 24-12-2009 22:22:01 2.6 C 5.38 g/m*3 2.6 C 0 km/h
2032 24-12-2009 22:34:02 2.7 C 5.42 g/m*3 2.7 C 0 km/h
2033 24-12-2009 22:47:01 2.7 C 5.42 g/m*3 2.7 C 0 km/h
2034 24-12-2009 22:59:01 2.7 C 5.48 g/m*3 2.7 C 0 km/h
2035 24-12-2009 23:11:01 2.7 C 5.48 g/m*3 2.7 C 0 km/h
2036 24-12-2009 23:23:01 2.8 C 5.51 g/m*3 2.8 C 0 km/h
2037 24-12-2009 23:35:01 2.8 C 5.51 g/m*3 2.8 C 0 km/h
2038 24-12-2009 23:47:01 2.9 C 5.61 g/m*3 2.9 C 0 km/h
2039 24-12-2009 23:59:01 2.9 C 5.61 g/m*3 2.9 C 0 km/h
2040 25-12-2009 00:11:01 3 C 5.59 g/m*3 3 C 0 km/h
2041 25-12-2009 00:23:02 3 C 5.59 g/m*3 3 C 0 km/h
2042 25-12-2009 00:35:02 3 C 5.65 g/m*3 3 C 0 km/h
2043 25-12-2009 00:47:02 3.1 C 5.69 g/m*3 3.1 C 0 km/h
2044 25-12-2009 00:59:02 3.1 C 5.69 g/m*3 3.1 C 0 km/h
2045 25-12-2009 01:11:02 3.1 C 5.69 g/m*3 3.1 C 0 km/h
2046 25-12-2009 01:23:02 3 C 5.65 g/m*3 3 C 0 km/h
2047 25-12-2009 01:35:02 3 C 5.65 g/m*3 3 C 0 km/h
2048 25-12-2009 01:47:02 3.1 C 5.69 g/m*3 3.1 C 0 km/h
2049 25-12-2009 01:59:02 3.1 C 5.69 g/m*3 3.1 C 0 km/h
2050 25-12-2009 02:11:02 3.2 C 5.72 g/m*3 3.2 C 0 km/h
Sensor: Nr:Datum:Temp:Abs-Feuchte:Windchill:Wind:
Aussen-T/F 2051 25-12-2009 02:23:02 3.2 C 5.72 g/m*3 3.2 C 0 km/h
2052 25-12-2009 02:35:02 3.1 C 5.69 g/m*3 3.1 C 0 km/h
2053 25-12-2009 02:47:02 3.1 C 5.69 g/m*3 3.1 C 0 km/h
2054 25-12-2009 02:59:02 3.1 C 5.69 g/m*3 3.1 C 0 km/h
2055 25-12-2009 03:11:02 3.1 C 5.69 g/m*3 3.1 C 0 km/h
2056 25-12-2009 03:23:02 3.1 C 5.69 g/m*3 3.1 C 0 km/h
2057 25-12-2009 03:35:02 3.1 C 5.69 g/m*3 3.1 C 0 km/h
2058 25-12-2009 03:47:02 3.2 C 5.72 g/m*3 3.2 C 0 km/h
2059 25-12-2009 03:59:02 3.2 C 5.72 g/m*3 3.2 C 0 km/h
2060 25-12-2009 04:11:02 3.2 C 5.72 g/m*3 3.2 C 0 km/h
2061 25-12-2009 04:23:02 3.1 C 5.69 g/m*3 3.1 C 0 km/h
2062 25-12-2009 04:35:03 3.1 C 5.69 g/m*3 3.1 C 0 km/h
2063 25-12-2009 04:47:03 3.2 C 5.72 g/m*3 3.2 C 0 km/h
2064 25-12-2009 04:59:03 3.2 C 5.72 g/m*3 3.2 C 0 km/h
2065 25-12-2009 05:11:03 3.2 C 5.72 g/m*3 3.2 C 0 km/h
2066 25-12-2009 05:23:03 3.3 C 5.76 g/m*3 3.3 C 0 km/h
2067 25-12-2009 05:35:03 3.4 C 5.8 g/m*3 3.4 C 0 km/h
2068 25-12-2009 05:47:03 3.4 C 5.8 g/m*3 3.4 C 0 km/h
2069 25-12-2009 05:59:03 3.5 C 5.84 g/m*3 3.5 C 0 km/h
2070 25-12-2009 06:11:03 3.6 C 5.88 g/m*3 3.6 C 0 km/h
2071 25-12-2009 06:23:03 3.6 C 5.88 g/m*3 3.6 C 0 km/h
2072 25-12-2009 06:35:03 3.6 C 5.88 g/m*3 3.6 C 0 km/h
2073 25-12-2009 06:47:03 3.5 C 5.84 g/m*3 3.5 C 0 km/h
2074 25-12-2009 06:59:03 6.8 C 7.27 g/m*3 6.8 C 0 km/h
2075 25-12-2009 07:11:03 7.1 C 7.41 g/m*3 7.1 C 0 km/h
Sensor: Nr:Datum:Temp:Abs-Feuchte:Windchill:Wind:
Aussen-T/F 2076 25-12-2009 07:23:03 7.1 C 7.41 g/m*3 7.1 C 0 km/h
2077 25-12-2009 07:35:03 6.8 C 7.11 g/m*3 6.8 C 0 km/h
2078 25-12-2009 07:47:03 6.4 C 6.56 g/m*3 6.4 C 0 km/h
2079 25-12-2009 07:59:03 5.9 C 6.06 g/m*3 5.9 C 0 km/h
2080 25-12-2009 08:11:03 5.6 C 5.87 g/m*3 5.6 C 0 km/h
2081 25-12-2009 08:23:03 5.1 C 5.68 g/m*3 5.1 C 0 km/h
2082 25-12-2009 08:35:03 4.8 C 5.5 g/m*3 4.8 C 0 km/h
2083 25-12-2009 08:47:04 4.4 C 5.09 g/m*3 4.4 C 0 km/h
2084 25-12-2009 08:59:04 4.2 C 4.77 g/m*3 4.2 C 0 km/h
2085 25-12-2009 09:11:04 4.1 C 4.67 g/m*3 4.1 C 0 km/h
2086 25-12-2009 09:23:04 4 C 4.58 g/m*3 4 C 0 km/h
2087 25-12-2009 09:35:04 4 C 4.58 g/m*3 4 C 0 km/h
2088 25-12-2009 09:47:01 4 C 4.64 g/m*3 4 C 0 km/h
2089 25-12-2009 09:59:01 3.8 C 4.64 g/m*3 3.8 C 0 km/h
2090 25-12-2009 10:11:02 4 C 4.64 g/m*3 4 C 0 km/h
2091 25-12-2009 10:23:01 4.1 C 4.74 g/m*3 4.1 C 0 km/h
2092 25-12-2009 10:35:02 4.2 C 4.77 g/m*3 4.2 C 0 km/h
2093 25-12-2009 10:47:02 4.3 C 4.8 g/m*3 4.3 C 0 km/h
2094 25-12-2009 10:59:02 4.1 C 4.67 g/m*3 4.1 C 0 km/h
2095 25-12-2009 11:11:02 4.1 C 4.67 g/m*3 4.1 C 0 km/h
2096 25-12-2009 11:23:02 4.5 C 4.73 g/m*3 4.5 C 0 km/h
2097 25-12-2009 11:35:02 4.7 C 4.73 g/m*3 4.7 C 0 km/h
2098 25-12-2009 11:47:02 5 C 4.69 g/m*3 5 C 0 km/h
2099 25-12-2009 11:59:02 5.2 C 4.68 g/m*3 5.2 C 0 km/h
2100 25-12-2009 12:11:03 5.2 C 4.75 g/m*3 5.2 C 0 km/h
Sensor: Nr:Datum:Temp:Abs-Feuchte:Windchill:Wind:
Aussen-T/F 2101 25-12-2009 12:23:02 5.3 C 4.78 g/m*3 5.3 C 0 km/h
2102 25-12-2009 12:35:03 5.5 C 4.78 g/m*3 5.5 C 0 km/h
2103 25-12-2009 12:47:02 5.7 C 4.84 g/m*3 5.7 C 0 km/h
2104 25-12-2009 12:59:02 5.9 C 4.83 g/m*3 5.9 C 0 km/h
2105 25-12-2009 13:11:02 6 C 4.72 g/m*3 6 C 0 km/h
2106 25-12-2009 13:23:01 6 C 4.65 g/m*3 6 C 0 km/h
2107 25-12-2009 13:35:02 6.2 C 4.71 g/m*3 6.2 C 0 km/h
2108 25-12-2009 13:47:02 6.3 C 4.66 g/m*3 6.3 C 0 km/h
2109 25-12-2009 13:59:02 6.2 C 4.56 g/m*3 6.2 C 0 km/h
2110 25-12-2009 14:11:02 6.2 C 4.56 g/m*3 6.2 C 0 km/h
2111 25-12-2009 14:23:02 6 C 4.5 g/m*3 6 C 0 km/h
2112 25-12-2009 14:35:02 5.9 C 4.61 g/m*3 5.9 C 0 km/h
2113 25-12-2009 14:47:02 5.8 C 4.58 g/m*3 5.8 C 0 km/h
2114 25-12-2009 14:59:03 5.8 C 4.66 g/m*3 5.8 C 0 km/h
2115 25-12-2009 15:11:01 5.7 C 4.7 g/m*3 5.7 C 0 km/h
2116 25-12-2009 15:23:02 5.7 C 4.77 g/m*3 5.7 C 0 km/h
2117 25-12-2009 15:35:02 5.6 C 4.88 g/m*3 5.6 C 0 km/h
2118 25-12-2009 15:47:02 5.4 C 4.95 g/m*3 5.4 C 0 km/h
2119 25-12-2009 15:59:02 5.4 C 4.95 g/m*3 5.4 C 0 km/h
2120 25-12-2009 16:11:02 5.4 C 4.88 g/m*3 5.4 C 0 km/h
2121 25-12-2009 16:23:02 5.1 C 4.92 g/m*3 5.1 C 0 km/h
2122 25-12-2009 16:35:03 5 C 4.89 g/m*3 5 C 0 km/h
2123 25-12-2009 16:47:02 5 C 4.89 g/m*3 5 C 0 km/h
2124 25-12-2009 16:59:02 4.8 C 4.9 g/m*3 4.8 C 0 km/h
2125 25-12-2009 17:11:02 4.7 C 4.93 g/m*3 4.7 C 0 km/h
Sensor: Nr:Datum:Temp:Abs-Feuchte:Windchill:Wind:
Aussen-T/F 2126 25-12-2009 17:23:01 4.9 C 4.93 g/m*3 4.9 C 0 km/h
2127 25-12-2009 17:35:02 5 C 4.76 g/m*3 5 C 0 km/h
2128 25-12-2009 17:47:02 5 C 4.69 g/m*3 5 C 0 km/h
2129 25-12-2009 17:59:02 4.7 C 4.66 g/m*3 4.7 C 0 km/h
2130 25-12-2009 18:11:02 4.6 C 4.63 g/m*3 4.6 C 0 km/h
2131 25-12-2009 18:23:02 4.7 C 4.66 g/m*3 4.7 C 0 km/h
2132 25-12-2009 18:35:02 4.7 C 4.6 g/m*3 4.7 C 0 km/h
2133 25-12-2009 18:47:02 4.7 C 4.6 g/m*3 4.7 C 0 km/h
2134 25-12-2009 18:59:02 4.7 C 4.53 g/m*3 4.7 C 0 km/h
2135 25-12-2009 19:11:02 4.7 C 4.46 g/m*3 4.7 C 0 km/h
2136 25-12-2009 19:23:02 4.5 C 4.47 g/m*3 4.5 C 0 km/h
2137 25-12-2009 19:35:02 4.2 C 4.45 g/m*3 4.2 C 0 km/h
2138 25-12-2009 19:47:02 4.2 C 4.38 g/m*3 4.2 C 0 km/h
2139 25-12-2009 19:59:02 4.3 C 4.28 g/m*3 4.3 C 0 km/h
2140 25-12-2009 20:11:02 4.6 C 4.04 g/m*3 4.6 C 0 km/h
2141 25-12-2009 20:23:02 4.5 C 3.88 g/m*3 4.5 C 0 km/h
2142 25-12-2009 20:35:02 4.5 C 3.88 g/m*3 4.5 C 0 km/h
2143 25-12-2009 20:47:01 4.3 C 3.89 g/m*3 4.3 C 0 km/h
2144 25-12-2009 20:59:01 4.1 C 4.03 g/m*3 4.1 C 0 km/h
2145 25-12-2009 21:11:01 3.8 C 4.27 g/m*3 3.8 C 0 km/h
2146 25-12-2009 21:23:02 3.6 C 4.39 g/m*3 3.6 C 0 km/h
2147 25-12-2009 21:35:01 3.5 C 4.43 g/m*3 3.5 C 0 km/h
2148 25-12-2009 21:47:03 3.4 C 4.46 g/m*3 3.4 C 0 km/h
2149 25-12-2009 21:59:03 3.7 C 4.55 g/m*3 3.7 C 0 km/h
2150 25-12-2009 22:11:03 3.9 C 4.48 g/m*3 3.9 C 0 km/h
Sensor: Nr:Datum:Temp:Abs-Feuchte:Windchill:Wind:
Aussen-T/F 2151 25-12-2009 22:23:02 4 C 4.32 g/m*3 4 C 0 km/h
2152 25-12-2009 22:35:03 3.8 C 4.33 g/m*3 3.8 C 0 km/h
2153 25-12-2009 22:48:03 3.8 C 4.33 g/m*3 3.8 C 0 km/h
2154 25-12-2009 23:00:03 3.8 C 4.27 g/m*3 3.8 C 0 km/h
2155 25-12-2009 23:12:04 3.7 C 4.24 g/m*3 3.7 C 0 km/h
2156 25-12-2009 23:24:04 3.8 C 4.27 g/m*3 3.8 C 0 km/h
2157 25-12-2009 23:36:04 3.8 C 4.27 g/m*3 3.8 C 0 km/h
2158 25-12-2009 23:48:04 3.8 C 4.27 g/m*3 3.8 C 0 km/h
2159 26-12-2009 00:00:04 3.8 C 4.27 g/m*3 3.8 C 0 km/h
2160 26-12-2009 00:12:04 3.8 C 4.14 g/m*3 3.8 C 0 km/h
2161 26-12-2009 00:24:04 3.5 C 4 g/m*3 3.5 C 0 km/h
2162 26-12-2009 00:36:04 3.4 C 3.97 g/m*3 3.4 C 0 km/h
2163 26-12-2009 00:48:04 3 C 3.92 g/m*3 3 C 0 km/h
2164 26-12-2009 01:00:04 2.6 C 4.05 g/m*3 2.6 C 0 km/h
2165 26-12-2009 01:12:04 2.5 C 4.08 g/m*3 2.5 C 0 km/h
2166 26-12-2009 01:24:04 2.5 C 4.08 g/m*3 2.5 C 0 km/h
2167 26-12-2009 01:36:04 2.8 C 4.11 g/m*3 2.8 C 0 km/h
2168 26-12-2009 01:48:04 2.7 C 4.08 g/m*3 2.7 C 0 km/h
2169 26-12-2009 02:00:04 2.7 C 4.14 g/m*3 2.7 C 0 km/h
2170 26-12-2009 02:12:04 2.6 C 4.17 g/m*3 2.6 C 0 km/h
2171 26-12-2009 02:24:04 2.8 C 4.34 g/m*3 2.8 C 0 km/h
2172 26-12-2009 02:36:04 2.8 C 4.34 g/m*3 2.8 C 0 km/h
2173 26-12-2009 02:48:04 2.7 C 4.31 g/m*3 2.7 C 0 km/h
2174 26-12-2009 03:00:04 2.7 C 4.37 g/m*3 2.7 C 0 km/h
2175 26-12-2009 03:12:05 2.6 C 4.4 g/m*3 2.6 C 0 km/h
Sensor: Nr:Datum:Temp:Abs-Feuchte:Windchill:Wind:
Aussen-T/F 2176 26-12-2009 03:24:05 2.5 C 4.43 g/m*3 2.5 C 0 km/h
2177 26-12-2009 03:36:05 2.4 C 4.45 g/m*3 2.4 C 0 km/h
2178 26-12-2009 03:48:05 2.6 C 4.51 g/m*3 2.6 C 0 km/h
2179 26-12-2009 04:00:05 2.7 C 4.54 g/m*3 2.7 C 0 km/h
2180 26-12-2009 04:12:05 2.7 C 4.49 g/m*3 2.7 C 0 km/h
2181 26-12-2009 04:24:05 2.5 C 4.48 g/m*3 2.5 C 0 km/h
2182 26-12-2009 04:36:05 2.5 C 4.48 g/m*3 2.5 C 0 km/h
2183 26-12-2009 04:48:05 2.7 C 4.6 g/m*3 2.7 C 0 km/h
2184 26-12-2009 05:00:05 2.7 C 4.6 g/m*3 2.7 C 0 km/h
2185 26-12-2009 05:12:05 2.8 C 4.58 g/m*3 2.8 C 0 km/h
2186 26-12-2009 05:24:05 2.8 C 4.52 g/m*3 2.8 C 0 km/h
2187 26-12-2009 05:36:05 2.5 C 4.43 g/m*3 2.5 C 0 km/h
2188 26-12-2009 05:48:05 2.7 C 4.54 g/m*3 2.7 C 0 km/h
2189 26-12-2009 06:00:05 2.7 C 4.54 g/m*3 2.7 C 0 km/h
2190 26-12-2009 06:12:05 2.8 C 4.52 g/m*3 2.8 C 0 km/h
2191 26-12-2009 06:24:05 2.8 C 4.52 g/m*3 2.8 C 0 km/h
2192 26-12-2009 06:36:05 2.9 C 4.55 g/m*3 2.9 C 0 km/h
2193 26-12-2009 06:48:05 2.8 C 4.52 g/m*3 2.8 C 0 km/h
2194 26-12-2009 07:00:05 2.7 C 4.54 g/m*3 2.7 C 0 km/h
2195 26-12-2009 07:12:05 2.6 C 4.57 g/m*3 2.6 C 0 km/h
2196 26-12-2009 07:24:05 2.6 C 4.57 g/m*3 2.6 C 0 km/h
2197 26-12-2009 07:36:05 2.5 C 4.6 g/m*3 2.5 C 0 km/h
2198 26-12-2009 07:48:06 2.2 C 4.51 g/m*3 2.2 C 0 km/h
2199 26-12-2009 08:00:06 2 C 4.5 g/m*3 2 C 0 km/h
2200 26-12-2009 08:12:06 1.7 C 4.46 g/m*3 1.7 C 0 km/h
Sensor: Nr:Datum:Temp:Abs-Feuchte:Windchill:Wind:
Aussen-T/F 2201 26-12-2009 08:24:06 1.9 C 4.58 g/m*3 1.9 C 0 km/h
2202 26-12-2009 08:36:06 1.7 C 4.52 g/m*3 1.7 C 0 km/h
2203 26-12-2009 08:48:06 1.6 C 4.54 g/m*3 1.6 C 0 km/h
2204 26-12-2009 09:00:06 1.7 C 4.57 g/m*3 1.7 C 0 km/h
2205 26-12-2009 09:12:06 1.8 C 4.6 g/m*3 1.8 C 0 km/h
2206 26-12-2009 09:24:06 2.1 C 4.59 g/m*3 2.1 C 0 km/h
2207 26-12-2009 09:36:03 2.3 C 4.59 g/m*3 2.3 C 0 km/h
2208 26-12-2009 09:48:02 2.7 C 4.6 g/m*3 2.7 C 0 km/h
2209 26-12-2009 10:00:02 3 C 4.58 g/m*3 3 C 0 km/h
2210 26-12-2009 10:12:01 3.2 C 4.52 g/m*3 3.2 C 0 km/h
2211 26-12-2009 10:24:02 3.3 C 4.55 g/m*3 3.3 C 0 km/h
2212 26-12-2009 10:36:02 3.4 C 4.58 g/m*3 3.4 C 0 km/h
2213 26-12-2009 10:48:02 3.5 C 4.61 g/m*3 3.5 C 0 km/h
2214 26-12-2009 11:00:02 3.8 C 4.71 g/m*3 3.8 C 0 km/h
2215 26-12-2009 11:12:02 3.9 C 4.74 g/m*3 3.9 C 0 km/h
2216 26-12-2009 11:24:02 3.6 C 4.64 g/m*3 3.6 C 0 km/h
2217 26-12-2009 11:36:02 3.7 C 4.74 g/m*3 3.7 C 0 km/h
2218 26-12-2009 11:48:02 4 C 4.83 g/m*3 4 C 0 km/h
2219 26-12-2009 12:00:02 4.1 C 4.8 g/m*3 4.1 C 0 km/h
2220 26-12-2009 12:12:02 4.1 C 4.74 g/m*3 4.1 C 0 km/h
2221 26-12-2009 12:24:01 3.8 C 4.71 g/m*3 3.8 C 0 km/h
2222 26-12-2009 12:36:02 3.7 C 4.67 g/m*3 3.7 C 0 km/h
2223 26-12-2009 12:48:02 3.6 C 4.64 g/m*3 3.6 C 0 km/h
2224 26-12-2009 13:00:02 3.6 C 4.7 g/m*3 3.6 C 0 km/h
2225 26-12-2009 13:12:02 3.9 C 4.74 g/m*3 3.9 C 0 km/h
Sensor: Nr:Datum:Temp:Abs-Feuchte:Windchill:Wind:
Aussen-T/F 2226 26-12-2009 13:24:01 3.9 C 4.74 g/m*3 3.9 C 0 km/h
2227 26-12-2009 13:36:02 4 C 4.7 g/m*3 4 C 0 km/h
2228 26-12-2009 13:48:02 4.1 C 4.67 g/m*3 4.1 C 0 km/h
2229 26-12-2009 14:00:02 4 C 4.64 g/m*3 4 C 0 km/h
2230 26-12-2009 14:12:02 3.9 C 4.74 g/m*3 3.9 C 0 km/h
2231 26-12-2009 14:24:01 4.1 C 4.74 g/m*3 4.1 C 0 km/h
2232 26-12-2009 14:36:02 4.2 C 4.7 g/m*3 4.2 C 0 km/h
2233 26-12-2009 14:48:02 4.1 C 4.67 g/m*3 4.1 C 0 km/h
2234 26-12-2009 15:00:02 3.7 C 4.67 g/m*3 3.7 C 0 km/h
2235 26-12-2009 15:12:02 3.5 C 4.67 g/m*3 3.5 C 0 km/h
2236 26-12-2009 15:24:02 3.3 C 4.67 g/m*3 3.3 C 0 km/h
2237 26-12-2009 15:36:02 3.1 C 4.67 g/m*3 3.1 C 0 km/h
2238 26-12-2009 15:48:01 3 C 4.7 g/m*3 3 C 0 km/h
2239 26-12-2009 16:00:01 2.8 C 4.75 g/m*3 2.8 C 0 km/h
2240 26-12-2009 16:12:02 2.7 C 4.72 g/m*3 2.7 C 0 km/h
2241 26-12-2009 16:24:02 2.7 C 4.72 g/m*3 2.7 C 0 km/h
2242 26-12-2009 16:36:02 2.5 C 4.66 g/m*3 2.5 C 0 km/h
2243 26-12-2009 16:48:02 2.2 C 4.56 g/m*3 2.2 C 0 km/h
2244 26-12-2009 17:00:02 1.6 C 4.43 g/m*3 1.6 C 0 km/h
2245 26-12-2009 17:12:02 1.4 C 4.48 g/m*3 1.4 C 0 km/h
2246 26-12-2009 17:24:02 1.4 C 4.53 g/m*3 1.4 C 0 km/h
2247 26-12-2009 17:36:01 1.7 C 4.68 g/m*3 1.7 C 0 km/h
2248 26-12-2009 17:48:02 1.6 C 4.54 g/m*3 1.6 C 0 km/h
2249 26-12-2009 18:00:02 1 C 4.36 g/m*3 1 C 0 km/h
2250 26-12-2009 18:12:02 0.6 C 4.29 g/m*3 0.6 C 0 km/h
Sensor: Nr:Datum:Temp:Abs-Feuchte:Windchill:Wind:
Aussen-T/F 2251 26-12-2009 18:24:02 0.5 C 4.26 g/m*3 0.5 C 0 km/h
2252 26-12-2009 18:36:02 0.3 C 4.25 g/m*3 0.3 C 0 km/h
2253 26-12-2009 18:48:02 0.3 C 4.3 g/m*3 0.3 C 0 km/h
2254 26-12-2009 19:00:02 0.1 C 4.24 g/m*3 0.1 C 0 km/h
2255 26-12-2009 19:12:02 0.1 C 4.29 g/m*3 0.1 C 0 km/h
2256 26-12-2009 19:24:02 0.1 C 4.29 g/m*3 0.1 C 0 km/h
2257 26-12-2009 19:36:02 -0.1 C 4.23 g/m*3 -0.1 C 0 km/h
2258 26-12-2009 19:48:02 -0.3 C 4.22 g/m*3 -0.3 C 0 km/h
2259 26-12-2009 20:00:02 -0.5 C 4.17 g/m*3 -0.5 C 0 km/h
2260 26-12-2009 20:12:02 -0.7 C 4.11 g/m*3 -0.7 C 0 km/h
2261 26-12-2009 20:24:02 -0.5 C 4.17 g/m*3 -0.5 C 0 km/h
2262 26-12-2009 20:36:02 -0.4 C 4.24 g/m*3 -0.4 C 0 km/h
2263 26-12-2009 20:48:01 -0.7 C 4.15 g/m*3 -0.7 C 0 km/h
2264 26-12-2009 21:00:01 -0.8 C 4.17 g/m*3 -0.8 C 0 km/h
2265 26-12-2009 21:12:02 -0.8 C 4.17 g/m*3 -0.8 C 0 km/h
2266 26-12-2009 21:24:01 -0.8 C 4.17 g/m*3 -0.8 C 0 km/h
2267 26-12-2009 21:36:01 -0.8 C 4.17 g/m*3 -0.8 C 0 km/h
2268 26-12-2009 21:48:01 -0.8 C 4.17 g/m*3 -0.8 C 0 km/h
2269 26-12-2009 22:00:01 -0.9 C 4.14 g/m*3 -0.9 C 0 km/h
2270 26-12-2009 22:12:01 -0.9 C 4.19 g/m*3 -0.9 C 0 km/h
2271 26-12-2009 22:24:01 -1 C 4.16 g/m*3 -1 C 0 km/h
2272 26-12-2009 22:36:02 -1.1 C 4.09 g/m*3 -1.1 C 0 km/h
2273 26-12-2009 22:49:03 -1.2 C 4.06 g/m*3 -1.2 C 0 km/h
2274 26-12-2009 23:01:03 -1.1 C 4.13 g/m*3 -1.1 C 0 km/h
2275 26-12-2009 23:13:03 -1.3 C 4.07 g/m*3 -1.3 C 0 km/h
Sensor: Nr:Datum:Temp:Abs-Feuchte:Windchill:Wind:
Aussen-T/F 2276 26-12-2009 23:25:03 -1.2 C 4.1 g/m*3 -1.2 C 0 km/h
2277 26-12-2009 23:37:03 -1.4 C 4.04 g/m*3 -1.4 C 0 km/h
2278 26-12-2009 23:49:03 -1.6 C 3.99 g/m*3 -1.6 C 0 km/h
2279 27-12-2009 00:01:03 -1.6 C 3.99 g/m*3 -1.6 C 0 km/h
2280 27-12-2009 00:13:03 -1.8 C 3.93 g/m*3 -1.8 C 0 km/h
2281 27-12-2009 00:25:03 -1.8 C 3.93 g/m*3 -1.8 C 0 km/h
2282 27-12-2009 00:37:03 -1.8 C 3.93 g/m*3 -1.8 C 0 km/h
2283 27-12-2009 00:49:03 -1.9 C 3.91 g/m*3 -1.9 C 0 km/h
2284 27-12-2009 01:01:03 -1.8 C 3.93 g/m*3 -1.8 C 0 km/h
2285 27-12-2009 01:13:03 -1.9 C 3.91 g/m*3 -1.9 C 0 km/h
2286 27-12-2009 01:25:03 -2 C 3.88 g/m*3 -2 C 0 km/h
2287 27-12-2009 01:37:03 -2.3 C 3.8 g/m*3 -2.3 C 0 km/h
2288 27-12-2009 01:49:04 -2.3 C 3.8 g/m*3 -2.3 C 0 km/h
2289 27-12-2009 02:01:04 -2.3 C 3.8 g/m*3 -2.3 C 0 km/h
2290 27-12-2009 02:13:04 -2.2 C 3.87 g/m*3 -2.2 C 0 km/h
2291 27-12-2009 02:25:04 -2.1 C 3.89 g/m*3 -2.1 C 0 km/h
2292 27-12-2009 02:37:04 -2 C 3.92 g/m*3 -2 C 0 km/h
2293 27-12-2009 02:49:04 -1.9 C 3.95 g/m*3 -1.9 C 0 km/h
2294 27-12-2009 03:01:04 -2.1 C 3.89 g/m*3 -2.1 C 0 km/h
2295 27-12-2009 03:13:04 -2.2 C 3.87 g/m*3 -2.2 C 0 km/h
2296 27-12-2009 03:25:04 -2.1 C 3.89 g/m*3 -2.1 C 0 km/h
2297 27-12-2009 03:37:04 -2.3 C 3.84 g/m*3 -2.3 C 0 km/h
2298 27-12-2009 03:49:04 -2.5 C 3.78 g/m*3 -2.5 C 0 km/h
2299 27-12-2009 04:01:04 -2.6 C 3.76 g/m*3 -2.6 C 0 km/h
2300 27-12-2009 04:13:04 -2.7 C 3.73 g/m*3 -2.7 C 0 km/h
Sensor: Nr:Datum:Temp:Abs-Feuchte:Windchill:Wind:
Aussen-T/F 2301 27-12-2009 04:25:04 -2.7 C 3.73 g/m*3 -2.7 C 0 km/h
2302 27-12-2009 04:37:04 -2.8 C 3.71 g/m*3 -2.8 C 0 km/h
2303 27-12-2009 04:49:04 -2.8 C 3.71 g/m*3 -2.8 C 0 km/h
2304 27-12-2009 05:01:04 -2.7 C 3.73 g/m*3 -2.7 C 0 km/h
2305 27-12-2009 05:13:04 -2.6 C 3.8 g/m*3 -2.6 C 0 km/h
2306 27-12-2009 05:25:04 -2.8 C 3.75 g/m*3 -2.8 C 0 km/h
2307 27-12-2009 05:37:04 -2.9 C 3.72 g/m*3 -2.9 C 0 km/h
2308 27-12-2009 05:49:04 -2.8 C 3.75 g/m*3 -2.8 C 0 km/h
2309 27-12-2009 06:01:04 -2.8 C 3.75 g/m*3 -2.8 C 0 km/h
2310 27-12-2009 06:13:04 -2.9 C 3.72 g/m*3 -2.9 C 0 km/h
2311 27-12-2009 06:25:05 -2.9 C 3.72 g/m*3 -2.9 C 0 km/h
2312 27-12-2009 06:37:05 -3 C 3.69 g/m*3 -3 C 0 km/h
2313 27-12-2009 06:49:05 -3.1 C 3.67 g/m*3 -3.1 C 0 km/h
2314 27-12-2009 07:01:05 -3.1 C 3.67 g/m*3 -3.1 C 0 km/h
2315 27-12-2009 07:13:05 -3.2 C 3.64 g/m*3 -3.2 C 0 km/h
2316 27-12-2009 07:25:05 -3.1 C 3.67 g/m*3 -3.1 C 0 km/h
2317 27-12-2009 07:37:05 -3.2 C 3.64 g/m*3 -3.2 C 0 km/h
2318 27-12-2009 07:49:05 -3.2 C 3.64 g/m*3 -3.2 C 0 km/h
2319 27-12-2009 08:01:05 -3.2 C 3.64 g/m*3 -3.2 C 0 km/h
2320 27-12-2009 08:13:05 -2.9 C 3.72 g/m*3 -2.9 C 0 km/h
2321 27-12-2009 08:25:05 -2.7 C 3.77 g/m*3 -2.7 C 0 km/h
2322 27-12-2009 08:37:05 -2.5 C 3.83 g/m*3 -2.5 C 0 km/h
2323 27-12-2009 08:49:05 -2.4 C 3.89 g/m*3 -2.4 C 0 km/h
2324 27-12-2009 09:01:02 -2.3 C 3.92 g/m*3 -2.3 C 0 km/h
2325 27-12-2009 09:13:02 -2.2 C 3.95 g/m*3 -2.2 C 0 km/h
Sensor: Nr:Datum:Temp:Abs-Feuchte:Windchill:Wind:
Aussen-T/F 2326 27-12-2009 09:25:02 -1.4 C 4.18 g/m*3 -1.4 C 0 km/h
2327 27-12-2009 09:37:02 -1.1 C 4.26 g/m*3 -1.1 C 0 km/h
2328 27-12-2009 09:49:01 -0.6 C 4.42 g/m*3 -0.6 C 0 km/h
2329 27-12-2009 10:01:01 -0.4 C 4.48 g/m*3 -0.4 C 0 km/h
2330 27-12-2009 10:13:01 -0.1 C 4.57 g/m*3 -0.1 C 0 km/h
2331 27-12-2009 10:25:01 0.2 C 4.67 g/m*3 0.2 C 0 km/h
2332 27-12-2009 10:37:01 0.5 C 4.71 g/m*3 0.5 C 0 km/h
2333 27-12-2009 10:49:02 0.7 C 4.78 g/m*3 0.7 C 0 km/h
2334 27-12-2009 11:01:02 0.7 C 4.78 g/m*3 0.7 C 0 km/h
2335 27-12-2009 11:13:02 0.8 C 4.76 g/m*3 0.8 C 0 km/h
2336 27-12-2009 11:25:02 1.2 C 4.84 g/m*3 1.2 C 0 km/h
2337 27-12-2009 11:37:02 1.4 C 4.91 g/m*3 1.4 C 0 km/h
2338 27-12-2009 11:49:02 1.7 C 4.85 g/m*3 1.7 C 0 km/h
2339 27-12-2009 12:01:02 1.6 C 4.65 g/m*3 1.6 C 0 km/h
2340 27-12-2009 12:13:02 1.8 C 4.49 g/m*3 1.8 C 0 km/h
2341 27-12-2009 12:25:02 2 C 4.5 g/m*3 2 C 0 km/h
2342 27-12-2009 12:37:02 2.1 C 4.48 g/m*3 2.1 C 0 km/h
2343 27-12-2009 12:49:02 2.1 C 4.48 g/m*3 2.1 C 0 km/h
2344 27-12-2009 13:01:02 2.1 C 4.48 g/m*3 2.1 C 0 km/h
2345 27-12-2009 13:13:02 2.1 C 4.53 g/m*3 2.1 C 0 km/h
2346 27-12-2009 13:25:02 2.4 C 4.68 g/m*3 2.4 C 0 km/h
2347 27-12-2009 13:37:02 2.4 C 4.68 g/m*3 2.4 C 0 km/h
2348 27-12-2009 13:49:01 2.6 C 4.69 g/m*3 2.6 C 0 km/h
2349 27-12-2009 14:01:01 2.7 C 4.72 g/m*3 2.7 C 0 km/h
2350 27-12-2009 14:13:02 2.7 C 4.72 g/m*3 2.7 C 0 km/h
Sensor: Nr:Datum:Temp:Abs-Feuchte:Windchill:Wind:
Aussen-T/F 2351 27-12-2009 14:25:01 2.7 C 4.66 g/m*3 2.7 C 0 km/h
2352 27-12-2009 14:37:01 2.7 C 4.66 g/m*3 2.7 C 0 km/h
2353 27-12-2009 14:49:01 2.6 C 4.57 g/m*3 2.6 C 0 km/h
2354 27-12-2009 15:01:01 2.6 C 4.63 g/m*3 2.6 C 0 km/h
2355 27-12-2009 15:13:01 2.6 C 4.63 g/m*3 2.6 C 0 km/h
2356 27-12-2009 15:25:02 2.6 C 4.69 g/m*3 2.6 C 0 km/h
2357 27-12-2009 15:37:01 2.5 C 4.66 g/m*3 2.5 C 0 km/h
2358 27-12-2009 15:49:02 2.4 C 4.68 g/m*3 2.4 C 0 km/h
2359 27-12-2009 16:01:02 2.4 C 4.74 g/m*3 2.4 C 0 km/h
2360 27-12-2009 16:13:02 2.4 C 4.74 g/m*3 2.4 C 0 km/h
2361 27-12-2009 16:25:03 2.3 C 4.76 g/m*3 2.3 C 0 km/h
2362 27-12-2009 16:37:02 2.4 C 4.8 g/m*3 2.4 C 0 km/h
2363 27-12-2009 16:49:02 2.6 C 4.86 g/m*3 2.6 C 0 km/h
2364 27-12-2009 17:01:02 3.2 C 4.82 g/m*3 3.2 C 0 km/h
2365 27-12-2009 17:13:02 3.3 C 4.73 g/m*3 3.3 C 0 km/h
2366 27-12-2009 17:25:02 3.2 C 4.64 g/m*3 3.2 C 0 km/h
2367 27-12-2009 17:37:02 3.2 C 4.7 g/m*3 3.2 C 0 km/h
2368 27-12-2009 17:49:02 3.2 C 4.7 g/m*3 3.2 C 0 km/h
2369 27-12-2009 18:01:01 3.1 C 4.67 g/m*3 3.1 C 0 km/h
2370 27-12-2009 18:13:01 3.1 C 4.73 g/m*3 3.1 C 0 km/h
2371 27-12-2009 18:25:02 3.4 C 4.83 g/m*3 3.4 C 0 km/h
2372 27-12-2009 18:37:02 3.5 C 4.8 g/m*3 3.5 C 0 km/h
2373 27-12-2009 18:49:02 3.4 C 4.83 g/m*3 3.4 C 0 km/h
2374 27-12-2009 19:01:03 3.4 C 4.89 g/m*3 3.4 C 0 km/h
2375 27-12-2009 19:13:03 3.4 C 4.95 g/m*3 3.4 C 0 km/h
Sensor: Nr:Datum:Temp:Abs-Feuchte:Windchill:Wind:
Aussen-T/F 2376 27-12-2009 19:25:02 3.4 C 4.95 g/m*3 3.4 C 0 km/h
2377 27-12-2009 19:37:02 3.3 C 4.97 g/m*3 3.3 C 0 km/h
2378 27-12-2009 19:49:01 3.4 C 5.01 g/m*3 3.4 C 0 km/h
2379 27-12-2009 20:01:02 3.6 C 5.01 g/m*3 3.6 C 0 km/h
2380 27-12-2009 20:13:02 3.8 C 5.02 g/m*3 3.8 C 0 km/h
2381 27-12-2009 20:25:01 3.9 C 4.99 g/m*3 3.9 C 0 km/h
2382 27-12-2009 20:37:02 4 C 4.9 g/m*3 4 C 0 km/h
2383 27-12-2009 20:49:02 4.1 C 4.86 g/m*3 4.1 C 0 km/h
2384 27-12-2009 21:01:02 4 C 4.83 g/m*3 4 C 0 km/h
2385 27-12-2009 21:13:02 3.8 C 4.89 g/m*3 3.8 C 0 km/h
2386 27-12-2009 21:25:01 3.6 C 4.89 g/m*3 3.6 C 0 km/h
2387 27-12-2009 21:37:02 3.2 C 4.94 g/m*3 3.2 C 0 km/h
2388 27-12-2009 21:49:02 3 C 4.93 g/m*3 3 C 0 km/h
2389 27-12-2009 22:01:02 3 C 4.93 g/m*3 3 C 0 km/h
2390 27-12-2009 22:13:02 3.2 C 5 g/m*3 3.2 C 0 km/h
2391 27-12-2009 22:25:02 3.4 C 5.01 g/m*3 3.4 C 0 km/h
2392 27-12-2009 22:37:02 3.5 C 4.98 g/m*3 3.5 C 0 km/h
2393 27-12-2009 22:50:03 3.6 C 5.01 g/m*3 3.6 C 0 km/h
2394 27-12-2009 23:02:03 3.2 C 4.94 g/m*3 3.2 C 0 km/h
2395 27-12-2009 23:14:03 3.2 C 4.94 g/m*3 3.2 C 0 km/h
2396 27-12-2009 23:26:03 3.5 C 5.04 g/m*3 3.5 C 0 km/h
2397 27-12-2009 23:38:03 3.4 C 5.07 g/m*3 3.4 C 0 km/h
2398 27-12-2009 23:50:03 3.2 C 5.12 g/m*3 3.2 C 0 km/h
2399 28-12-2009 00:02:03 3.1 C 5.21 g/m*3 3.1 C 0 km/h
2400 28-12-2009 00:14:03 3 C 5.17 g/m*3 3 C 0 km/h
Sensor: Nr:Datum:Temp:Abs-Feuchte:Windchill:Wind:
Aussen-T/F 2401 28-12-2009 00:26:03 3.1 C 5.21 g/m*3 3.1 C 0 km/h
2402 28-12-2009 00:38:03 3.4 C 5.25 g/m*3 3.4 C 0 km/h
2403 28-12-2009 00:50:03 3.5 C 5.16 g/m*3 3.5 C 0 km/h
2404 28-12-2009 01:02:03 3.7 C 5.17 g/m*3 3.7 C 0 km/h
2405 28-12-2009 01:14:03 3.8 C 5.14 g/m*3 3.8 C 0 km/h
2406 28-12-2009 01:26:03 3.8 C 5.08 g/m*3 3.8 C 0 km/h
2407 28-12-2009 01:38:03 3.8 C 5.08 g/m*3 3.8 C 0 km/h
2408 28-12-2009 01:50:03 3.7 C 5.11 g/m*3 3.7 C 0 km/h
2409 28-12-2009 02:02:03 3.7 C 5.05 g/m*3 3.7 C 0 km/h
2410 28-12-2009 02:14:03 3.9 C 4.99 g/m*3 3.9 C 0 km/h
2411 28-12-2009 02:26:04 3.9 C 4.93 g/m*3 3.9 C 0 km/h
2412 28-12-2009 02:38:04 4 C 4.83 g/m*3 4 C 0 km/h
2413 28-12-2009 02:50:04 4 C 4.77 g/m*3 4 C 0 km/h
2414 28-12-2009 03:02:04 4 C 4.7 g/m*3 4 C 0 km/h
2415 28-12-2009 03:14:04 3.9 C 4.74 g/m*3 3.9 C 0 km/h
2416 28-12-2009 03:26:04 3.8 C 4.77 g/m*3 3.8 C 0 km/h
2417 28-12-2009 03:38:04 3.7 C 4.74 g/m*3 3.7 C 0 km/h
2418 28-12-2009 03:50:04 3.6 C 4.7 g/m*3 3.6 C 0 km/h
2419 28-12-2009 04:02:04 3.5 C 4.73 g/m*3 3.5 C 0 km/h
2420 28-12-2009 04:14:04 3.6 C 4.77 g/m*3 3.6 C 0 km/h
2421 28-12-2009 04:26:04 3.6 C 4.77 g/m*3 3.6 C 0 km/h
2422 28-12-2009 04:38:04 3.6 C 4.7 g/m*3 3.6 C 0 km/h
2423 28-12-2009 04:50:04 3.7 C 4.61 g/m*3 3.7 C 0 km/h
2424 28-12-2009 05:02:04 3.7 C 4.61 g/m*3 3.7 C 0 km/h
2425 28-12-2009 05:14:04 3.6 C 4.64 g/m*3 3.6 C 0 km/h
Sensor: Nr:Datum:Temp:Abs-Feuchte:Windchill:Wind:
Aussen-T/F 2426 28-12-2009 05:26:04 3.5 C 4.67 g/m*3 3.5 C 0 km/h
2427 28-12-2009 05:38:04 3.5 C 4.73 g/m*3 3.5 C 0 km/h
2428 28-12-2009 05:50:04 3.3 C 4.67 g/m*3 3.3 C 0 km/h
2429 28-12-2009 06:02:04 3.1 C 4.79 g/m*3 3.1 C 0 km/h
2430 28-12-2009 06:14:04 3.1 C 4.91 g/m*3 3.1 C 0 km/h
2431 28-12-2009 06:26:04 3.1 C 4.91 g/m*3 3.1 C 0 km/h
2432 28-12-2009 06:38:04 3.1 C 4.91 g/m*3 3.1 C 0 km/h
2433 28-12-2009 06:50:04 3.1 C 4.91 g/m*3 3.1 C 0 km/h
2434 28-12-2009 07:02:05 3.2 C 4.88 g/m*3 3.2 C 0 km/h
2435 28-12-2009 07:14:05 3.2 C 4.88 g/m*3 3.2 C 0 km/h
2436 28-12-2009 07:26:05 3.2 C 4.82 g/m*3 3.2 C 0 km/h
2437 28-12-2009 07:38:05 3.2 C 4.76 g/m*3 3.2 C 0 km/h
2438 28-12-2009 07:50:05 3.3 C 4.79 g/m*3 3.3 C 0 km/h
2439 28-12-2009 08:02:05 3.3 C 4.79 g/m*3 3.3 C 0 km/h
2440 28-12-2009 08:14:05 3.3 C 4.79 g/m*3 3.3 C 0 km/h
2441 28-12-2009 08:26:05 3.5 C 4.8 g/m*3 3.5 C 0 km/h
2442 28-12-2009 08:38:05 3.5 C 4.73 g/m*3 3.5 C 0 km/h
2443 28-12-2009 08:50:05 3.5 C 4.67 g/m*3 3.5 C 0 km/h
2444 28-12-2009 09:02:02 3.5 C 4.67 g/m*3 3.5 C 0 km/h
2445 28-12-2009 09:14:02 3.5 C 4.61 g/m*3 3.5 C 0 km/h
2446 28-12-2009 09:26:03 3.7 C 4.49 g/m*3 3.7 C 0 km/h
2447 28-12-2009 09:38:02 3.7 C 4.49 g/m*3 3.7 C 0 km/h
2448 28-12-2009 09:50:02 3.8 C 4.52 g/m*3 3.8 C 0 km/h
2449 28-12-2009 10:02:02 3.8 C 4.45 g/m*3 3.8 C 0 km/h
2450 28-12-2009 10:14:02 3.9 C 4.42 g/m*3 3.9 C 0 km/h
Sensor: Nr:Datum:Temp:Abs-Feuchte:Windchill:Wind:
Aussen-T/F 2451 28-12-2009 10:26:02 3.9 C 4.42 g/m*3 3.9 C 0 km/h
2452 28-12-2009 10:38:02 4 C 4.26 g/m*3 4 C 0 km/h
2453 28-12-2009 10:50:02 3.8 C 4.27 g/m*3 3.8 C 0 km/h
2454 28-12-2009 11:02:01 4 C 4.2 g/m*3 4 C 0 km/h
2455 28-12-2009 11:14:01 4.1 C 4.22 g/m*3 4.1 C 0 km/h
2456 28-12-2009 11:26:02 3.9 C 4.29 g/m*3 3.9 C 0 km/h
2457 28-12-2009 11:38:02 3.7 C 4.36 g/m*3 3.7 C 0 km/h
2458 28-12-2009 11:50:02 3.7 C 4.36 g/m*3 3.7 C 0 km/h
2459 28-12-2009 12:02:03 4.3 C 4.48 g/m*3 4.3 C 0 km/h
2460 28-12-2009 12:14:03 4.7 C 4.46 g/m*3 4.7 C 0 km/h
2461 28-12-2009 12:26:02 4.9 C 4.32 g/m*3 4.9 C 0 km/h
2462 28-12-2009 12:38:02 4.9 C 4.39 g/m*3 4.9 C 0 km/h
2463 28-12-2009 12:50:02 4.9 C 4.39 g/m*3 4.9 C 0 km/h
2464 28-12-2009 13:02:02 5 C 4.28 g/m*3 5 C 0 km/h
2465 28-12-2009 13:14:02 5 C 4.28 g/m*3 5 C 0 km/h
2466 28-12-2009 13:26:01 5 C 4.28 g/m*3 5 C 0 km/h
2467 28-12-2009 13:38:02 5.1 C 4.24 g/m*3 5.1 C 0 km/h
2468 28-12-2009 13:50:02 4.9 C 4.32 g/m*3 4.9 C 0 km/h
2469 28-12-2009 14:02:02 4.8 C 4.29 g/m*3 4.8 C 0 km/h
2470 28-12-2009 14:14:02 4.9 C 4.25 g/m*3 4.9 C 0 km/h
2471 28-12-2009 14:26:01 4.7 C 4.13 g/m*3 4.7 C 0 km/h
2472 28-12-2009 14:38:02 4.7 C 4.13 g/m*3 4.7 C 0 km/h
2473 28-12-2009 14:50:02 4.7 C 4.13 g/m*3 4.7 C 0 km/h
2474 28-12-2009 15:02:02 4.6 C 4.17 g/m*3 4.6 C 0 km/h
2475 28-12-2009 15:14:02 4.5 C 4.21 g/m*3 4.5 C 0 km/h
Sensor: Nr:Datum:Temp:Abs-Feuchte:Windchill:Wind:
Aussen-T/F 2476 28-12-2009 15:26:01 4.5 C 4.27 g/m*3 4.5 C 0 km/h
2477 28-12-2009 15:38:02 4.5 C 4.27 g/m*3 4.5 C 0 km/h
2478 28-12-2009 15:50:01 4.5 C 4.21 g/m*3 4.5 C 0 km/h
2479 28-12-2009 16:02:02 4.4 C 4.11 g/m*3 4.4 C 0 km/h
2480 28-12-2009 16:14:02 4.4 C 4.18 g/m*3 4.4 C 0 km/h
2481 28-12-2009 16:26:02 4.3 C 4.15 g/m*3 4.3 C 0 km/h
2482 28-12-2009 16:38:02 4.2 C 4.19 g/m*3 4.2 C 0 km/h
2483 28-12-2009 16:50:02 4 C 4.2 g/m*3 4 C 0 km/h
2484 28-12-2009 17:02:01 3.9 C 4.36 g/m*3 3.9 C 0 km/h
2485 28-12-2009 17:14:01 3.8 C 4.39 g/m*3 3.8 C 0 km/h
2486 28-12-2009 17:26:02 3.7 C 4.36 g/m*3 3.7 C 0 km/h
2487 28-12-2009 17:38:01 3.7 C 4.36 g/m*3 3.7 C 0 km/h
2488 28-12-2009 17:50:02 3.5 C 4.3 g/m*3 3.5 C 0 km/h
2489 28-12-2009 18:02:01 3.4 C 4.34 g/m*3 3.4 C 0 km/h
2490 28-12-2009 18:14:01 3.3 C 4.37 g/m*3 3.3 C 0 km/h
2491 28-12-2009 18:26:01 3.4 C 4.46 g/m*3 3.4 C 0 km/h
2492 28-12-2009 18:38:01 3.4 C 4.46 g/m*3 3.4 C 0 km/h
2493 28-12-2009 18:50:02 3.4 C 4.4 g/m*3 3.4 C 0 km/h
2494 28-12-2009 19:02:01 3.3 C 4.43 g/m*3 3.3 C 0 km/h
2495 28-12-2009 19:14:01 3.1 C 4.31 g/m*3 3.1 C 0 km/h
2496 28-12-2009 19:26:02 2.9 C 4.37 g/m*3 2.9 C 0 km/h
2497 28-12-2009 19:38:02 2.6 C 4.28 g/m*3 2.6 C 0 km/h
2498 28-12-2009 19:50:01 2.1 C 4.2 g/m*3 2.1 C 0 km/h
2499 28-12-2009 20:02:02 1.6 C 4.16 g/m*3 1.6 C 0 km/h
2500 28-12-2009 20:14:02 1.3 C 4.13 g/m*3 1.3 C 0 km/h
Sensor: Nr:Datum:Temp:Abs-Feuchte:Windchill:Wind:
Aussen-T/F 2501 28-12-2009 20:26:01 1 C 4.15 g/m*3 1 C 0 km/h
2502 28-12-2009 20:38:02 0.9 C 4.23 g/m*3 0.9 C 0 km/h
2503 28-12-2009 20:50:02 0.5 C 4.11 g/m*3 0.5 C 0 km/h
2504 28-12-2009 21:02:02 0.4 C 4.13 g/m*3 0.4 C 0 km/h
2505 28-12-2009 21:14:02 0.5 C 4.21 g/m*3 0.5 C 0 km/h
2506 28-12-2009 21:26:01 0.3 C 4.16 g/m*3 0.3 C 0 km/h
2507 28-12-2009 21:38:02 0.1 C 4.1 g/m*3 0.1 C 0 km/h
2508 28-12-2009 21:50:02 -0.3 C 3.99 g/m*3 -0.3 C 0 km/h
2509 28-12-2009 22:02:02 -0.4 C 3.96 g/m*3 -0.4 C 0 km/h
2510 28-12-2009 22:14:02 -0.5 C 3.93 g/m*3 -0.5 C 0 km/h
2511 28-12-2009 22:26:02 -0.7 C 3.92 g/m*3 -0.7 C 0 km/h
2512 28-12-2009 22:38:02 -0.9 C 3.87 g/m*3 -0.9 C 0 km/h
2513 28-12-2009 22:51:03 -1 C 3.84 g/m*3 -1 C 0 km/h
2514 28-12-2009 23:03:03 -1.2 C 3.79 g/m*3 -1.2 C 0 km/h
2515 28-12-2009 23:15:03 -1.2 C 3.83 g/m*3 -1.2 C 0 km/h
2516 28-12-2009 23:27:03 -1.3 C 3.85 g/m*3 -1.3 C 0 km/h
2517 28-12-2009 23:39:03 -1.3 C 3.85 g/m*3 -1.3 C 0 km/h
2518 28-12-2009 23:51:03 -1.3 C 3.85 g/m*3 -1.3 C 0 km/h
2519 29-12-2009 00:03:03 -1.8 C 3.72 g/m*3 -1.8 C 0 km/h
2520 29-12-2009 00:15:03 -1.7 C 3.75 g/m*3 -1.7 C 0 km/h
2521 29-12-2009 00:27:03 -2 C 3.67 g/m*3 -2 C 0 km/h
2522 29-12-2009 00:39:03 -2 C 3.71 g/m*3 -2 C 0 km/h
2523 29-12-2009 00:51:03 -2.2 C 3.66 g/m*3 -2.2 C 0 km/h
2524 29-12-2009 01:03:03 -2.1 C 3.68 g/m*3 -2.1 C 0 km/h
2525 29-12-2009 01:15:03 -2.1 C 3.68 g/m*3 -2.1 C 0 km/h
Sensor: Nr:Datum:Temp:Abs-Feuchte:Windchill:Wind:
Aussen-T/F 2526 29-12-2009 01:27:03 -2.1 C 3.73 g/m*3 -2.1 C 0 km/h
2527 29-12-2009 01:39:03 -2.2 C 3.66 g/m*3 -2.2 C 0 km/h
2528 29-12-2009 01:51:03 -2.1 C 3.73 g/m*3 -2.1 C 0 km/h
2529 29-12-2009 02:03:03 -2.2 C 3.7 g/m*3 -2.2 C 0 km/h
2530 29-12-2009 02:15:03 -2.3 C 3.67 g/m*3 -2.3 C 0 km/h
2531 29-12-2009 02:27:03 -2.3 C 3.67 g/m*3 -2.3 C 0 km/h
2532 29-12-2009 02:39:03 -2.3 C 3.67 g/m*3 -2.3 C 0 km/h
2533 29-12-2009 02:51:04 -2.1 C 3.77 g/m*3 -2.1 C 0 km/h
2534 29-12-2009 03:03:04 -2 C 3.79 g/m*3 -2 C 0 km/h
2535 29-12-2009 03:15:04 -2.1 C 3.77 g/m*3 -2.1 C 0 km/h
2536 29-12-2009 03:27:04 -2.2 C 3.74 g/m*3 -2.2 C 0 km/h
2537 29-12-2009 03:39:04 -2.3 C 3.71 g/m*3 -2.3 C 0 km/h
2538 29-12-2009 03:51:04 -2.2 C 3.78 g/m*3 -2.2 C 0 km/h
2539 29-12-2009 04:03:04 -2.5 C 3.66 g/m*3 -2.5 C 0 km/h
2540 29-12-2009 04:15:04 -2.5 C 3.66 g/m*3 -2.5 C 0 km/h
2541 29-12-2009 04:27:04 -2.6 C 3.68 g/m*3 -2.6 C 0 km/h
2542 29-12-2009 04:39:04 -2.6 C 3.68 g/m*3 -2.6 C 0 km/h
2543 29-12-2009 04:51:04 -2.6 C 3.68 g/m*3 -2.6 C 0 km/h
2544 29-12-2009 05:03:04 -2.8 C 3.63 g/m*3 -2.8 C 0 km/h
2545 29-12-2009 05:15:04 -2.7 C 3.65 g/m*3 -2.7 C 0 km/h
2546 29-12-2009 05:27:04 -2.7 C 3.69 g/m*3 -2.7 C 0 km/h
2547 29-12-2009 05:39:04 -2.8 C 3.67 g/m*3 -2.8 C 0 km/h
2548 29-12-2009 05:51:04 -2.9 C 3.64 g/m*3 -2.9 C 0 km/h
2549 29-12-2009 06:03:04 -2.9 C 3.64 g/m*3 -2.9 C 0 km/h
2550 29-12-2009 06:15:04 -2.9 C 3.64 g/m*3 -2.9 C 0 km/h
Sensor: Nr:Datum:Temp:Abs-Feuchte:Windchill:Wind:
Aussen-T/F 2551 29-12-2009 06:27:04 -2.6 C 3.72 g/m*3 -2.6 C 0 km/h
2552 29-12-2009 06:39:04 -2.3 C 3.84 g/m*3 -2.3 C 0 km/h
2553 29-12-2009 06:51:04 -1.9 C 3.95 g/m*3 -1.9 C 0 km/h
2554 29-12-2009 07:03:04 -1.7 C 4.05 g/m*3 -1.7 C 0 km/h
2555 29-12-2009 07:15:05 -1.6 C 4.07 g/m*3 -1.6 C 0 km/h
2556 29-12-2009 07:27:05 -1.3 C 4.16 g/m*3 -1.3 C 0 km/h
2557 29-12-2009 07:39:02 -1.2 C 4.19 g/m*3 -1.2 C 0 km/h
2558 29-12-2009 07:51:01 -1.1 C 4.22 g/m*3 -1.1 C 0 km/h
2559 29-12-2009 08:03:01 -1.2 C 4.19 g/m*3 -1.2 C 0 km/h
2560 29-12-2009 08:15:02 -1 C 4.25 g/m*3 -1 C 0 km/h
2561 29-12-2009 08:27:02 -0.9 C 4.28 g/m*3 -0.9 C 0 km/h
2562 29-12-2009 08:39:02 -0.7 C 4.34 g/m*3 -0.7 C 0 km/h
2563 29-12-2009 08:51:02 -0.5 C 4.45 g/m*3 -0.5 C 0 km/h
2564 29-12-2009 09:03:02 -0.3 C 4.51 g/m*3 -0.3 C 0 km/h
2565 29-12-2009 09:15:02 -0.1 C 4.57 g/m*3 -0.1 C 0 km/h
2566 29-12-2009 09:27:02 0.1 C 4.63 g/m*3 0.1 C 0 km/h
2567 29-12-2009 09:39:02 0.3 C 4.7 g/m*3 0.3 C 0 km/h
2568 29-12-2009 09:51:01 0.4 C 4.68 g/m*3 0.4 C 0 km/h
2569 29-12-2009 10:03:02 0.6 C 4.75 g/m*3 0.6 C 0 km/h
2570 29-12-2009 10:15:02 0.7 C 4.78 g/m*3 0.7 C 0 km/h
2571 29-12-2009 10:27:02 1 C 4.83 g/m*3 1 C 0 km/h
2572 29-12-2009 10:39:02 1.3 C 4.87 g/m*3 1.3 C 0 km/h
2573 29-12-2009 10:51:01 1.4 C 4.91 g/m*3 1.4 C 0 km/h
2574 29-12-2009 11:03:02 1.6 C 4.92 g/m*3 1.6 C 0 km/h
2575 29-12-2009 11:15:02 1.8 C 4.93 g/m*3 1.8 C 0 km/h
Sensor: Nr:Datum:Temp:Abs-Feuchte:Windchill:Wind:
Aussen-T/F 2576 29-12-2009 11:27:02 1.8 C 4.88 g/m*3 1.8 C 0 km/h
2577 29-12-2009 11:39:01 1.9 C 4.86 g/m*3 1.9 C 0 km/h
2578 29-12-2009 11:51:02 2.2 C 4.9 g/m*3 2.2 C 0 km/h
2579 29-12-2009 12:03:01 2.3 C 4.82 g/m*3 2.3 C 0 km/h
2580 29-12-2009 12:15:01 2.2 C 4.79 g/m*3 2.2 C 0 km/h
2581 29-12-2009 12:27:02 2.3 C 4.82 g/m*3 2.3 C 0 km/h
2582 29-12-2009 12:39:01 2.3 C 4.88 g/m*3 2.3 C 0 km/h
2583 29-12-2009 12:51:02 2.3 C 4.88 g/m*3 2.3 C 0 km/h
2584 29-12-2009 13:03:02 2.3 C 4.93 g/m*3 2.3 C 0 km/h
2585 29-12-2009 13:15:02 2.2 C 4.96 g/m*3 2.2 C 0 km/h
2586 29-12-2009 13:27:02 2.1 C 4.92 g/m*3 2.1 C 0 km/h
2587 29-12-2009 13:39:02 1.9 C 4.91 g/m*3 1.9 C 0 km/h
2588 29-12-2009 13:51:02 1.8 C 4.93 g/m*3 1.8 C 0 km/h
2589 29-12-2009 14:03:02 1.8 C 4.93 g/m*3 1.8 C 0 km/h
2590 29-12-2009 14:15:01 1.8 C 4.93 g/m*3 1.8 C 0 km/h
2591 29-12-2009 14:27:01 1.8 C 4.99 g/m*3 1.8 C 0 km/h
2592 29-12-2009 14:39:02 1.9 C 5.08 g/m*3 1.9 C 0 km/h
2593 29-12-2009 14:51:02 1.9 C 5.08 g/m*3 1.9 C 0 km/h
2594 29-12-2009 15:03:02 2 C 5.06 g/m*3 2 C 0 km/h
2595 29-12-2009 15:15:01 2 C 5.11 g/m*3 2 C 0 km/h
2596 29-12-2009 15:27:01 1.9 C 5.13 g/m*3 1.9 C 0 km/h
2597 29-12-2009 15:39:02 1.9 C 5.13 g/m*3 1.9 C 0 km/h
2598 29-12-2009 15:51:02 1.9 C 5.13 g/m*3 1.9 C 0 km/h
2599 29-12-2009 16:03:02 1.9 C 5.13 g/m*3 1.9 C 0 km/h
2600 29-12-2009 16:15:02 1.9 C 5.13 g/m*3 1.9 C 0 km/h
Sensor: Nr:Datum:Temp:Abs-Feuchte:Windchill:Wind:
Aussen-T/F 2601 29-12-2009 16:27:02 1.8 C 5.15 g/m*3 1.8 C 0 km/h
2602 29-12-2009 16:39:02 1.8 C 5.15 g/m*3 1.8 C 0 km/h
2603 29-12-2009 16:51:01 1.9 C 5.19 g/m*3 1.9 C 0 km/h
2604 29-12-2009 17:03:02 1.9 C 5.19 g/m*3 1.9 C 0 km/h
2605 29-12-2009 17:15:01 2 C 5.22 g/m*3 2 C 0 km/h
2606 29-12-2009 17:27:01 2 C 5.28 g/m*3 2 C 0 km/h
2607 29-12-2009 17:39:01 2.1 C 5.31 g/m*3 2.1 C 0 km/h
2608 29-12-2009 17:51:02 2.1 C 5.31 g/m*3 2.1 C 0 km/h
2609 29-12-2009 18:03:02 2.1 C 5.31 g/m*3 2.1 C 0 km/h
2610 29-12-2009 18:15:01 2.2 C 5.35 g/m*3 2.2 C 0 km/h
2611 29-12-2009 18:27:01 2.2 C 5.35 g/m*3 2.2 C 0 km/h
2612 29-12-2009 18:39:02 2.2 C 5.35 g/m*3 2.2 C 0 km/h
2613 29-12-2009 18:51:02 2.4 C 5.42 g/m*3 2.4 C 0 km/h
2614 29-12-2009 19:03:02 2.3 C 5.39 g/m*3 2.3 C 0 km/h
2615 29-12-2009 19:15:01 2.4 C 5.42 g/m*3 2.4 C 0 km/h
2616 29-12-2009 19:27:01 2.4 C 5.42 g/m*3 2.4 C 0 km/h
2617 29-12-2009 19:39:02 2.4 C 5.42 g/m*3 2.4 C 0 km/h
2618 29-12-2009 19:51:02 2.4 C 5.42 g/m*3 2.4 C 0 km/h
2619 29-12-2009 20:03:02 2.4 C 5.42 g/m*3 2.4 C 0 km/h
2620 29-12-2009 20:15:02 2.4 C 5.42 g/m*3 2.4 C 0 km/h
2621 29-12-2009 20:27:02 2.4 C 5.42 g/m*3 2.4 C 0 km/h
2622 29-12-2009 20:39:02 2.4 C 5.42 g/m*3 2.4 C 0 km/h
2623 29-12-2009 20:51:02 2.4 C 5.42 g/m*3 2.4 C 0 km/h
2624 29-12-2009 21:03:02 2.4 C 5.42 g/m*3 2.4 C 0 km/h
2625 29-12-2009 21:15:03 2.5 C 5.46 g/m*3 2.5 C 0 km/h
Sensor: Nr:Datum:Temp:Abs-Feuchte:Windchill:Wind:
Aussen-T/F 2626 29-12-2009 21:27:03 2.5 C 5.46 g/m*3 2.5 C 0 km/h
2627 29-12-2009 21:39:02 2.5 C 5.46 g/m*3 2.5 C 0 km/h
2628 29-12-2009 21:51:02 2.5 C 5.46 g/m*3 2.5 C 0 km/h
2629 29-12-2009 22:03:02 2.5 C 5.46 g/m*3 2.5 C 0 km/h
2630 29-12-2009 22:15:02 2.5 C 5.46 g/m*3 2.5 C 0 km/h
2631 29-12-2009 22:27:02 2.5 C 5.46 g/m*3 2.5 C 0 km/h
2632 29-12-2009 22:39:02 2.5 C 5.46 g/m*3 2.5 C 0 km/h
2633 29-12-2009 22:51:02 2.6 C 5.5 g/m*3 2.6 C 0 km/h
2634 29-12-2009 23:04:51 2.6 C 5.5 g/m*3 2.6 C 0 km/h
2635 29-12-2009 23:16:51 2.7 C 5.54 g/m*3 2.7 C 0 km/h
2636 29-12-2009 23:28:51 2.7 C 5.54 g/m*3 2.7 C 0 km/h
2637 29-12-2009 23:40:51 2.8 C 5.57 g/m*3 2.8 C 0 km/h
2638 29-12-2009 23:52:51 2.8 C 5.57 g/m*3 2.8 C 0 km/h
2639 30-12-2009 00:04:51 2.7 C 5.54 g/m*3 2.7 C 0 km/h
2640 30-12-2009 00:16:51 2.9 C 5.61 g/m*3 2.9 C 0 km/h
2641 30-12-2009 00:28:51 3.7 C 5.92 g/m*3 3.7 C 0 km/h
2642 30-12-2009 00:40:51 3.7 C 5.92 g/m*3 3.7 C 0 km/h
2643 30-12-2009 00:52:51 3.5 C 5.84 g/m*3 3.5 C 0 km/h
2644 30-12-2009 01:04:51 3.1 C 5.69 g/m*3 3.1 C 0 km/h
2645 30-12-2009 01:16:51 3.1 C 5.69 g/m*3 3.1 C 0 km/h
2646 30-12-2009 01:28:51 3.1 C 5.69 g/m*3 3.1 C 0 km/h
2647 30-12-2009 01:40:51 3.2 C 5.72 g/m*3 3.2 C 0 km/h
2648 30-12-2009 01:52:51 3.2 C 5.72 g/m*3 3.2 C 0 km/h
2649 30-12-2009 02:04:51 3.2 C 5.72 g/m*3 3.2 C 0 km/h
2650 30-12-2009 02:16:51 3.3 C 5.76 g/m*3 3.3 C 0 km/h
Sensor: Nr:Datum:Temp:Abs-Feuchte:Windchill:Wind:
Aussen-T/F 2651 30-12-2009 02:28:51 3.4 C 5.8 g/m*3 3.4 C 0 km/h
2652 30-12-2009 02:40:51 3.4 C 5.8 g/m*3 3.4 C 0 km/h
2653 30-12-2009 02:52:51 3.4 C 5.8 g/m*3 3.4 C 0 km/h
2654 30-12-2009 03:04:51 3.8 C 5.96 g/m*3 3.8 C 0 km/h
2655 30-12-2009 03:16:51 4 C 6.04 g/m*3 4 C 0 km/h
2656 30-12-2009 03:28:52 5.2 C 6.54 g/m*3 5.2 C 0 km/h
2657 30-12-2009 03:40:52 5.2 C 6.54 g/m*3 5.2 C 0 km/h
2658 30-12-2009 03:52:52 5.9 C 6.85 g/m*3 5.9 C 0 km/h
2659 30-12-2009 04:04:52 5.3 C 6.58 g/m*3 5.3 C 0 km/h
2660 30-12-2009 04:16:52 4.7 C 6.33 g/m*3 4.7 C 0 km/h
2661 30-12-2009 04:28:52 4.8 C 6.37 g/m*3 4.8 C 0 km/h
2662 30-12-2009 04:40:52 4.8 C 6.37 g/m*3 4.8 C 0 km/h
2663 30-12-2009 04:52:52 4.6 C 6.29 g/m*3 4.6 C 0 km/h
2664 30-12-2009 05:04:52 5.2 C 6.54 g/m*3 5.2 C 0 km/h
2665 30-12-2009 05:16:52 4.8 C 6.37 g/m*3 4.8 C 0 km/h
2666 30-12-2009 05:28:52 5.1 C 6.5 g/m*3 5.1 C 0 km/h
2667 30-12-2009 05:40:52 5.2 C 6.54 g/m*3 5.2 C 0 km/h
2668 30-12-2009 05:52:52 4.9 C 6.41 g/m*3 4.9 C 0 km/h
2669 30-12-2009 06:04:52 4.8 C 6.37 g/m*3 4.8 C 0 km/h
2670 30-12-2009 06:16:52 4.8 C 6.37 g/m*3 4.8 C 0 km/h
2671 30-12-2009 06:28:52 5.8 C 6.81 g/m*3 5.8 C 0 km/h
2672 30-12-2009 06:40:52 5.7 C 6.76 g/m*3 5.7 C 0 km/h
2673 30-12-2009 06:52:52 5.5 C 6.67 g/m*3 5.5 C 0 km/h
2674 30-12-2009 07:04:52 6.4 C 7.08 g/m*3 6.4 C 0 km/h
2675 30-12-2009 07:16:52 5.9 C 6.85 g/m*3 5.9 C 0 km/h
Sensor: Nr:Datum:Temp:Abs-Feuchte:Windchill:Wind:
Aussen-T/F 2676 30-12-2009 07:28:52 6 C 6.9 g/m*3 6 C 0 km/h
2677 30-12-2009 07:40:52 6.4 C 7.08 g/m*3 6.4 C 0 km/h
2678 30-12-2009 07:52:53 5.9 C 6.85 g/m*3 5.9 C 0 km/h
2679 30-12-2009 08:04:53 5.6 C 6.72 g/m*3 5.6 C 0 km/h
2680 30-12-2009 08:16:53 5.8 C 6.81 g/m*3 5.8 C 0 km/h
2681 30-12-2009 08:28:02 6.1 C 6.94 g/m*3 6.1 C 0 km/h
2682 30-12-2009 08:40:03 6.5 C 7.12 g/m*3 6.5 C 0 km/h
2683 30-12-2009 08:52:02 6.5 C 7.12 g/m*3 6.5 C 0 km/h
2684 30-12-2009 09:04:02 6.4 C 7.08 g/m*3 6.4 C 0 km/h
2685 30-12-2009 09:16:02 6.9 C 7.31 g/m*3 6.9 C 0 km/h
2686 30-12-2009 09:28:02 7.2 C 7.46 g/m*3 7.2 C 0 km/h
2687 30-12-2009 09:40:03 7.3 C 7.51 g/m*3 7.3 C 0 km/h
2688 30-12-2009 09:52:03 7.3 C 7.51 g/m*3 7.3 C 0 km/h
2689 30-12-2009 10:04:02 7.8 C 7.75 g/m*3 7.8 C 0 km/h
2690 30-12-2009 10:16:03 7.5 C 7.6 g/m*3 7.5 C 0 km/h
2691 30-12-2009 10:28:03 7.3 C 7.51 g/m*3 7.3 C 0 km/h
2692 30-12-2009 10:40:03 7.2 C 7.46 g/m*3 7.2 C 0 km/h
2693 30-12-2009 10:52:02 7.6 C 7.65 g/m*3 7.6 C 0 km/h
2694 30-12-2009 11:04:02 7.8 C 7.75 g/m*3 7.8 C 0 km/h
2695 30-12-2009 11:16:02 7.8 C 7.75 g/m*3 7.8 C 0 km/h
2696 30-12-2009 11:28:02 7.7 C 7.7 g/m*3 7.7 C 0 km/h
2697 30-12-2009 11:40:02 7.9 C 7.8 g/m*3 7.9 C 0 km/h
2698 30-12-2009 11:52:02 7.8 C 7.75 g/m*3 7.8 C 0 km/h
2699 30-12-2009 12:04:02 7.7 C 7.7 g/m*3 7.7 C 0 km/h
2700 30-12-2009 12:16:02 8 C 7.85 g/m*3 8 C 0 km/h
Sensor: Nr:Datum:Temp:Abs-Feuchte:Windchill:Wind:
Aussen-T/F 2701 30-12-2009 12:28:02 7.9 C 7.8 g/m*3 7.9 C 0 km/h
2702 30-12-2009 12:40:02 8.1 C 7.9 g/m*3 8.1 C 0 km/h
2703 30-12-2009 12:52:02 8.6 C 8.16 g/m*3 8.6 C 0 km/h
2704 30-12-2009 13:04:02 8.9 C 8.32 g/m*3 8.9 C 0 km/h
2705 30-12-2009 13:16:02 9.2 C 8.48 g/m*3 9.2 C 0 km/h
2706 30-12-2009 13:28:02 9.2 C 8.48 g/m*3 9.2 C 0 km/h
2707 30-12-2009 13:40:02 9.4 C 8.59 g/m*3 9.4 C 0 km/h
2708 30-12-2009 13:52:02 9.3 C 8.54 g/m*3 9.3 C 0 km/h
2709 30-12-2009 14:04:02 9.4 C 8.59 g/m*3 9.4 C 0 km/h
2710 30-12-2009 14:16:02 9.4 C 8.59 g/m*3 9.4 C 0 km/h
2711 30-12-2009 14:28:02 9.4 C 8.59 g/m*3 9.4 C 0 km/h
2712 30-12-2009 14:40:02 9.4 C 8.59 g/m*3 9.4 C 0 km/h
2713 30-12-2009 14:52:02 9.3 C 8.54 g/m*3 9.3 C 0 km/h
2714 30-12-2009 15:04:02 9.3 C 8.54 g/m*3 9.3 C 0 km/h
2715 30-12-2009 15:16:02 9.3 C 8.54 g/m*3 9.3 C 0 km/h
2716 30-12-2009 15:28:03 9.3 C 8.54 g/m*3 9.3 C 0 km/h
2717 30-12-2009 15:40:01 9.2 C 8.48 g/m*3 9.2 C 0 km/h
2718 30-12-2009 15:52:02 9.3 C 8.54 g/m*3 9.3 C 0 km/h
2719 30-12-2009 16:04:01 9.2 C 8.48 g/m*3 9.2 C 0 km/h
2720 30-12-2009 16:16:02 9.2 C 8.48 g/m*3 9.2 C 0 km/h
2721 30-12-2009 16:28:02 9.1 C 8.43 g/m*3 9.1 C 0 km/h
2722 30-12-2009 16:40:02 9 C 8.38 g/m*3 9 C 0 km/h
2723 30-12-2009 16:52:02 9 C 8.38 g/m*3 9 C 0 km/h
2724 30-12-2009 17:04:02 8.8 C 8.27 g/m*3 8.8 C 0 km/h
2725 30-12-2009 17:16:02 8.6 C 8.16 g/m*3 8.6 C 0 km/h
Sensor: Nr:Datum:Temp:Abs-Feuchte:Windchill:Wind:
Aussen-T/F 2726 30-12-2009 17:28:02 8.6 C 8.16 g/m*3 8.6 C 0 km/h
2727 30-12-2009 17:40:02 8.6 C 8.08 g/m*3 8.6 C 0 km/h
2728 30-12-2009 17:52:02 8.5 C 8.03 g/m*3 8.5 C 0 km/h
2729 30-12-2009 18:04:02 8.6 C 8.08 g/m*3 8.6 C 0 km/h
2730 30-12-2009 18:16:01 8.5 C 8.03 g/m*3 8.5 C 0 km/h
2731 30-12-2009 18:28:01 8.4 C 7.97 g/m*3 8.4 C 0 km/h
2732 30-12-2009 18:40:02 8.4 C 7.97 g/m*3 8.4 C 0 km/h
2733 30-12-2009 18:52:02 8.4 C 7.89 g/m*3 8.4 C 0 km/h
2734 30-12-2009 19:04:02 8.5 C 7.94 g/m*3 8.5 C 0 km/h
2735 30-12-2009 19:16:02 8.6 C 7.91 g/m*3 8.6 C 0 km/h
2736 30-12-2009 19:28:02 8.6 C 7.82 g/m*3 8.6 C 0 km/h
2737 30-12-2009 19:40:02 8.5 C 7.77 g/m*3 8.5 C 0 km/h
2738 30-12-2009 19:52:02 8.5 C 7.77 g/m*3 8.5 C 0 km/h
2739 30-12-2009 20:04:02 8.7 C 7.78 g/m*3 8.7 C 0 km/h
2740 30-12-2009 20:16:02 8.8 C 7.66 g/m*3 8.8 C 0 km/h
2741 30-12-2009 20:28:02 8.9 C 7.62 g/m*3 8.9 C 0 km/h
2742 30-12-2009 20:40:02 8.9 C 7.53 g/m*3 8.9 C 0 km/h
2743 30-12-2009 20:52:01 8.7 C 7.52 g/m*3 8.7 C 0 km/h
2744 30-12-2009 21:04:01 8.5 C 7.51 g/m*3 8.5 C 0 km/h
2745 30-12-2009 21:16:01 8.5 C 7.51 g/m*3 8.5 C 0 km/h
2746 30-12-2009 21:28:01 8.5 C 7.51 g/m*3 8.5 C 0 km/h
2747 30-12-2009 21:40:01 8.5 C 7.51 g/m*3 8.5 C 0 km/h
2748 30-12-2009 21:52:01 8.6 C 7.56 g/m*3 8.6 C 0 km/h
2749 30-12-2009 22:04:02 8.6 C 7.48 g/m*3 8.6 C 0 km/h
2750 30-12-2009 22:16:01 8.7 C 7.44 g/m*3 8.7 C 0 km/h
Sensor: Nr:Datum:Temp:Abs-Feuchte:Windchill:Wind:
Aussen-T/F 2751 30-12-2009 22:28:01 8.8 C 7.4 g/m*3 8.8 C 0 km/h
2752 30-12-2009 22:40:02 8.9 C 7.36 g/m*3 8.9 C 0 km/h
2753 30-12-2009 22:52:02 8.9 C 7.36 g/m*3 8.9 C 0 km/h
2754 30-12-2009 23:04:01 8.8 C 7.31 g/m*3 8.8 C 0 km/h
2755 30-12-2009 23:16:01 8.6 C 7.39 g/m*3 8.6 C 0 km/h
2756 30-12-2009 23:28:01 8.2 C 7.37 g/m*3 8.2 C 0 km/h
2757 30-12-2009 23:40:01 8 C 7.44 g/m*3 8 C 0 km/h
2758 30-12-2009 23:52:01 7.9 C 7.56 g/m*3 7.9 C 0 km/h
2759 31-12-2009 00:04:01 7.9 C 7.56 g/m*3 7.9 C 0 km/h
2760 31-12-2009 00:16:01 7.8 C 7.59 g/m*3 7.8 C 0 km/h
2761 31-12-2009 00:28:01 7.8 C 7.59 g/m*3 7.8 C 0 km/h
2762 31-12-2009 00:40:01 7.7 C 7.54 g/m*3 7.7 C 0 km/h
2763 31-12-2009 00:52:01 7.6 C 7.57 g/m*3 7.6 C 0 km/h
2764 31-12-2009 01:04:01 7.6 C 7.57 g/m*3 7.6 C 0 km/h
2765 31-12-2009 01:16:01 7.6 C 7.57 g/m*3 7.6 C 0 km/h
2766 31-12-2009 01:28:02 7.6 C 7.65 g/m*3 7.6 C 0 km/h
2767 31-12-2009 01:40:02 7.6 C 7.65 g/m*3 7.6 C 0 km/h
2768 31-12-2009 01:52:02 7.6 C 7.65 g/m*3 7.6 C 0 km/h
2769 31-12-2009 02:04:02 7.5 C 7.6 g/m*3 7.5 C 0 km/h
2770 31-12-2009 02:16:02 7.6 C 7.65 g/m*3 7.6 C 0 km/h
2771 31-12-2009 02:28:02 7.4 C 7.55 g/m*3 7.4 C 0 km/h
2772 31-12-2009 02:40:01 7.5 C 7.6 g/m*3 7.5 C 0 km/h
2773 31-12-2009 02:52:01 7.6 C 7.65 g/m*3 7.6 C 0 km/h
2774 31-12-2009 03:04:01 7.6 C 7.65 g/m*3 7.6 C 0 km/h
2775 31-12-2009 03:16:02 7.6 C 7.65 g/m*3 7.6 C 0 km/h
Sensor: Nr:Datum:Temp:Abs-Feuchte:Windchill:Wind:
Aussen-T/F 2776 31-12-2009 03:28:02 7.5 C 7.6 g/m*3 7.5 C 0 km/h
2777 31-12-2009 03:40:01 7.5 C 7.6 g/m*3 7.5 C 0 km/h
2778 31-12-2009 03:52:01 7.4 C 7.55 g/m*3 7.4 C 0 km/h
2779 31-12-2009 04:04:02 7.3 C 7.51 g/m*3 7.3 C 0 km/h
2780 31-12-2009 04:16:01 7.1 C 7.41 g/m*3 7.1 C 0 km/h
2781 31-12-2009 04:28:01 7 C 7.36 g/m*3 7 C 0 km/h
2782 31-12-2009 04:40:02 7 C 7.36 g/m*3 7 C 0 km/h
2783 31-12-2009 04:52:01 7 C 7.36 g/m*3 7 C 0 km/h
2784 31-12-2009 05:04:02 7.1 C 7.41 g/m*3 7.1 C 0 km/h
2785 31-12-2009 05:16:01 7.1 C 7.41 g/m*3 7.1 C 0 km/h
2786 31-12-2009 05:28:01 7 C 7.36 g/m*3 7 C 0 km/h
2787 31-12-2009 05:40:01 7 C 7.36 g/m*3 7 C 0 km/h
2788 31-12-2009 05:52:01 7 C 7.36 g/m*3 7 C 0 km/h
2789 31-12-2009 06:04:02 6.9 C 7.31 g/m*3 6.9 C 0 km/h
2790 31-12-2009 06:16:01 6.7 C 7.22 g/m*3 6.7 C 0 km/h
2791 31-12-2009 06:28:01 6.7 C 7.22 g/m*3 6.7 C 0 km/h
2792 31-12-2009 06:40:01 6.6 C 7.17 g/m*3 6.6 C 0 km/h
2793 31-12-2009 06:52:01 6.6 C 7.17 g/m*3 6.6 C 0 km/h
2794 31-12-2009 07:04:01 6.7 C 7.22 g/m*3 6.7 C 0 km/h
2795 31-12-2009 07:16:01 6.6 C 7.17 g/m*3 6.6 C 0 km/h
2796 31-12-2009 07:28:01 6.7 C 7.22 g/m*3 6.7 C 0 km/h
2797 31-12-2009 07:40:01 6.6 C 7.17 g/m*3 6.6 C 0 km/h
2798 31-12-2009 07:52:01 6.6 C 7.17 g/m*3 6.6 C 0 km/h
2799 31-12-2009 08:04:01 6.6 C 7.17 g/m*3 6.6 C 0 km/h
2800 31-12-2009 08:16:02 6.6 C 7.17 g/m*3 6.6 C 0 km/h
Sensor: Nr:Datum:Temp:Abs-Feuchte:Windchill:Wind:
Aussen-T/F 2801 31-12-2009 08:28:02 6.6 C 7.17 g/m*3 6.6 C 0 km/h
2802 31-12-2009 08:40:01 6.6 C 7.17 g/m*3 6.6 C 0 km/h
2803 31-12-2009 08:52:02 6.6 C 7.17 g/m*3 6.6 C 0 km/h
2804 31-12-2009 09:04:01 6.6 C 7.17 g/m*3 6.6 C 0 km/h
2805 31-12-2009 09:16:02 6.6 C 7.17 g/m*3 6.6 C 0 km/h
2806 31-12-2009 09:28:02 6.7 C 7.22 g/m*3 6.7 C 0 km/h
2807 31-12-2009 09:40:01 6.7 C 7.22 g/m*3 6.7 C 0 km/h
2808 31-12-2009 09:52:02 6.7 C 7.22 g/m*3 6.7 C 0 km/h
2809 31-12-2009 10:04:01 6.7 C 7.22 g/m*3 6.7 C 0 km/h
2810 31-12-2009 10:16:02 6.8 C 7.27 g/m*3 6.8 C 0 km/h
2811 31-12-2009 10:28:02 6.8 C 7.27 g/m*3 6.8 C 0 km/h
2812 31-12-2009 10:40:01 7 C 7.36 g/m*3 7 C 0 km/h
2813 31-12-2009 10:52:02 7.3 C 7.51 g/m*3 7.3 C 0 km/h
2814 31-12-2009 11:04:01 7.4 C 7.55 g/m*3 7.4 C 0 km/h
2815 31-12-2009 11:16:01 7.5 C 7.6 g/m*3 7.5 C 0 km/h
2816 31-12-2009 11:28:01 7.5 C 7.6 g/m*3 7.5 C 0 km/h
2817 31-12-2009 11:40:01 7.4 C 7.55 g/m*3 7.4 C 0 km/h
2818 31-12-2009 11:52:02 7.5 C 7.6 g/m*3 7.5 C 0 km/h
2819 31-12-2009 12:04:01 7.4 C 7.55 g/m*3 7.4 C 0 km/h
2820 31-12-2009 12:16:01 7.4 C 7.55 g/m*3 7.4 C 0 km/h
2821 31-12-2009 12:28:01 7.4 C 7.55 g/m*3 7.4 C 0 km/h
2822 31-12-2009 12:40:02 7.4 C 7.55 g/m*3 7.4 C 0 km/h
2823 31-12-2009 12:52:01 7.2 C 7.46 g/m*3 7.2 C 0 km/h
2824 31-12-2009 13:04:01 7.1 C 7.41 g/m*3 7.1 C 0 km/h
2825 31-12-2009 13:16:02 7 C 7.36 g/m*3 7 C 0 km/h
Sensor: Nr:Datum:Temp:Abs-Feuchte:Windchill:Wind:
Aussen-T/F 2826 31-12-2009 13:28:02 7.1 C 7.41 g/m*3 7.1 C 0 km/h
2827 31-12-2009 13:40:01 7.1 C 7.41 g/m*3 7.1 C 0 km/h
2828 31-12-2009 13:52:01 7.2 C 7.46 g/m*3 7.2 C 0 km/h
2829 31-12-2009 14:04:01 6.7 C 7.22 g/m*3 6.7 C 0 km/h
2830 31-12-2009 14:16:02 6.5 C 7.12 g/m*3 6.5 C 0 km/h
2831 31-12-2009 14:28:02 6.3 C 7.03 g/m*3 6.3 C 0 km/h
2832 31-12-2009 14:40:01 6.1 C 6.94 g/m*3 6.1 C 0 km/h
2833 31-12-2009 14:52:02 5.9 C 6.85 g/m*3 5.9 C 0 km/h
2834 31-12-2009 15:04:01 5.9 C 6.85 g/m*3 5.9 C 0 km/h
2835 31-12-2009 15:16:02 5.6 C 6.72 g/m*3 5.6 C 0 km/h
2836 31-12-2009 15:28:02 5 C 6.46 g/m*3 5 C 0 km/h
2837 31-12-2009 15:40:01 5.1 C 6.5 g/m*3 5.1 C 0 km/h
2838 31-12-2009 15:52:02 4.6 C 6.29 g/m*3 4.6 C 0 km/h
2839 31-12-2009 16:04:01 4.2 C 6.12 g/m*3 4.2 C 0 km/h
2840 31-12-2009 16:16:01 3.9 C 6 g/m*3 3.9 C 0 km/h
2841 31-12-2009 16:28:02 3.7 C 5.92 g/m*3 3.7 C 0 km/h
2842 31-12-2009 16:40:01 3.4 C 5.8 g/m*3 3.4 C 0 km/h
2843 31-12-2009 16:52:01 3.3 C 5.76 g/m*3 3.3 C 0 km/h
2844 31-12-2009 17:05:02 3.2 C 5.66 g/m*3 3.2 C 0 km/h
2845 31-12-2009 17:17:02 2.9 C 5.55 g/m*3 2.9 C 0 km/h
2846 31-12-2009 17:29:02 2.9 C 5.55 g/m*3 2.9 C 0 km/h
2847 31-12-2009 17:41:02 2.7 C 5.48 g/m*3 2.7 C 0 km/h
2848 31-12-2009 17:53:02 2.8 C 5.51 g/m*3 2.8 C 0 km/h
2849 31-12-2009 18:05:02 2.8 C 5.51 g/m*3 2.8 C 0 km/h
2850 31-12-2009 18:17:02 2.7 C 5.48 g/m*3 2.7 C 0 km/h
Sensor: Nr:Datum:Temp:Abs-Feuchte:Windchill:Wind:
Aussen-T/F 2851 31-12-2009 18:29:02 2.7 C 5.54 g/m*3 2.7 C 0 km/h
2852 31-12-2009 18:41:02 2.7 C 5.54 g/m*3 2.7 C 0 km/h
2853 31-12-2009 18:53:02 2.6 C 5.5 g/m*3 2.6 C 0 km/h
2854 31-12-2009 19:05:02 2.5 C 5.46 g/m*3 2.5 C 0 km/h
2855 31-12-2009 19:17:02 2.3 C 5.39 g/m*3 2.3 C 0 km/h
2856 31-12-2009 19:29:02 2.1 C 5.31 g/m*3 2.1 C 0 km/h
2857 31-12-2009 19:41:02 2 C 5.28 g/m*3 2 C 0 km/h
2858 31-12-2009 19:53:03 2.1 C 5.31 g/m*3 2.1 C 0 km/h
2859 31-12-2009 20:05:03 1.9 C 5.24 g/m*3 1.9 C 0 km/h
2860 31-12-2009 20:17:03 1.8 C 5.21 g/m*3 1.8 C 0 km/h
2861 31-12-2009 20:29:03 1.8 C 5.21 g/m*3 1.8 C 0 km/h
2862 31-12-2009 20:41:03 1.8 C 5.21 g/m*3 1.8 C 0 km/h
2863 31-12-2009 20:53:03 1.8 C 5.21 g/m*3 1.8 C 0 km/h
2864 31-12-2009 21:05:03 1.6 C 5.14 g/m*3 1.6 C 0 km/h
2865 31-12-2009 21:17:03 1.5 C 5.1 g/m*3 1.5 C 0 km/h
2866 31-12-2009 21:29:03 1.3 C 5.03 g/m*3 1.3 C 0 km/h
2867 31-12-2009 21:41:03 1.2 C 5 g/m*3 1.2 C 0 km/h
2868 31-12-2009 21:53:03 1.3 C 5.03 g/m*3 1.3 C 0 km/h
2869 31-12-2009 22:05:03 1.3 C 5.03 g/m*3 1.3 C 0 km/h
2870 31-12-2009 22:17:03 1.3 C 5.03 g/m*3 1.3 C 0 km/h
2871 31-12-2009 22:29:03 0.9 C 4.9 g/m*3 0.9 C 0 km/h
2872 31-12-2009 22:41:03 0.8 C 4.86 g/m*3 0.8 C 0 km/h
2873 31-12-2009 22:53:03 0.7 C 4.83 g/m*3 0.7 C 0 km/h
2874 31-12-2009 23:05:03 0.6 C 4.8 g/m*3 0.6 C 0 km/h
2875 31-12-2009 23:17:03 0.6 C 4.8 g/m*3 0.6 C 0 km/h
Sensor: Nr:Datum:Temp:Abs-Feuchte:Windchill:Wind:
Aussen-T/F 2876 31-12-2009 23:29:03 0.6 C 4.8 g/m*3 0.6 C 0 km/h
2877 31-12-2009 23:41:03 0.7 C 4.83 g/m*3 0.7 C 0 km/h
2878 31-12-2009 23:53:03 0.7 C 4.83 g/m*3 0.7 C 0 km/h
2879 01-01-2010 00:05:04 0.8 C 4.86 g/m*3 0.8 C 0 km/h
2880 01-01-2010 00:17:04 0.8 C 4.86 g/m*3 0.8 C 0 km/h
2881 01-01-2010 00:29:04 0.8 C 4.86 g/m*3 0.8 C 0 km/h
2882 01-01-2010 00:41:04 0.8 C 4.86 g/m*3 0.8 C 0 km/h
2883 01-01-2010 00:53:04 0.8 C 4.86 g/m*3 0.8 C 0 km/h
2884 01-01-2010 01:05:04 0.7 C 4.83 g/m*3 0.7 C 0 km/h
2885 01-01-2010 01:17:04 0.5 C 4.76 g/m*3 0.5 C 0 km/h
2886 01-01-2010 01:29:04 0.5 C 4.76 g/m*3 0.5 C 0 km/h
2887 01-01-2010 01:41:04 0.4 C 4.73 g/m*3 0.4 C 0 km/h
2888 01-01-2010 01:53:04 0.5 C 4.76 g/m*3 0.5 C 0 km/h
2889 01-01-2010 02:05:04 0.4 C 4.73 g/m*3 0.4 C 0 km/h
2890 01-01-2010 02:17:04 0.4 C 4.73 g/m*3 0.4 C 0 km/h
2891 01-01-2010 02:29:04 0.3 C 4.7 g/m*3 0.3 C 0 km/h
2892 01-01-2010 02:41:04 0.3 C 4.7 g/m*3 0.3 C 0 km/h
2893 01-01-2010 02:53:04 0.3 C 4.7 g/m*3 0.3 C 0 km/h
2894 01-01-2010 03:05:04 0.3 C 4.7 g/m*3 0.3 C 0 km/h
2895 01-01-2010 03:17:04 0.3 C 4.7 g/m*3 0.3 C 0 km/h
2896 01-01-2010 03:29:04 0.3 C 4.7 g/m*3 0.3 C 0 km/h
2897 01-01-2010 03:41:04 0.3 C 4.7 g/m*3 0.3 C 0 km/h
2898 01-01-2010 03:53:04 0.3 C 4.7 g/m*3 0.3 C 0 km/h
2899 01-01-2010 04:05:05 0.2 C 4.67 g/m*3 0.2 C 0 km/h
2900 01-01-2010 04:17:05 0.3 C 4.7 g/m*3 0.3 C 0 km/h
Sensor: Nr:Datum:Temp:Abs-Feuchte:Windchill:Wind:
Aussen-T/F 2901 01-01-2010 04:29:05 0.3 C 4.7 g/m*3 0.3 C 0 km/h
2902 01-01-2010 04:41:05 0.2 C 4.67 g/m*3 0.2 C 0 km/h
2903 01-01-2010 04:53:05 0.3 C 4.7 g/m*3 0.3 C 0 km/h
2904 01-01-2010 05:05:05 0.2 C 4.67 g/m*3 0.2 C 0 km/h
2905 01-01-2010 05:17:05 0.2 C 4.67 g/m*3 0.2 C 0 km/h
2906 01-01-2010 05:29:05 0.2 C 4.67 g/m*3 0.2 C 0 km/h
2907 01-01-2010 05:41:05 0.2 C 4.67 g/m*3 0.2 C 0 km/h
2908 01-01-2010 05:53:05 0.2 C 4.67 g/m*3 0.2 C 0 km/h
2909 01-01-2010 06:05:05 0.1 C 4.63 g/m*3 0.1 C 0 km/h
2910 01-01-2010 06:17:05 0.1 C 4.63 g/m*3 0.1 C 0 km/h
2911 01-01-2010 06:29:05 0.1 C 4.63 g/m*3 0.1 C 0 km/h
2912 01-01-2010 06:41:05 0.1 C 4.63 g/m*3 0.1 C 0 km/h
2913 01-01-2010 06:53:05 0.2 C 4.67 g/m*3 0.2 C 0 km/h
2914 01-01-2010 07:05:05 0.1 C 4.63 g/m*3 0.1 C 0 km/h
2915 01-01-2010 07:17:05 0.1 C 4.63 g/m*3 0.1 C 0 km/h
2916 01-01-2010 07:29:05 0.1 C 4.63 g/m*3 0.1 C 0 km/h
2917 01-01-2010 07:41:05 0.1 C 4.63 g/m*3 0.1 C 0 km/h
2918 01-01-2010 07:53:05 0.1 C 4.59 g/m*3 0.1 C 0 km/h
2919 01-01-2010 08:05:06 0.1 C 4.59 g/m*3 0.1 C 0 km/h
2920 01-01-2010 08:17:06 0.2 C 4.62 g/m*3 0.2 C 0 km/h
2921 01-01-2010 08:29:06 0.1 C 4.59 g/m*3 0.1 C 0 km/h
2922 01-01-2010 08:41:06 0.1 C 4.59 g/m*3 0.1 C 0 km/h
2923 01-01-2010 08:53:06 0.1 C 4.59 g/m*3 0.1 C 0 km/h
2924 01-01-2010 09:05:06 0.1 C 4.59 g/m*3 0.1 C 0 km/h
2925 01-01-2010 09:17:06 -0.1 C 4.52 g/m*3 -0.1 C 0 km/h
Sensor: Nr:Datum:Temp:Abs-Feuchte:Windchill:Wind:
Aussen-T/F 2926 01-01-2010 09:29:06 -0.1 C 4.52 g/m*3 -0.1 C 0 km/h
2927 01-01-2010 09:41:06 -0.1 C 4.52 g/m*3 -0.1 C 0 km/h
2928 01-01-2010 09:53:06 -0.1 C 4.52 g/m*3 -0.1 C 0 km/h
2929 01-01-2010 10:05:06 -0.1 C 4.52 g/m*3 -0.1 C 0 km/h
2930 01-01-2010 10:17:06 -0.1 C 4.52 g/m*3 -0.1 C 0 km/h
2931 01-01-2010 10:29:06 -0.1 C 4.52 g/m*3 -0.1 C 0 km/h
2932 01-01-2010 10:41:06 -0.2 C 4.49 g/m*3 -0.2 C 0 km/h
2933 01-01-2010 10:53:06 -0.2 C 4.44 g/m*3 -0.2 C 0 km/h
2934 01-01-2010 11:05:06 -0.1 C 4.47 g/m*3 -0.1 C 0 km/h
2935 01-01-2010 11:17:06 -0.2 C 4.4 g/m*3 -0.2 C 0 km/h
2936 01-01-2010 11:29:06 -0.1 C 4.43 g/m*3 -0.1 C 0 km/h
2937 01-01-2010 11:41:06 -0.2 C 4.4 g/m*3 -0.2 C 0 km/h
2938 01-01-2010 11:53:06 -0.2 C 4.4 g/m*3 -0.2 C 0 km/h
2939 01-01-2010 12:05:06 -0.1 C 4.43 g/m*3 -0.1 C 0 km/h
2940 01-01-2010 12:17:07 -0.2 C 4.35 g/m*3 -0.2 C 0 km/h
2941 01-01-2010 12:29:07 -0.2 C 4.35 g/m*3 -0.2 C 0 km/h
2942 01-01-2010 12:41:07 -0.2 C 4.3 g/m*3 -0.2 C 0 km/h
2943 01-01-2010 12:53:07 -0.2 C 4.3 g/m*3 -0.2 C 0 km/h
2944 01-01-2010 13:05:07 -0.2 C 4.3 g/m*3 -0.2 C 0 km/h
2945 01-01-2010 13:17:07 -0.3 C 4.27 g/m*3 -0.3 C 0 km/h
2946 01-01-2010 13:29:07 -0.3 C 4.27 g/m*3 -0.3 C 0 km/h
2947 01-01-2010 13:41:07 -0.3 C 4.27 g/m*3 -0.3 C 0 km/h
2948 01-01-2010 13:53:07 -0.3 C 4.27 g/m*3 -0.3 C 0 km/h
2949 01-01-2010 14:05:07 -0.3 C 4.27 g/m*3 -0.3 C 0 km/h
2950 01-01-2010 14:17:07 -0.3 C 4.22 g/m*3 -0.3 C 0 km/h
Sensor: Nr:Datum:Temp:Abs-Feuchte:Windchill:Wind:
Aussen-T/F 2951 01-01-2010 14:29:07 -0.2 C 4.3 g/m*3 -0.2 C 0 km/h
2952 01-01-2010 14:41:07 -0.2 C 4.3 g/m*3 -0.2 C 0 km/h
2953 01-01-2010 14:53:07 -0.2 C 4.3 g/m*3 -0.2 C 0 km/h
2954 01-01-2010 15:05:07 -0.2 C 4.3 g/m*3 -0.2 C 0 km/h
2955 01-01-2010 15:17:07 -0.2 C 4.25 g/m*3 -0.2 C 0 km/h
2956 01-01-2010 15:29:07 -0.2 C 4.25 g/m*3 -0.2 C 0 km/h
2957 01-01-2010 15:41:07 -0.2 C 4.25 g/m*3 -0.2 C 0 km/h
2958 01-01-2010 15:53:02 -0.2 C 4.25 g/m*3 -0.2 C 0 km/h
2959 01-01-2010 16:05:01 -0.2 C 4.3 g/m*3 -0.2 C 0 km/h
2960 01-01-2010 16:17:02 -0.3 C 4.27 g/m*3 -0.3 C 0 km/h
2961 01-01-2010 16:29:02 -0.3 C 4.27 g/m*3 -0.3 C 0 km/h
2962 01-01-2010 16:41:01 -0.3 C 4.32 g/m*3 -0.3 C 0 km/h
2963 01-01-2010 16:53:02 -0.3 C 4.32 g/m*3 -0.3 C 0 km/h
2964 01-01-2010 17:05:01 -0.4 C 4.29 g/m*3 -0.4 C 0 km/h
2965 01-01-2010 17:17:01 -0.4 C 4.29 g/m*3 -0.4 C 0 km/h
2966 01-01-2010 17:29:01 -0.5 C 4.26 g/m*3 -0.5 C 0 km/h
2967 01-01-2010 17:41:02 -0.5 C 4.26 g/m*3 -0.5 C 0 km/h
2968 01-01-2010 17:53:02 -0.5 C 4.26 g/m*3 -0.5 C 0 km/h
2969 01-01-2010 18:05:03 -0.5 C 4.26 g/m*3 -0.5 C 0 km/h
2970 01-01-2010 18:17:02 -0.6 C 4.23 g/m*3 -0.6 C 0 km/h
2971 01-01-2010 18:29:02 -0.6 C 4.23 g/m*3 -0.6 C 0 km/h
2972 01-01-2010 18:41:02 -0.7 C 4.2 g/m*3 -0.7 C 0 km/h
2973 01-01-2010 18:53:01 -0.8 C 4.22 g/m*3 -0.8 C 0 km/h
2974 01-01-2010 19:05:02 -0.8 C 4.17 g/m*3 -0.8 C 0 km/h
2975 01-01-2010 19:17:01 -0.9 C 4.14 g/m*3 -0.9 C 0 km/h
Sensor: Nr:Datum:Temp:Abs-Feuchte:Windchill:Wind:
Aussen-T/F 2976 01-01-2010 19:29:01 -0.8 C 4.17 g/m*3 -0.8 C 0 km/h
2977 01-01-2010 19:41:02 -0.8 C 4.13 g/m*3 -0.8 C 0 km/h
2978 01-01-2010 19:53:01 -0.8 C 4.08 g/m*3 -0.8 C 0 km/h
2979 01-01-2010 20:05:02 -0.7 C 4.06 g/m*3 -0.7 C 0 km/h
2980 01-01-2010 20:17:01 -0.7 C 4.02 g/m*3 -0.7 C 0 km/h
2981 01-01-2010 20:29:01 -0.8 C 3.94 g/m*3 -0.8 C 0 km/h
2982 01-01-2010 20:41:02 -0.8 C 3.94 g/m*3 -0.8 C 0 km/h
2983 01-01-2010 20:53:01 -0.8 C 3.9 g/m*3 -0.8 C 0 km/h
2984 01-01-2010 21:05:02 -0.8 C 3.9 g/m*3 -0.8 C 0 km/h
2985 01-01-2010 21:17:02 -0.8 C 3.9 g/m*3 -0.8 C 0 km/h
2986 01-01-2010 21:29:02 -0.8 C 3.9 g/m*3 -0.8 C 0 km/h
2987 01-01-2010 21:41:02 -0.8 C 3.9 g/m*3 -0.8 C 0 km/h
2988 01-01-2010 21:53:02 -0.8 C 3.85 g/m*3 -0.8 C 0 km/h
2989 01-01-2010 22:05:02 -0.8 C 3.85 g/m*3 -0.8 C 0 km/h
2990 01-01-2010 22:17:01 -0.9 C 3.82 g/m*3 -0.9 C 0 km/h
2991 01-01-2010 22:29:01 -0.9 C 3.82 g/m*3 -0.9 C 0 km/h
2992 01-01-2010 22:41:02 -0.9 C 3.82 g/m*3 -0.9 C 0 km/h
2993 01-01-2010 22:53:02 -0.9 C 3.82 g/m*3 -0.9 C 0 km/h
2994 01-01-2010 23:05:02 -1 C 3.84 g/m*3 -1 C 0 km/h
2995 01-01-2010 23:17:02 -1 C 3.84 g/m*3 -1 C 0 km/h
2996 01-01-2010 23:29:02 -1 C 3.84 g/m*3 -1 C 0 km/h
2997 01-01-2010 23:41:02 -1 C 3.84 g/m*3 -1 C 0 km/h
2998 01-01-2010 23:53:01 -1 C 3.84 g/m*3 -1 C 0 km/h
2999 02-01-2010 00:05:02 -1 C 3.8 g/m*3 -1 C 0 km/h
3000 02-01-2010 00:17:02 -1.1 C 3.73 g/m*3 -1.1 C 0 km/h
Sensor: Nr:Datum:Temp:Abs-Feuchte:Windchill:Wind:
Aussen-T/F 3001 02-01-2010 00:29:02 -1.1 C 3.73 g/m*3 -1.1 C 0 km/h
3002 02-01-2010 00:41:02 -1.2 C 3.7 g/m*3 -1.2 C 0 km/h
3003 02-01-2010 00:53:02 -1.2 C 3.7 g/m*3 -1.2 C 0 km/h
3004 02-01-2010 01:05:02 -1.3 C 3.67 g/m*3 -1.3 C 0 km/h
3005 02-01-2010 01:17:02 -1.3 C 3.67 g/m*3 -1.3 C 0 km/h
3006 02-01-2010 01:29:03 -1.4 C 3.6 g/m*3 -1.4 C 0 km/h
3007 02-01-2010 01:41:01 -1.4 C 3.56 g/m*3 -1.4 C 0 km/h
3008 02-01-2010 01:53:02 -1.5 C 3.54 g/m*3 -1.5 C 0 km/h
3009 02-01-2010 02:05:01 -1.6 C 3.47 g/m*3 -1.6 C 0 km/h
3010 02-01-2010 02:17:02 -1.5 C 3.49 g/m*3 -1.5 C 0 km/h
3011 02-01-2010 02:29:02 -1.4 C 3.56 g/m*3 -1.4 C 0 km/h
3012 02-01-2010 02:41:02 -1.4 C 3.56 g/m*3 -1.4 C 0 km/h
3013 02-01-2010 02:54:04 -1.5 C 3.49 g/m*3 -1.5 C 0 km/h
3014 02-01-2010 03:06:04 -1.6 C 3.42 g/m*3 -1.6 C 0 km/h
3015 02-01-2010 03:18:04 -1.7 C 3.36 g/m*3 -1.7 C 0 km/h
3016 02-01-2010 03:30:04 -1.8 C 3.33 g/m*3 -1.8 C 0 km/h
3017 02-01-2010 03:42:02 -1.9 C 3.27 g/m*3 -1.9 C 0 km/h
3018 02-01-2010 03:54:02 -1.9 C 3.27 g/m*3 -1.9 C 0 km/h
3019 02-01-2010 04:06:02 -1.9 C 3.27 g/m*3 -1.9 C 0 km/h
3020 02-01-2010 04:18:02 -2 C 3.25 g/m*3 -2 C 0 km/h
3021 02-01-2010 04:30:03 -2.1 C 3.18 g/m*3 -2.1 C 0 km/h
3022 02-01-2010 04:42:02 -2.2 C 3.16 g/m*3 -2.2 C 0 km/h
3023 02-01-2010 04:54:02 -2.1 C 3.22 g/m*3 -2.1 C 0 km/h
3024 02-01-2010 05:06:01 -2.2 C 3.2 g/m*3 -2.2 C 0 km/h
3025 02-01-2010 05:18:02 -2.2 C 3.28 g/m*3 -2.2 C 0 km/h
Sensor: Nr:Datum:Temp:Abs-Feuchte:Windchill:Wind:
Aussen-T/F 3026 02-01-2010 05:30:02 -2.2 C 3.33 g/m*3 -2.2 C 0 km/h
3027 02-01-2010 05:42:02 -2.2 C 3.37 g/m*3 -2.2 C 0 km/h
3028 02-01-2010 05:54:02 -2.2 C 3.33 g/m*3 -2.2 C 0 km/h
3029 02-01-2010 06:06:03 -2.3 C 3.18 g/m*3 -2.3 C 0 km/h
3030 02-01-2010 06:18:02 -2.2 C 3.16 g/m*3 -2.2 C 0 km/h
3031 02-01-2010 06:30:02 -2.4 C 3.07 g/m*3 -2.4 C 0 km/h
3032 02-01-2010 06:42:02 -2.5 C 3.01 g/m*3 -2.5 C 0 km/h
3033 02-01-2010 06:54:01 -2.5 C 2.89 g/m*3 -2.5 C 0 km/h
3034 02-01-2010 07:06:02 -2.5 C 2.77 g/m*3 -2.5 C 0 km/h
3035 02-01-2010 07:18:01 -2.5 C 2.73 g/m*3 -2.5 C 0 km/h
3036 02-01-2010 07:30:01 -2.6 C 2.71 g/m*3 -2.6 C 0 km/h
3037 02-01-2010 07:42:01 -2.7 C 2.77 g/m*3 -2.7 C 0 km/h
3038 02-01-2010 07:54:01 -2.8 C 2.79 g/m*3 -2.8 C 0 km/h
3039 02-01-2010 08:06:02 -2.8 C 2.79 g/m*3 -2.8 C 0 km/h
3040 02-01-2010 08:18:01 -3.1 C 2.73 g/m*3 -3.1 C 0 km/h
3041 02-01-2010 08:30:01 -3.4 C 2.71 g/m*3 -3.4 C 0 km/h
3042 02-01-2010 08:42:01 -3.6 C 2.75 g/m*3 -3.6 C 0 km/h
3043 02-01-2010 08:54:01 -3.7 C 2.84 g/m*3 -3.7 C 0 km/h
3044 02-01-2010 09:06:01 -3.8 C 2.86 g/m*3 -3.8 C 0 km/h
3045 02-01-2010 09:18:02 -3.9 C 2.87 g/m*3 -3.9 C 0 km/h
3046 02-01-2010 09:30:02 -3.7 C 2.95 g/m*3 -3.7 C 0 km/h
3047 02-01-2010 09:42:01 -3.6 C 2.94 g/m*3 -3.6 C 0 km/h
3048 02-01-2010 09:54:02 -3.7 C 2.88 g/m*3 -3.7 C 0 km/h
3049 02-01-2010 10:06:02 -3.6 C 2.94 g/m*3 -3.6 C 0 km/h
3050 02-01-2010 10:18:02 -3.4 C 2.98 g/m*3 -3.4 C 0 km/h
Sensor: Nr:Datum:Temp:Abs-Feuchte:Windchill:Wind:
Aussen-T/F 3051 02-01-2010 10:30:02 -3.4 C 2.98 g/m*3 -3.4 C 0 km/h
3052 02-01-2010 10:42:02 -3.3 C 3 g/m*3 -3.3 C 0 km/h
3053 02-01-2010 10:54:02 -3.3 C 3 g/m*3 -3.3 C 0 km/h
3054 02-01-2010 11:06:01 -3.2 C 3.02 g/m*3 -3.2 C 0 km/h
3055 02-01-2010 11:18:02 -3.1 C 3.04 g/m*3 -3.1 C 0 km/h
3056 02-01-2010 11:30:03 -2.9 C 3.05 g/m*3 -2.9 C 0 km/h
3057 02-01-2010 11:42:01 -2.8 C 3.07 g/m*3 -2.8 C 0 km/h
3058 02-01-2010 11:54:02 -2.6 C 3.11 g/m*3 -2.6 C 0 km/h
3059 02-01-2010 12:06:02 -2.3 C 3.18 g/m*3 -2.3 C 0 km/h
3060 02-01-2010 12:18:02 -2 C 3.25 g/m*3 -2 C 0 km/h
3061 02-01-2010 12:30:02 -1.9 C 3.23 g/m*3 -1.9 C 0 km/h
3062 02-01-2010 12:42:03 -1.9 C 3.23 g/m*3 -1.9 C 0 km/h
3063 02-01-2010 12:54:02 -1.8 C 3.25 g/m*3 -1.8 C 0 km/h
3064 02-01-2010 13:06:02 -1.8 C 3.25 g/m*3 -1.8 C 0 km/h
3065 02-01-2010 13:18:02 -1.7 C 3.31 g/m*3 -1.7 C 0 km/h
3066 02-01-2010 13:30:02 -1.6 C 3.34 g/m*3 -1.6 C 0 km/h
3067 02-01-2010 13:42:02 -1.6 C 3.38 g/m*3 -1.6 C 0 km/h
3068 02-01-2010 13:54:02 -1.2 C 3.43 g/m*3 -1.2 C 0 km/h
3069 02-01-2010 14:06:02 -0.8 C 3.39 g/m*3 -0.8 C 0 km/h
3070 02-01-2010 14:18:02 -0.8 C 3.35 g/m*3 -0.8 C 0 km/h
3071 02-01-2010 14:30:02 -0.7 C 3.32 g/m*3 -0.7 C 0 km/h
3072 02-01-2010 14:42:02 -0.9 C 3.32 g/m*3 -0.9 C 0 km/h
3073 02-01-2010 14:54:02 -0.9 C 3.32 g/m*3 -0.9 C 0 km/h
3074 02-01-2010 15:06:02 -1.1 C 3.32 g/m*3 -1.1 C 0 km/h
3075 02-01-2010 15:18:02 -1.3 C 3.32 g/m*3 -1.3 C 0 km/h
Sensor: Nr:Datum:Temp:Abs-Feuchte:Windchill:Wind:
Aussen-T/F 3076 02-01-2010 15:30:02 -1.3 C 3.41 g/m*3 -1.3 C 0 km/h
3077 02-01-2010 15:42:02 -1.3 C 3.45 g/m*3 -1.3 C 0 km/h
3078 02-01-2010 15:54:01 -1.1 C 3.55 g/m*3 -1.1 C 0 km/h
3079 02-01-2010 16:06:01 -0.7 C 3.55 g/m*3 -0.7 C 0 km/h
3080 02-01-2010 16:18:02 -0.6 C 3.53 g/m*3 -0.6 C 0 km/h
3081 02-01-2010 16:30:02 -0.5 C 3.51 g/m*3 -0.5 C 0 km/h
3082 02-01-2010 16:42:01 -0.5 C 3.46 g/m*3 -0.5 C 0 km/h
3083 02-01-2010 16:54:01 -0.5 C 3.46 g/m*3 -0.5 C 0 km/h
3084 02-01-2010 17:06:01 -0.5 C 3.46 g/m*3 -0.5 C 0 km/h
3085 02-01-2010 17:18:02 -0.5 C 3.51 g/m*3 -0.5 C 0 km/h
3086 02-01-2010 17:30:02 -0.4 C 3.53 g/m*3 -0.4 C 0 km/h
3087 02-01-2010 17:42:01 -0.4 C 3.53 g/m*3 -0.4 C 0 km/h
3088 02-01-2010 17:54:03 -0.5 C 3.51 g/m*3 -0.5 C 0 km/h
3089 02-01-2010 18:06:02 -0.5 C 3.51 g/m*3 -0.5 C 0 km/h
3090 02-01-2010 18:18:02 -0.4 C 3.53 g/m*3 -0.4 C 0 km/h
3091 02-01-2010 18:30:02 -0.4 C 3.53 g/m*3 -0.4 C 0 km/h
3092 02-01-2010 18:42:02 -0.3 C 3.56 g/m*3 -0.3 C 0 km/h
3093 02-01-2010 18:54:02 -0.2 C 3.58 g/m*3 -0.2 C 0 km/h
3094 02-01-2010 19:06:02 -0.1 C 3.61 g/m*3 -0.1 C 0 km/h
3095 02-01-2010 19:18:02 -0.3 C 3.56 g/m*3 -0.3 C 0 km/h
3096 02-01-2010 19:30:03 -0.1 C 3.61 g/m*3 -0.1 C 0 km/h
3097 02-01-2010 19:42:02 -0.2 C 3.63 g/m*3 -0.2 C 0 km/h
3098 02-01-2010 19:54:02 -0.3 C 3.61 g/m*3 -0.3 C 0 km/h
3099 02-01-2010 20:06:01 -0.2 C 3.63 g/m*3 -0.2 C 0 km/h
3100 02-01-2010 20:18:02 -0.1 C 3.71 g/m*3 -0.1 C 0 km/h
Sensor: Nr:Datum:Temp:Abs-Feuchte:Windchill:Wind:
Aussen-T/F 3101 02-01-2010 20:30:02 -0.1 C 3.71 g/m*3 -0.1 C 0 km/h
3102 02-01-2010 20:42:02 -0.1 C 3.66 g/m*3 -0.1 C 0 km/h
3103 02-01-2010 20:54:01 -0.1 C 3.71 g/m*3 -0.1 C 0 km/h
3104 02-01-2010 21:06:02 -0.1 C 3.71 g/m*3 -0.1 C 0 km/h
3105 02-01-2010 21:18:01 -0.1 C 3.71 g/m*3 -0.1 C 0 km/h
3106 02-01-2010 21:30:01 -0.1 C 3.66 g/m*3 -0.1 C 0 km/h
3107 02-01-2010 21:42:02 -0.1 C 3.66 g/m*3 -0.1 C 0 km/h
3108 02-01-2010 21:54:02 -0.1 C 3.66 g/m*3 -0.1 C 0 km/h
3109 02-01-2010 22:06:01 -0.1 C 3.66 g/m*3 -0.1 C 0 km/h
3110 02-01-2010 22:18:02 -0.1 C 3.66 g/m*3 -0.1 C 0 km/h
3111 02-01-2010 22:30:02 -0.1 C 3.66 g/m*3 -0.1 C 0 km/h
3112 02-01-2010 22:42:02 -0.1 C 3.66 g/m*3 -0.1 C 0 km/h
3113 02-01-2010 22:55:03 -0.3 C 3.61 g/m*3 -0.3 C 0 km/h
3114 02-01-2010 23:07:03 -0.3 C 3.61 g/m*3 -0.3 C 0 km/h
3115 02-01-2010 23:19:03 -0.3 C 3.65 g/m*3 -0.3 C 0 km/h
3116 02-01-2010 23:31:03 -0.3 C 3.65 g/m*3 -0.3 C 0 km/h
3117 02-01-2010 23:43:03 -0.3 C 3.7 g/m*3 -0.3 C 0 km/h
3118 02-01-2010 23:55:03 -0.4 C 3.68 g/m*3 -0.4 C 0 km/h
3119 03-01-2010 00:07:03 -0.5 C 3.65 g/m*3 -0.5 C 0 km/h
3120 03-01-2010 00:19:03 -0.4 C 3.68 g/m*3 -0.4 C 0 km/h
3121 03-01-2010 00:31:03 -0.4 C 3.68 g/m*3 -0.4 C 0 km/h
3122 03-01-2010 00:43:03 -0.4 C 3.68 g/m*3 -0.4 C 0 km/h
3123 03-01-2010 00:55:03 -0.4 C 3.72 g/m*3 -0.4 C 0 km/h
3124 03-01-2010 01:07:03 -0.3 C 3.75 g/m*3 -0.3 C 0 km/h
3125 03-01-2010 01:19:03 -0.3 C 3.75 g/m*3 -0.3 C 0 km/h
Sensor: Nr:Datum:Temp:Abs-Feuchte:Windchill:Wind:
Aussen-T/F 3126 03-01-2010 01:31:03 -0.1 C 3.75 g/m*3 -0.1 C 0 km/h
3127 03-01-2010 01:43:04 -0.1 C 3.75 g/m*3 -0.1 C 0 km/h
3128 03-01-2010 01:55:04 0 C 3.78 g/m*3 0 C 0 km/h
3129 03-01-2010 02:07:04 0.1 C 3.76 g/m*3 0.1 C 0 km/h
3130 03-01-2010 02:19:04 0.1 C 3.76 g/m*3 0.1 C 0 km/h
3131 03-01-2010 02:31:04 0.1 C 3.71 g/m*3 0.1 C 0 km/h
3132 03-01-2010 02:43:04 -0.2 C 3.63 g/m*3 -0.2 C 0 km/h
3133 03-01-2010 02:55:04 -0.4 C 3.58 g/m*3 -0.4 C 0 km/h
3134 03-01-2010 03:07:04 -0.4 C 3.58 g/m*3 -0.4 C 0 km/h
3135 03-01-2010 03:19:04 -0.4 C 3.58 g/m*3 -0.4 C 0 km/h
3136 03-01-2010 03:31:04 -0.7 C 3.51 g/m*3 -0.7 C 0 km/h
3137 03-01-2010 03:43:04 -0.7 C 3.55 g/m*3 -0.7 C 0 km/h
3138 03-01-2010 03:55:04 -0.3 C 3.65 g/m*3 -0.3 C 0 km/h
3139 03-01-2010 04:07:04 0 C 3.92 g/m*3 0 C 0 km/h
3140 03-01-2010 04:19:04 -0.4 C 3.96 g/m*3 -0.4 C 0 km/h
3141 03-01-2010 04:31:04 -0.4 C 4.01 g/m*3 -0.4 C 0 km/h
3142 03-01-2010 04:43:04 -0.3 C 4.03 g/m*3 -0.3 C 0 km/h
3143 03-01-2010 04:55:04 -0.1 C 4.09 g/m*3 -0.1 C 0 km/h
3144 03-01-2010 05:07:04 -0.1 C 4.04 g/m*3 -0.1 C 0 km/h
3145 03-01-2010 05:19:04 0.2 C 4.08 g/m*3 0.2 C 0 km/h
3146 03-01-2010 05:31:04 0.2 C 4.03 g/m*3 0.2 C 0 km/h
3147 03-01-2010 05:43:04 0.3 C 4.06 g/m*3 0.3 C 0 km/h
3148 03-01-2010 05:55:05 0.3 C 4.16 g/m*3 0.3 C 0 km/h
3149 03-01-2010 06:07:05 0.1 C 4.24 g/m*3 0.1 C 0 km/h
3150 03-01-2010 06:19:05 0 C 4.31 g/m*3 0 C 0 km/h
Sensor: Nr:Datum:Temp:Abs-Feuchte:Windchill:Wind:
Aussen-T/F 3151 03-01-2010 06:31:05 -0.1 C 4.33 g/m*3 -0.1 C 0 km/h
3152 03-01-2010 06:43:05 -0.1 C 4.38 g/m*3 -0.1 C 0 km/h
3153 03-01-2010 06:55:05 0 C 4.41 g/m*3 0 C 0 km/h
3154 03-01-2010 07:07:05 0.1 C 4.44 g/m*3 0.1 C 0 km/h
3155 03-01-2010 07:19:05 0.2 C 4.47 g/m*3 0.2 C 0 km/h
3156 03-01-2010 07:31:05 0.3 C 4.45 g/m*3 0.3 C 0 km/h
3157 03-01-2010 07:43:05 0.3 C 4.4 g/m*3 0.3 C 0 km/h
3158 03-01-2010 07:55:05 0.3 C 4.4 g/m*3 0.3 C 0 km/h
3159 03-01-2010 08:07:05 0.3 C 4.45 g/m*3 0.3 C 0 km/h
3160 03-01-2010 08:19:03 0.2 C 4.47 g/m*3 0.2 C 0 km/h
3161 03-01-2010 08:31:03 0.3 C 4.5 g/m*3 0.3 C 0 km/h
3162 03-01-2010 08:43:03 0.3 C 4.5 g/m*3 0.3 C 0 km/h
3163 03-01-2010 08:55:03 0.4 C 4.53 g/m*3 0.4 C 0 km/h
3164 03-01-2010 09:07:02 0.3 C 4.5 g/m*3 0.3 C 0 km/h
3165 03-01-2010 09:19:02 0.3 C 4.55 g/m*3 0.3 C 0 km/h
3166 03-01-2010 09:31:03 0.3 C 4.55 g/m*3 0.3 C 0 km/h
3167 03-01-2010 09:43:03 0.4 C 4.58 g/m*3 0.4 C 0 km/h
3168 03-01-2010 09:55:02 0.4 C 4.58 g/m*3 0.4 C 0 km/h
3169 03-01-2010 10:07:02 0.4 C 4.58 g/m*3 0.4 C 0 km/h
3170 03-01-2010 10:19:02 0.6 C 4.6 g/m*3 0.6 C 0 km/h
3171 03-01-2010 10:31:02 0.6 C 4.49 g/m*3 0.6 C 0 km/h
3172 03-01-2010 10:43:02 0.7 C 4.47 g/m*3 0.7 C 0 km/h
3173 03-01-2010 10:55:02 0.6 C 4.39 g/m*3 0.6 C 0 km/h
3174 03-01-2010 11:07:03 0.5 C 4.31 g/m*3 0.5 C 0 km/h
3175 03-01-2010 11:19:02 0.4 C 4.18 g/m*3 0.4 C 0 km/h
Sensor: Nr:Datum:Temp:Abs-Feuchte:Windchill:Wind:
Aussen-T/F 3176 03-01-2010 11:31:02 0 C 3.97 g/m*3 0 C 0 km/h
3177 03-01-2010 11:43:02 -0.1 C 3.99 g/m*3 -0.1 C 0 km/h
3178 03-01-2010 11:55:02 -0.5 C 3.84 g/m*3 -0.5 C 0 km/h
3179 03-01-2010 12:07:02 -0.8 C 3.76 g/m*3 -0.8 C 0 km/h
3180 03-01-2010 12:19:02 -0.9 C 3.73 g/m*3 -0.9 C 0 km/h
3181 03-01-2010 12:31:01 -1.6 C 3.55 g/m*3 -1.6 C 0 km/h
3182 03-01-2010 12:43:01 -1.6 C 3.55 g/m*3 -1.6 C 0 km/h
3183 03-01-2010 12:55:02 -1.7 C 3.49 g/m*3 -1.7 C 0 km/h
3184 03-01-2010 13:07:02 -2 C 3.41 g/m*3 -2 C 0 km/h
3185 03-01-2010 13:19:01 -2.2 C 3.41 g/m*3 -2.2 C 0 km/h
3186 03-01-2010 13:31:02 -2.2 C 3.41 g/m*3 -2.2 C 0 km/h
3187 03-01-2010 13:43:02 -2.2 C 3.37 g/m*3 -2.2 C 0 km/h
3188 03-01-2010 13:55:02 -2.1 C 3.39 g/m*3 -2.1 C 0 km/h
3189 03-01-2010 14:07:03 -2.2 C 3.33 g/m*3 -2.2 C 0 km/h
3190 03-01-2010 14:19:03 -2.3 C 3.26 g/m*3 -2.3 C 0 km/h
3191 03-01-2010 14:31:02 -2.4 C 3.2 g/m*3 -2.4 C 0 km/h
3192 03-01-2010 14:43:02 -2.5 C 3.17 g/m*3 -2.5 C 0 km/h
3193 03-01-2010 14:55:02 -2.5 C 3.09 g/m*3 -2.5 C 0 km/h
3194 03-01-2010 15:07:03 -2.4 C 3.11 g/m*3 -2.4 C 0 km/h
3195 03-01-2010 15:19:02 -2.7 C 2.97 g/m*3 -2.7 C 0 km/h
3196 03-01-2010 15:31:03 -2.9 C 2.89 g/m*3 -2.9 C 0 km/h
3197 03-01-2010 15:43:03 -2.8 C 2.91 g/m*3 -2.8 C 0 km/h
3198 03-01-2010 15:55:02 -3 C 2.87 g/m*3 -3 C 0 km/h
3199 03-01-2010 16:07:01 -3.3 C 2.77 g/m*3 -3.3 C 0 km/h
3200 03-01-2010 16:19:02 -3.7 C 2.69 g/m*3 -3.7 C 0 km/h
Sensor: Nr:Datum:Temp:Abs-Feuchte:Windchill:Wind:
Aussen-T/F 3201 03-01-2010 16:31:02 -3.9 C 2.69 g/m*3 -3.9 C 0 km/h
3202 03-01-2010 16:43:02 -4.1 C 2.65 g/m*3 -4.1 C 0 km/h
3203 03-01-2010 16:55:02 -4 C 2.67 g/m*3 -4 C 0 km/h
3204 03-01-2010 17:07:01 -4 C 2.71 g/m*3 -4 C 0 km/h
3205 03-01-2010 17:19:01 -4.5 C 2.61 g/m*3 -4.5 C 0 km/h
3206 03-01-2010 17:31:02 -4.6 C 2.63 g/m*3 -4.6 C 0 km/h
3207 03-01-2010 17:43:02 -4.8 C 2.59 g/m*3 -4.8 C 0 km/h
3208 03-01-2010 17:55:02 -4.8 C 2.63 g/m*3 -4.8 C 0 km/h
3209 03-01-2010 18:07:02 -4.6 C 2.7 g/m*3 -4.6 C 0 km/h
3210 03-01-2010 18:19:02 -4.5 C 2.72 g/m*3 -4.5 C 0 km/h
3211 03-01-2010 18:31:02 -4.5 C 2.68 g/m*3 -4.5 C 0 km/h
3212 03-01-2010 18:43:02 -4.5 C 2.68 g/m*3 -4.5 C 0 km/h
3213 03-01-2010 18:55:02 -4.5 C 2.68 g/m*3 -4.5 C 0 km/h
3214 03-01-2010 19:07:02 -4.5 C 2.68 g/m*3 -4.5 C 0 km/h
3215 03-01-2010 19:19:02 -4.4 C 2.74 g/m*3 -4.4 C 0 km/h
3216 03-01-2010 19:31:02 -4.4 C 2.74 g/m*3 -4.4 C 0 km/h
3217 03-01-2010 19:43:02 -4.4 C 2.77 g/m*3 -4.4 C 0 km/h
3218 03-01-2010 19:55:01 -4.4 C 2.77 g/m*3 -4.4 C 0 km/h
3219 03-01-2010 20:07:02 -4.3 C 2.79 g/m*3 -4.3 C 0 km/h
3220 03-01-2010 20:19:01 -4.3 C 2.79 g/m*3 -4.3 C 0 km/h
3221 03-01-2010 20:31:01 -4.3 C 2.79 g/m*3 -4.3 C 0 km/h
3222 03-01-2010 20:43:01 -4.3 C 2.79 g/m*3 -4.3 C 0 km/h
3223 03-01-2010 20:55:01 -4.3 C 2.79 g/m*3 -4.3 C 0 km/h
3224 03-01-2010 21:07:01 -4.2 C 2.85 g/m*3 -4.2 C 0 km/h
3225 03-01-2010 21:19:02 -4.2 C 2.81 g/m*3 -4.2 C 0 km/h
Sensor: Nr:Datum:Temp:Abs-Feuchte:Windchill:Wind:
Aussen-T/F 3226 03-01-2010 21:31:01 -4.3 C 2.76 g/m*3 -4.3 C 0 km/h
3227 03-01-2010 21:43:01 -4.3 C 2.76 g/m*3 -4.3 C 0 km/h
3228 03-01-2010 21:55:01 -4.3 C 2.76 g/m*3 -4.3 C 0 km/h
3229 03-01-2010 22:07:02 -4.4 C 2.74 g/m*3 -4.4 C 0 km/h
3230 03-01-2010 22:19:01 -4.4 C 2.74 g/m*3 -4.4 C 0 km/h
3231 03-01-2010 22:31:01 -4.5 C 2.72 g/m*3 -4.5 C 0 km/h
3232 03-01-2010 22:43:01 -4.5 C 2.75 g/m*3 -4.5 C 0 km/h
3233 03-01-2010 22:56:02 -4.4 C 2.77 g/m*3 -4.4 C 0 km/h
3234 03-01-2010 23:08:02 -4.5 C 2.75 g/m*3 -4.5 C 0 km/h
3235 03-01-2010 23:20:02 -4.5 C 2.75 g/m*3 -4.5 C 0 km/h
3236 03-01-2010 23:32:02 -4.5 C 2.75 g/m*3 -4.5 C 0 km/h
3237 03-01-2010 23:44:02 -4.6 C 2.73 g/m*3 -4.6 C 0 km/h
3238 03-01-2010 23:56:02 -4.6 C 2.73 g/m*3 -4.6 C 0 km/h
3239 04-01-2010 00:08:02 -4.5 C 2.75 g/m*3 -4.5 C 0 km/h
3240 04-01-2010 00:20:02 -4.5 C 2.75 g/m*3 -4.5 C 0 km/h
3241 04-01-2010 00:32:02 -4.3 C 2.83 g/m*3 -4.3 C 0 km/h
3242 04-01-2010 00:44:02 -4.4 C 2.81 g/m*3 -4.4 C 0 km/h
3243 04-01-2010 00:56